<?xml version="1.0" encoding="UTF-8" standalone="no" ?>
<gpx xmlns="http://www.topografix.com/GPX/1/1" xmlns:xsi="http://www.w3.org/2001/XMLSchema-instance" xsi:schemaLocation="http://www.topografix.com/GPX/1/1 http://www.topografix.com/GPX/1/1/gpx.xsd" version="1.1" creator="VisuGPX - https://www.visugpx.com">
  <metadata>
    <name>Trans-Mont-Do_28km_900D</name>
  </metadata>
  <trk>
    <name><![CDATA[VTT-AM-4_Trans-Mont-Do_28km_900D]]></name>
    <trkseg>
      <trkpt lat="45.87078" lon="4.82029">
        <ele>211.1</ele>
        <time>2019-05-24T16:26:01.000Z</time>
      </trkpt>
      <trkpt lat="45.87072" lon="4.82045">
        <ele>210.4</ele>
        <time>2019-05-24T16:26:01.247Z</time>
      </trkpt>
      <trkpt lat="45.87072" lon="4.82049">
        <ele>210.2</ele>
        <time>2019-05-24T16:26:01.310Z</time>
      </trkpt>
      <trkpt lat="45.87074" lon="4.82051">
        <ele>209.9</ele>
        <time>2019-05-24T16:26:01.365Z</time>
      </trkpt>
      <trkpt lat="45.87079" lon="4.82043">
        <ele>210.1</ele>
        <time>2019-05-24T16:26:01.517Z</time>
      </trkpt>
      <trkpt lat="45.87078" lon="4.82044">
        <ele>210.1</ele>
        <time>2019-05-24T16:26:01.557Z</time>
      </trkpt>
      <trkpt lat="45.8708" lon="4.82039">
        <ele>210.4</ele>
        <time>2019-05-24T16:26:01.644Z</time>
      </trkpt>
      <trkpt lat="45.87082" lon="4.82041">
        <ele>210.1</ele>
        <time>2019-05-24T16:26:01.685Z</time>
      </trkpt>
      <trkpt lat="45.87079" lon="4.8204">
        <ele>210.3</ele>
        <time>2019-05-24T16:26:01.730Z</time>
      </trkpt>
      <trkpt lat="45.8708" lon="4.82037">
        <ele>210.5</ele>
        <time>2019-05-24T16:26:01.771Z</time>
      </trkpt>
      <trkpt lat="45.87078" lon="4.82037">
        <ele>210.6</ele>
        <time>2019-05-24T16:26:01.805Z</time>
      </trkpt>
      <trkpt lat="45.87073" lon="4.82043">
        <ele>210.5</ele>
        <time>2019-05-24T16:26:01.940Z</time>
      </trkpt>
      <trkpt lat="45.87051" lon="4.82049">
        <ele>211.4</ele>
        <time>2019-05-24T16:26:02.392Z</time>
      </trkpt>
      <trkpt lat="45.87005" lon="4.82022">
        <ele>214.6</ele>
        <time>2019-05-24T16:26:03.384Z</time>
      </trkpt>
      <trkpt lat="45.86942" lon="4.81973">
        <ele>216.5</ele>
        <time>2019-05-24T16:26:04.820Z</time>
      </trkpt>
      <trkpt lat="45.86913" lon="4.81944">
        <ele>217.7</ele>
        <time>2019-05-24T16:26:05.526Z</time>
      </trkpt>
      <trkpt lat="45.86896" lon="4.81921">
        <ele>219.7</ele>
        <time>2019-05-24T16:26:05.995Z</time>
      </trkpt>
      <trkpt lat="45.86893" lon="4.81922">
        <ele>220</ele>
        <time>2019-05-24T16:26:06.046Z</time>
      </trkpt>
      <trkpt lat="45.8689" lon="4.81942">
        <ele>221.7</ele>
        <time>2019-05-24T16:26:06.325Z</time>
      </trkpt>
      <trkpt lat="45.86878" lon="4.81957">
        <ele>223.8</ele>
        <time>2019-05-24T16:26:06.635Z</time>
      </trkpt>
      <trkpt lat="45.86871" lon="4.81956">
        <ele>224.4</ele>
        <time>2019-05-24T16:26:06.786Z</time>
      </trkpt>
      <trkpt lat="45.86846" lon="4.81958">
        <ele>226.3</ele>
        <time>2019-05-24T16:26:07.273Z</time>
      </trkpt>
      <trkpt lat="45.86831" lon="4.81958">
        <ele>227.2</ele>
        <time>2019-05-24T16:26:07.580Z</time>
      </trkpt>
      <trkpt lat="45.86789" lon="4.81968">
        <ele>231.2</ele>
        <time>2019-05-24T16:26:08.438Z</time>
      </trkpt>
      <trkpt lat="45.86749" lon="4.81984">
        <ele>236.5</ele>
        <time>2019-05-24T16:26:09.265Z</time>
      </trkpt>
      <trkpt lat="45.86731" lon="4.81995">
        <ele>239.1</ele>
        <time>2019-05-24T16:26:09.651Z</time>
      </trkpt>
      <trkpt lat="45.86719" lon="4.81998">
        <ele>240.5</ele>
        <time>2019-05-24T16:26:09.913Z</time>
      </trkpt>
      <trkpt lat="45.86705" lon="4.82006">
        <ele>242.8</ele>
        <time>2019-05-24T16:26:10.194Z</time>
      </trkpt>
      <trkpt lat="45.86718" lon="4.82017">
        <ele>243.6</ele>
        <time>2019-05-24T16:26:10.490Z</time>
      </trkpt>
      <trkpt lat="45.86729" lon="4.82022">
        <ele>243.9</ele>
        <time>2019-05-24T16:26:10.717Z</time>
      </trkpt>
      <trkpt lat="45.86791" lon="4.82033">
        <ele>247.8</ele>
        <time>2019-05-24T16:26:11.986Z</time>
      </trkpt>
      <trkpt lat="45.86807" lon="4.82043">
        <ele>249.6</ele>
        <time>2019-05-24T16:26:12.333Z</time>
      </trkpt>
      <trkpt lat="45.86812" lon="4.8205">
        <ele>250.4</ele>
        <time>2019-05-24T16:26:12.468Z</time>
      </trkpt>
      <trkpt lat="45.86814" lon="4.82053">
        <ele>251</ele>
        <time>2019-05-24T16:26:12.529Z</time>
      </trkpt>
      <trkpt lat="45.86812" lon="4.82065">
        <ele>253.2</ele>
        <time>2019-05-24T16:26:12.689Z</time>
      </trkpt>
      <trkpt lat="45.86791" lon="4.82066">
        <ele>255.7</ele>
        <time>2019-05-24T16:26:13.109Z</time>
      </trkpt>
      <trkpt lat="45.86763" lon="4.82064">
        <ele>257.3</ele>
        <time>2019-05-24T16:26:13.678Z</time>
      </trkpt>
      <trkpt lat="45.86746" lon="4.82065">
        <ele>258.3</ele>
        <time>2019-05-24T16:26:14.007Z</time>
      </trkpt>
      <trkpt lat="45.86729" lon="4.82071">
        <ele>260.2</ele>
        <time>2019-05-24T16:26:14.368Z</time>
      </trkpt>
      <trkpt lat="45.86702" lon="4.82074">
        <ele>263.8</ele>
        <time>2019-05-24T16:26:14.908Z</time>
      </trkpt>
      <trkpt lat="45.86627" lon="4.82073">
        <ele>271.8</ele>
        <time>2019-05-24T16:26:16.411Z</time>
      </trkpt>
      <trkpt lat="45.8662" lon="4.82071">
        <ele>272</ele>
        <time>2019-05-24T16:26:16.557Z</time>
      </trkpt>
      <trkpt lat="45.86612" lon="4.82067">
        <ele>271.9</ele>
        <time>2019-05-24T16:26:16.723Z</time>
      </trkpt>
      <trkpt lat="45.86561" lon="4.8202">
        <ele>266.2</ele>
        <time>2019-05-24T16:26:17.936Z</time>
      </trkpt>
      <trkpt lat="45.86519" lon="4.81988">
        <ele>263.3</ele>
        <time>2019-05-24T16:26:18.884Z</time>
      </trkpt>
      <trkpt lat="45.86508" lon="4.81978">
        <ele>262.2</ele>
        <time>2019-05-24T16:26:19.160Z</time>
      </trkpt>
      <trkpt lat="45.86505" lon="4.81973">
        <ele>261.5</ele>
        <time>2019-05-24T16:26:19.247Z</time>
      </trkpt>
      <trkpt lat="45.86504" lon="4.81967">
        <ele>261.8</ele>
        <time>2019-05-24T16:26:19.330Z</time>
      </trkpt>
      <trkpt lat="45.86507" lon="4.81932">
        <ele>268.2</ele>
        <time>2019-05-24T16:26:19.825Z</time>
      </trkpt>
      <trkpt lat="45.86489" lon="4.81929">
        <ele>269.6</ele>
        <time>2019-05-24T16:26:20.178Z</time>
      </trkpt>
      <trkpt lat="45.8647" lon="4.81932">
        <ele>269.1</ele>
        <time>2019-05-24T16:26:20.564Z</time>
      </trkpt>
      <trkpt lat="45.86462" lon="4.8193">
        <ele>269.6</ele>
        <time>2019-05-24T16:26:20.724Z</time>
      </trkpt>
      <trkpt lat="45.86439" lon="4.81916">
        <ele>273.4</ele>
        <time>2019-05-24T16:26:21.224Z</time>
      </trkpt>
      <trkpt lat="45.86391" lon="4.81871">
        <ele>279.4</ele>
        <time>2019-05-24T16:26:22.379Z</time>
      </trkpt>
      <trkpt lat="45.86387" lon="4.81862">
        <ele>281.2</ele>
        <time>2019-05-24T16:26:22.523Z</time>
      </trkpt>
      <trkpt lat="45.86375" lon="4.81848">
        <ele>283.2</ele>
        <time>2019-05-24T16:26:22.831Z</time>
      </trkpt>
      <trkpt lat="45.86359" lon="4.81831">
        <ele>283.6</ele>
        <time>2019-05-24T16:26:23.226Z</time>
      </trkpt>
      <trkpt lat="45.86353" lon="4.8182">
        <ele>286.1</ele>
        <time>2019-05-24T16:26:23.415Z</time>
      </trkpt>
      <trkpt lat="45.86295" lon="4.81747">
        <ele>294.4</ele>
        <time>2019-05-24T16:26:24.969Z</time>
      </trkpt>
      <trkpt lat="45.86271" lon="4.81726">
        <ele>296</ele>
        <time>2019-05-24T16:26:25.531Z</time>
      </trkpt>
      <trkpt lat="45.86261" lon="4.81711">
        <ele>298.5</ele>
        <time>2019-05-24T16:26:25.812Z</time>
      </trkpt>
      <trkpt lat="45.86241" lon="4.81692">
        <ele>300.4</ele>
        <time>2019-05-24T16:26:26.302Z</time>
      </trkpt>
      <trkpt lat="45.86221" lon="4.81665">
        <ele>305.5</ele>
        <time>2019-05-24T16:26:26.857Z</time>
      </trkpt>
      <trkpt lat="45.86213" lon="4.81658">
        <ele>306.8</ele>
        <time>2019-05-24T16:26:27.042Z</time>
      </trkpt>
      <trkpt lat="45.8613" lon="4.81601">
        <ele>315.4</ele>
        <time>2019-05-24T16:26:28.878Z</time>
      </trkpt>
      <trkpt lat="45.86104" lon="4.81586">
        <ele>316</ele>
        <time>2019-05-24T16:26:29.452Z</time>
      </trkpt>
      <trkpt lat="45.86085" lon="4.8157">
        <ele>319.1</ele>
        <time>2019-05-24T16:26:29.891Z</time>
      </trkpt>
      <trkpt lat="45.86065" lon="4.81556">
        <ele>321</ele>
        <time>2019-05-24T16:26:30.332Z</time>
      </trkpt>
      <trkpt lat="45.86036" lon="4.81542">
        <ele>323.7</ele>
        <time>2019-05-24T16:26:30.953Z</time>
      </trkpt>
      <trkpt lat="45.86025" lon="4.81534">
        <ele>325</ele>
        <time>2019-05-24T16:26:31.189Z</time>
      </trkpt>
      <trkpt lat="45.86005" lon="4.81541">
        <ele>325.6</ele>
        <time>2019-05-24T16:26:31.602Z</time>
      </trkpt>
      <trkpt lat="45.86005" lon="4.81544">
        <ele>325.4</ele>
        <time>2019-05-24T16:26:31.640Z</time>
      </trkpt>
      <trkpt lat="45.86008" lon="4.81547">
        <ele>324.7</ele>
        <time>2019-05-24T16:26:31.710Z</time>
      </trkpt>
      <trkpt lat="45.86006" lon="4.81542">
        <ele>325.4</ele>
        <time>2019-05-24T16:26:31.785Z</time>
      </trkpt>
      <trkpt lat="45.86008" lon="4.81545">
        <ele>325</ele>
        <time>2019-05-24T16:26:31.829Z</time>
      </trkpt>
      <trkpt lat="45.86012" lon="4.81546">
        <ele>324.4</ele>
        <time>2019-05-24T16:26:31.920Z</time>
      </trkpt>
      <trkpt lat="45.86013" lon="4.81548">
        <ele>324</ele>
        <time>2019-05-24T16:26:31.952Z</time>
      </trkpt>
      <trkpt lat="45.86014" lon="4.81547">
        <ele>324.1</ele>
        <time>2019-05-24T16:26:31.988Z</time>
      </trkpt>
      <trkpt lat="45.86009" lon="4.81542">
        <ele>325.2</ele>
        <time>2019-05-24T16:26:32.120Z</time>
      </trkpt>
      <trkpt lat="45.86008" lon="4.81549">
        <ele>324.6</ele>
        <time>2019-05-24T16:26:32.219Z</time>
      </trkpt>
      <trkpt lat="45.86004" lon="4.81545">
        <ele>325.3</ele>
        <time>2019-05-24T16:26:32.312Z</time>
      </trkpt>
      <trkpt lat="45.86005" lon="4.81544">
        <ele>325.3</ele>
        <time>2019-05-24T16:26:32.342Z</time>
      </trkpt>
      <trkpt lat="45.86004" lon="4.81541">
        <ele>325.7</ele>
        <time>2019-05-24T16:26:32.392Z</time>
      </trkpt>
      <trkpt lat="45.86009" lon="4.81547">
        <ele>324.5</ele>
        <time>2019-05-24T16:26:32.530Z</time>
      </trkpt>
      <trkpt lat="45.86013" lon="4.81549">
        <ele>324</ele>
        <time>2019-05-24T16:26:32.601Z</time>
      </trkpt>
      <trkpt lat="45.86014" lon="4.81548">
        <ele>323.9</ele>
        <time>2019-05-24T16:26:32.641Z</time>
      </trkpt>
      <trkpt lat="45.8601" lon="4.81551">
        <ele>324.1</ele>
        <time>2019-05-24T16:26:32.744Z</time>
      </trkpt>
      <trkpt lat="45.86011" lon="4.81549">
        <ele>324.1</ele>
        <time>2019-05-24T16:26:32.780Z</time>
      </trkpt>
      <trkpt lat="45.86008" lon="4.81547">
        <ele>324.7</ele>
        <time>2019-05-24T16:26:32.855Z</time>
      </trkpt>
      <trkpt lat="45.86009" lon="4.8155">
        <ele>324.3</ele>
        <time>2019-05-24T16:26:32.906Z</time>
      </trkpt>
      <trkpt lat="45.86013" lon="4.81552">
        <ele>323.6</ele>
        <time>2019-05-24T16:26:32.985Z</time>
      </trkpt>
      <trkpt lat="45.86051" lon="4.8161">
        <ele>320.9</ele>
        <time>2019-05-24T16:26:34.098Z</time>
      </trkpt>
      <trkpt lat="45.86065" lon="4.81627">
        <ele>319.3</ele>
        <time>2019-05-24T16:26:34.461Z</time>
      </trkpt>
      <trkpt lat="45.86087" lon="4.81667">
        <ele>318.1</ele>
        <time>2019-05-24T16:26:35.166Z</time>
      </trkpt>
      <trkpt lat="45.86104" lon="4.81694">
        <ele>316.7</ele>
        <time>2019-05-24T16:26:35.684Z</time>
      </trkpt>
      <trkpt lat="45.86172" lon="4.81752">
        <ele>312.2</ele>
        <time>2019-05-24T16:26:37.260Z</time>
      </trkpt>
      <trkpt lat="45.86222" lon="4.81813">
        <ele>307.8</ele>
        <time>2019-05-24T16:26:38.586Z</time>
      </trkpt>
      <trkpt lat="45.86241" lon="4.81843">
        <ele>306.5</ele>
        <time>2019-05-24T16:26:39.145Z</time>
      </trkpt>
      <trkpt lat="45.86264" lon="4.81872">
        <ele>304.4</ele>
        <time>2019-05-24T16:26:39.762Z</time>
      </trkpt>
      <trkpt lat="45.86273" lon="4.81886">
        <ele>303.9</ele>
        <time>2019-05-24T16:26:40.024Z</time>
      </trkpt>
      <trkpt lat="45.86278" lon="4.81902">
        <ele>303</ele>
        <time>2019-05-24T16:26:40.267Z</time>
      </trkpt>
      <trkpt lat="45.86284" lon="4.81934">
        <ele>300.7</ele>
        <time>2019-05-24T16:26:40.733Z</time>
      </trkpt>
      <trkpt lat="45.8629" lon="4.81948">
        <ele>298.8</ele>
        <time>2019-05-24T16:26:40.957Z</time>
      </trkpt>
      <trkpt lat="45.86299" lon="4.81958">
        <ele>297.8</ele>
        <time>2019-05-24T16:26:41.175Z</time>
      </trkpt>
      <trkpt lat="45.86307" lon="4.81963">
        <ele>296.4</ele>
        <time>2019-05-24T16:26:41.364Z</time>
      </trkpt>
      <trkpt lat="45.86321" lon="4.81969">
        <ele>294.6</ele>
        <time>2019-05-24T16:26:41.655Z</time>
      </trkpt>
      <trkpt lat="45.86361" lon="4.81995">
        <ele>292</ele>
        <time>2019-05-24T16:26:42.529Z</time>
      </trkpt>
      <trkpt lat="45.86402" lon="4.82013">
        <ele>287.6</ele>
        <time>2019-05-24T16:26:43.398Z</time>
      </trkpt>
      <trkpt lat="45.86459" lon="4.82031">
        <ele>283.7</ele>
        <time>2019-05-24T16:26:44.552Z</time>
      </trkpt>
      <trkpt lat="45.86511" lon="4.82044">
        <ele>280.4</ele>
        <time>2019-05-24T16:26:45.624Z</time>
      </trkpt>
      <trkpt lat="45.86525" lon="4.82051">
        <ele>280.3</ele>
        <time>2019-05-24T16:26:45.920Z</time>
      </trkpt>
      <trkpt lat="45.86555" lon="4.82077">
        <ele>281.8</ele>
        <time>2019-05-24T16:26:46.620Z</time>
      </trkpt>
      <trkpt lat="45.86558" lon="4.82075">
        <ele>281.2</ele>
        <time>2019-05-24T16:26:46.680Z</time>
      </trkpt>
      <trkpt lat="45.86569" lon="4.82083">
        <ele>281.5</ele>
        <time>2019-05-24T16:26:46.931Z</time>
      </trkpt>
      <trkpt lat="45.8657" lon="4.82085">
        <ele>281.6</ele>
        <time>2019-05-24T16:26:46.960Z</time>
      </trkpt>
      <trkpt lat="45.86566" lon="4.82094">
        <ele>282.9</ele>
        <time>2019-05-24T16:26:47.098Z</time>
      </trkpt>
      <trkpt lat="45.86556" lon="4.82113">
        <ele>286</ele>
        <time>2019-05-24T16:26:47.432Z</time>
      </trkpt>
      <trkpt lat="45.86552" lon="4.82117">
        <ele>286.6</ele>
        <time>2019-05-24T16:26:47.535Z</time>
      </trkpt>
      <trkpt lat="45.86536" lon="4.8212">
        <ele>288.2</ele>
        <time>2019-05-24T16:26:47.859Z</time>
      </trkpt>
      <trkpt lat="45.86499" lon="4.8212">
        <ele>291.4</ele>
        <time>2019-05-24T16:26:48.609Z</time>
      </trkpt>
      <trkpt lat="45.86446" lon="4.82129">
        <ele>296.8</ele>
        <time>2019-05-24T16:26:49.667Z</time>
      </trkpt>
      <trkpt lat="45.86402" lon="4.82131">
        <ele>302.1</ele>
        <time>2019-05-24T16:26:50.552Z</time>
      </trkpt>
      <trkpt lat="45.86396" lon="4.82133">
        <ele>303</ele>
        <time>2019-05-24T16:26:50.676Z</time>
      </trkpt>
      <trkpt lat="45.86387" lon="4.82137">
        <ele>304.5</ele>
        <time>2019-05-24T16:26:50.869Z</time>
      </trkpt>
      <trkpt lat="45.86379" lon="4.82147">
        <ele>306.4</ele>
        <time>2019-05-24T16:26:51.068Z</time>
      </trkpt>
      <trkpt lat="45.86374" lon="4.82162">
        <ele>307.8</ele>
        <time>2019-05-24T16:26:51.309Z</time>
      </trkpt>
      <trkpt lat="45.86367" lon="4.82176">
        <ele>309.3</ele>
        <time>2019-05-24T16:26:51.546Z</time>
      </trkpt>
      <trkpt lat="45.86366" lon="4.8222">
        <ele>309.2</ele>
        <time>2019-05-24T16:26:52.163Z</time>
      </trkpt>
      <trkpt lat="45.86369" lon="4.82226">
        <ele>309.2</ele>
        <time>2019-05-24T16:26:52.269Z</time>
      </trkpt>
      <trkpt lat="45.86381" lon="4.8224">
        <ele>308.9</ele>
        <time>2019-05-24T16:26:52.579Z</time>
      </trkpt>
      <trkpt lat="45.86414" lon="4.82272">
        <ele>305.9</ele>
        <time>2019-05-24T16:26:53.387Z</time>
      </trkpt>
      <trkpt lat="45.8643" lon="4.8229">
        <ele>303.3</ele>
        <time>2019-05-24T16:26:53.782Z</time>
      </trkpt>
      <trkpt lat="45.86444" lon="4.82312">
        <ele>301.5</ele>
        <time>2019-05-24T16:26:54.195Z</time>
      </trkpt>
      <trkpt lat="45.86445" lon="4.82316">
        <ele>301.4</ele>
        <time>2019-05-24T16:26:54.255Z</time>
      </trkpt>
      <trkpt lat="45.86442" lon="4.82323">
        <ele>302.4</ele>
        <time>2019-05-24T16:26:54.369Z</time>
      </trkpt>
      <trkpt lat="45.86439" lon="4.82326">
        <ele>303.1</ele>
        <time>2019-05-24T16:26:54.438Z</time>
      </trkpt>
      <trkpt lat="45.86429" lon="4.82326">
        <ele>305.7</ele>
        <time>2019-05-24T16:26:54.640Z</time>
      </trkpt>
      <trkpt lat="45.86406" lon="4.82335">
        <ele>311.8</ele>
        <time>2019-05-24T16:26:55.121Z</time>
      </trkpt>
      <trkpt lat="45.864" lon="4.82334">
        <ele>313.2</ele>
        <time>2019-05-24T16:26:55.232Z</time>
      </trkpt>
      <trkpt lat="45.86394" lon="4.82337">
        <ele>314.9</ele>
        <time>2019-05-24T16:26:55.366Z</time>
      </trkpt>
      <trkpt lat="45.86381" lon="4.82339">
        <ele>317.9</ele>
        <time>2019-05-24T16:26:55.619Z</time>
      </trkpt>
      <trkpt lat="45.86377" lon="4.8234">
        <ele>318.9</ele>
        <time>2019-05-24T16:26:55.712Z</time>
      </trkpt>
      <trkpt lat="45.86372" lon="4.82345">
        <ele>320.1</ele>
        <time>2019-05-24T16:26:55.828Z</time>
      </trkpt>
      <trkpt lat="45.86372" lon="4.82346">
        <ele>320.1</ele>
        <time>2019-05-24T16:26:55.848Z</time>
      </trkpt>
      <trkpt lat="45.86365" lon="4.82348">
        <ele>321.7</ele>
        <time>2019-05-24T16:26:55.994Z</time>
      </trkpt>
      <trkpt lat="45.86359" lon="4.82354">
        <ele>323.2</ele>
        <time>2019-05-24T16:26:56.149Z</time>
      </trkpt>
      <trkpt lat="45.86352" lon="4.82359">
        <ele>324.7</ele>
        <time>2019-05-24T16:26:56.309Z</time>
      </trkpt>
      <trkpt lat="45.86318" lon="4.82366">
        <ele>330.8</ele>
        <time>2019-05-24T16:26:56.996Z</time>
      </trkpt>
      <trkpt lat="45.86309" lon="4.82369">
        <ele>332.3</ele>
        <time>2019-05-24T16:26:57.167Z</time>
      </trkpt>
      <trkpt lat="45.86302" lon="4.82373">
        <ele>333.7</ele>
        <time>2019-05-24T16:26:57.328Z</time>
      </trkpt>
      <trkpt lat="45.86304" lon="4.82377">
        <ele>333.3</ele>
        <time>2019-05-24T16:26:57.399Z</time>
      </trkpt>
      <trkpt lat="45.86302" lon="4.82376">
        <ele>333.7</ele>
        <time>2019-05-24T16:26:57.442Z</time>
      </trkpt>
      <trkpt lat="45.86306" lon="4.82396">
        <ele>332.6</ele>
        <time>2019-05-24T16:26:57.743Z</time>
      </trkpt>
      <trkpt lat="45.86304" lon="4.82423">
        <ele>331.5</ele>
        <time>2019-05-24T16:26:58.111Z</time>
      </trkpt>
      <trkpt lat="45.86298" lon="4.82451">
        <ele>329.2</ele>
        <time>2019-05-24T16:26:58.522Z</time>
      </trkpt>
      <trkpt lat="45.86284" lon="4.82478">
        <ele>326.7</ele>
        <time>2019-05-24T16:26:58.997Z</time>
      </trkpt>
      <trkpt lat="45.86256" lon="4.82526">
        <ele>322.4</ele>
        <time>2019-05-24T16:26:59.865Z</time>
      </trkpt>
      <trkpt lat="45.86245" lon="4.82541">
        <ele>321.1</ele>
        <time>2019-05-24T16:27:00.181Z</time>
      </trkpt>
      <trkpt lat="45.86231" lon="4.82556">
        <ele>320.3</ele>
        <time>2019-05-24T16:27:00.533Z</time>
      </trkpt>
      <trkpt lat="45.862" lon="4.82581">
        <ele>318.6</ele>
        <time>2019-05-24T16:27:01.235Z</time>
      </trkpt>
      <trkpt lat="45.8618" lon="4.82603">
        <ele>314.8</ele>
        <time>2019-05-24T16:27:01.745Z</time>
      </trkpt>
      <trkpt lat="45.86146" lon="4.82626">
        <ele>312.1</ele>
        <time>2019-05-24T16:27:02.499Z</time>
      </trkpt>
      <trkpt lat="45.86117" lon="4.82642">
        <ele>309.7</ele>
        <time>2019-05-24T16:27:03.110Z</time>
      </trkpt>
      <trkpt lat="45.86039" lon="4.82705">
        <ele>297</ele>
        <time>2019-05-24T16:27:04.906Z</time>
      </trkpt>
      <trkpt lat="45.86038" lon="4.82711">
        <ele>295</ele>
        <time>2019-05-24T16:27:04.993Z</time>
      </trkpt>
      <trkpt lat="45.86018" lon="4.8271">
        <ele>297</ele>
        <time>2019-05-24T16:27:05.401Z</time>
      </trkpt>
      <trkpt lat="45.85988" lon="4.82715">
        <ele>297.8</ele>
        <time>2019-05-24T16:27:05.996Z</time>
      </trkpt>
      <trkpt lat="45.85966" lon="4.82715">
        <ele>300</ele>
        <time>2019-05-24T16:27:06.439Z</time>
      </trkpt>
      <trkpt lat="45.85944" lon="4.82709">
        <ele>303.1</ele>
        <time>2019-05-24T16:27:06.893Z</time>
      </trkpt>
      <trkpt lat="45.85902" lon="4.82703">
        <ele>305.8</ele>
        <time>2019-05-24T16:27:07.731Z</time>
      </trkpt>
      <trkpt lat="45.85877" lon="4.82695">
        <ele>306.2</ele>
        <time>2019-05-24T16:27:08.247Z</time>
      </trkpt>
      <trkpt lat="45.85855" lon="4.82672">
        <ele>308.7</ele>
        <time>2019-05-24T16:27:08.795Z</time>
      </trkpt>
      <trkpt lat="45.85842" lon="4.82651">
        <ele>309</ele>
        <time>2019-05-24T16:27:09.188Z</time>
      </trkpt>
      <trkpt lat="45.85831" lon="4.82625">
        <ele>309.1</ele>
        <time>2019-05-24T16:27:09.611Z</time>
      </trkpt>
      <trkpt lat="45.85825" lon="4.82596">
        <ele>309.4</ele>
        <time>2019-05-24T16:27:10.038Z</time>
      </trkpt>
      <trkpt lat="45.85815" lon="4.82518">
        <ele>312.6</ele>
        <time>2019-05-24T16:27:11.136Z</time>
      </trkpt>
      <trkpt lat="45.85802" lon="4.82456">
        <ele>315.3</ele>
        <time>2019-05-24T16:27:12.041Z</time>
      </trkpt>
      <trkpt lat="45.85786" lon="4.82436">
        <ele>313.9</ele>
        <time>2019-05-24T16:27:12.465Z</time>
      </trkpt>
      <trkpt lat="45.85769" lon="4.82433">
        <ele>311.8</ele>
        <time>2019-05-24T16:27:12.822Z</time>
      </trkpt>
      <trkpt lat="45.85758" lon="4.82437">
        <ele>311.6</ele>
        <time>2019-05-24T16:27:13.037Z</time>
      </trkpt>
      <trkpt lat="45.85751" lon="4.82437">
        <ele>311.8</ele>
        <time>2019-05-24T16:27:13.184Z</time>
      </trkpt>
      <trkpt lat="45.85735" lon="4.82454">
        <ele>313.1</ele>
        <time>2019-05-24T16:27:13.587Z</time>
      </trkpt>
      <trkpt lat="45.85715" lon="4.82482">
        <ele>315.4</ele>
        <time>2019-05-24T16:27:14.138Z</time>
      </trkpt>
      <trkpt lat="45.85699" lon="4.82498">
        <ele>319</ele>
        <time>2019-05-24T16:27:14.545Z</time>
      </trkpt>
      <trkpt lat="45.85668" lon="4.82517">
        <ele>322.1</ele>
        <time>2019-05-24T16:27:15.203Z</time>
      </trkpt>
      <trkpt lat="45.85641" lon="4.82537">
        <ele>322.9</ele>
        <time>2019-05-24T16:27:15.812Z</time>
      </trkpt>
      <trkpt lat="45.85552" lon="4.82613">
        <ele>328.1</ele>
        <time>2019-05-24T16:27:17.890Z</time>
      </trkpt>
      <trkpt lat="45.85495" lon="4.82658">
        <ele>329.9</ele>
        <time>2019-05-24T16:27:19.196Z</time>
      </trkpt>
      <trkpt lat="45.85494" lon="4.82663">
        <ele>329.1</ele>
        <time>2019-05-24T16:27:19.270Z</time>
      </trkpt>
      <trkpt lat="45.85481" lon="4.82664">
        <ele>329.9</ele>
        <time>2019-05-24T16:27:19.537Z</time>
      </trkpt>
      <trkpt lat="45.85456" lon="4.82655">
        <ele>332.1</ele>
        <time>2019-05-24T16:27:20.045Z</time>
      </trkpt>
      <trkpt lat="45.85454" lon="4.82652">
        <ele>332.7</ele>
        <time>2019-05-24T16:27:20.109Z</time>
      </trkpt>
      <trkpt lat="45.85456" lon="4.8263">
        <ele>336.3</ele>
        <time>2019-05-24T16:27:20.420Z</time>
      </trkpt>
      <trkpt lat="45.85454" lon="4.82626">
        <ele>336.9</ele>
        <time>2019-05-24T16:27:20.485Z</time>
      </trkpt>
      <trkpt lat="45.85459" lon="4.8261">
        <ele>339.2</ele>
        <time>2019-05-24T16:27:20.732Z</time>
      </trkpt>
      <trkpt lat="45.85457" lon="4.82605">
        <ele>339.9</ele>
        <time>2019-05-24T16:27:20.814Z</time>
      </trkpt>
      <trkpt lat="45.85452" lon="4.82604">
        <ele>340.1</ele>
        <time>2019-05-24T16:27:20.915Z</time>
      </trkpt>
      <trkpt lat="45.85448" lon="4.82596">
        <ele>341.2</ele>
        <time>2019-05-24T16:27:21.059Z</time>
      </trkpt>
      <trkpt lat="45.85449" lon="4.8258">
        <ele>343.4</ele>
        <time>2019-05-24T16:27:21.283Z</time>
      </trkpt>
      <trkpt lat="45.85452" lon="4.82568">
        <ele>344.8</ele>
        <time>2019-05-24T16:27:21.459Z</time>
      </trkpt>
      <trkpt lat="45.85458" lon="4.82555">
        <ele>346.5</ele>
        <time>2019-05-24T16:27:21.675Z</time>
      </trkpt>
      <trkpt lat="45.85467" lon="4.82507">
        <ele>353.3</ele>
        <time>2019-05-24T16:27:22.370Z</time>
      </trkpt>
      <trkpt lat="45.85472" lon="4.8247">
        <ele>358.3</ele>
        <time>2019-05-24T16:27:22.898Z</time>
      </trkpt>
      <trkpt lat="45.85479" lon="4.82441">
        <ele>362.5</ele>
        <time>2019-05-24T16:27:23.336Z</time>
      </trkpt>
      <trkpt lat="45.85484" lon="4.82432">
        <ele>363.6</ele>
        <time>2019-05-24T16:27:23.490Z</time>
      </trkpt>
      <trkpt lat="45.85485" lon="4.82417">
        <ele>365.5</ele>
        <time>2019-05-24T16:27:23.703Z</time>
      </trkpt>
      <trkpt lat="45.85493" lon="4.82392">
        <ele>368.2</ele>
        <time>2019-05-24T16:27:24.080Z</time>
      </trkpt>
      <trkpt lat="45.85494" lon="4.82382">
        <ele>369.5</ele>
        <time>2019-05-24T16:27:24.225Z</time>
      </trkpt>
      <trkpt lat="45.8551" lon="4.82316">
        <ele>377.3</ele>
        <time>2019-05-24T16:27:25.196Z</time>
      </trkpt>
      <trkpt lat="45.85512" lon="4.82299">
        <ele>379</ele>
        <time>2019-05-24T16:27:25.444Z</time>
      </trkpt>
      <trkpt lat="45.85522" lon="4.82253">
        <ele>384</ele>
        <time>2019-05-24T16:27:26.111Z</time>
      </trkpt>
      <trkpt lat="45.85522" lon="4.82253">
        <ele>384</ele>
        <time>2019-05-24T16:27:26.111Z</time>
      </trkpt>
      <trkpt lat="45.85522" lon="4.82253">
        <ele>384</ele>
        <time>2019-05-24T16:27:26.113Z</time>
      </trkpt>
      <trkpt lat="45.85524" lon="4.8226">
        <ele>383.6</ele>
        <time>2019-05-24T16:27:26.227Z</time>
      </trkpt>
      <trkpt lat="45.85522" lon="4.82258">
        <ele>383.5</ele>
        <time>2019-05-24T16:27:26.278Z</time>
      </trkpt>
      <trkpt lat="45.85525" lon="4.82256">
        <ele>384.1</ele>
        <time>2019-05-24T16:27:26.352Z</time>
      </trkpt>
      <trkpt lat="45.85526" lon="4.8224">
        <ele>386.2</ele>
        <time>2019-05-24T16:27:26.566Z</time>
      </trkpt>
      <trkpt lat="45.85532" lon="4.82216">
        <ele>389.6</ele>
        <time>2019-05-24T16:27:26.921Z</time>
      </trkpt>
      <trkpt lat="45.85537" lon="4.82186">
        <ele>392.8</ele>
        <time>2019-05-24T16:27:27.356Z</time>
      </trkpt>
      <trkpt lat="45.85542" lon="4.82179">
        <ele>393.6</ele>
        <time>2019-05-24T16:27:27.484Z</time>
      </trkpt>
      <trkpt lat="45.85558" lon="4.82142">
        <ele>398.8</ele>
        <time>2019-05-24T16:27:28.098Z</time>
      </trkpt>
      <trkpt lat="45.85565" lon="4.82134">
        <ele>399.9</ele>
        <time>2019-05-24T16:27:28.288Z</time>
      </trkpt>
      <trkpt lat="45.85563" lon="4.8213">
        <ele>400.2</ele>
        <time>2019-05-24T16:27:28.362Z</time>
      </trkpt>
      <trkpt lat="45.85561" lon="4.82131">
        <ele>400.1</ele>
        <time>2019-05-24T16:27:28.387Z</time>
      </trkpt>
      <trkpt lat="45.85569" lon="4.82131">
        <ele>400.4</ele>
        <time>2019-05-24T16:27:28.532Z</time>
      </trkpt>
      <trkpt lat="45.8557" lon="4.82118">
        <ele>401.8</ele>
        <time>2019-05-24T16:27:28.710Z</time>
      </trkpt>
      <trkpt lat="45.85581" lon="4.82098">
        <ele>404.8</ele>
        <time>2019-05-24T16:27:29.066Z</time>
      </trkpt>
      <trkpt lat="45.85583" lon="4.82085">
        <ele>406.7</ele>
        <time>2019-05-24T16:27:29.250Z</time>
      </trkpt>
      <trkpt lat="45.85586" lon="4.82073">
        <ele>408.1</ele>
        <time>2019-05-24T16:27:29.429Z</time>
      </trkpt>
      <trkpt lat="45.85581" lon="4.82047">
        <ele>410.4</ele>
        <time>2019-05-24T16:27:29.799Z</time>
      </trkpt>
      <trkpt lat="45.85581" lon="4.82001">
        <ele>414.7</ele>
        <time>2019-05-24T16:27:30.452Z</time>
      </trkpt>
      <trkpt lat="45.85571" lon="4.81971">
        <ele>415.3</ele>
        <time>2019-05-24T16:27:30.916Z</time>
      </trkpt>
      <trkpt lat="45.85568" lon="4.81939">
        <ele>417</ele>
        <time>2019-05-24T16:27:31.366Z</time>
      </trkpt>
      <trkpt lat="45.85567" lon="4.8188">
        <ele>418</ele>
        <time>2019-05-24T16:27:32.187Z</time>
      </trkpt>
      <trkpt lat="45.85564" lon="4.81872">
        <ele>417.8</ele>
        <time>2019-05-24T16:27:32.324Z</time>
      </trkpt>
      <trkpt lat="45.85562" lon="4.81849">
        <ele>417.8</ele>
        <time>2019-05-24T16:27:32.648Z</time>
      </trkpt>
      <trkpt lat="45.85557" lon="4.81831">
        <ele>417.1</ele>
        <time>2019-05-24T16:27:32.919Z</time>
      </trkpt>
      <trkpt lat="45.85547" lon="4.81815">
        <ele>415.2</ele>
        <time>2019-05-24T16:27:33.221Z</time>
      </trkpt>
      <trkpt lat="45.85522" lon="4.81788">
        <ele>413.1</ele>
        <time>2019-05-24T16:27:33.841Z</time>
      </trkpt>
      <trkpt lat="45.8552" lon="4.81781">
        <ele>413.3</ele>
        <time>2019-05-24T16:27:33.944Z</time>
      </trkpt>
      <trkpt lat="45.85511" lon="4.81773">
        <ele>413.2</ele>
        <time>2019-05-24T16:27:34.163Z</time>
      </trkpt>
      <trkpt lat="45.85512" lon="4.81772">
        <ele>413.3</ele>
        <time>2019-05-24T16:27:34.188Z</time>
      </trkpt>
      <trkpt lat="45.85505" lon="4.81771">
        <ele>413</ele>
        <time>2019-05-24T16:27:34.328Z</time>
      </trkpt>
      <trkpt lat="45.85479" lon="4.81758">
        <ele>413.4</ele>
        <time>2019-05-24T16:27:34.879Z</time>
      </trkpt>
      <trkpt lat="45.85461" lon="4.81757">
        <ele>413.5</ele>
        <time>2019-05-24T16:27:35.243Z</time>
      </trkpt>
      <trkpt lat="45.85437" lon="4.81749">
        <ele>415.2</ele>
        <time>2019-05-24T16:27:35.730Z</time>
      </trkpt>
      <trkpt lat="45.85405" lon="4.81741">
        <ele>416.6</ele>
        <time>2019-05-24T16:27:36.392Z</time>
      </trkpt>
      <trkpt lat="45.85399" lon="4.81739">
        <ele>417</ele>
        <time>2019-05-24T16:27:36.508Z</time>
      </trkpt>
      <trkpt lat="45.85395" lon="4.81734">
        <ele>417.8</ele>
        <time>2019-05-24T16:27:36.613Z</time>
      </trkpt>
      <trkpt lat="45.85405" lon="4.81711">
        <ele>421.8</ele>
        <time>2019-05-24T16:27:36.994Z</time>
      </trkpt>
      <trkpt lat="45.85412" lon="4.81705">
        <ele>422.6</ele>
        <time>2019-05-24T16:27:37.164Z</time>
      </trkpt>
      <trkpt lat="45.85416" lon="4.81697">
        <ele>423.6</ele>
        <time>2019-05-24T16:27:37.299Z</time>
      </trkpt>
      <trkpt lat="45.85419" lon="4.81681">
        <ele>426.3</ele>
        <time>2019-05-24T16:27:37.529Z</time>
      </trkpt>
      <trkpt lat="45.85422" lon="4.81674">
        <ele>427.4</ele>
        <time>2019-05-24T16:27:37.656Z</time>
      </trkpt>
      <trkpt lat="45.85423" lon="4.81668">
        <ele>428.3</ele>
        <time>2019-05-24T16:27:37.733Z</time>
      </trkpt>
      <trkpt lat="45.85416" lon="4.81657">
        <ele>430</ele>
        <time>2019-05-24T16:27:37.943Z</time>
      </trkpt>
      <trkpt lat="45.85418" lon="4.81647">
        <ele>431</ele>
        <time>2019-05-24T16:27:38.086Z</time>
      </trkpt>
      <trkpt lat="45.85416" lon="4.81644">
        <ele>431.4</ele>
        <time>2019-05-24T16:27:38.140Z</time>
      </trkpt>
      <trkpt lat="45.85418" lon="4.81646">
        <ele>431.2</ele>
        <time>2019-05-24T16:27:38.184Z</time>
      </trkpt>
      <trkpt lat="45.85416" lon="4.81646">
        <ele>431.2</ele>
        <time>2019-05-24T16:27:38.219Z</time>
      </trkpt>
      <trkpt lat="45.85416" lon="4.81648">
        <ele>431.1</ele>
        <time>2019-05-24T16:27:38.243Z</time>
      </trkpt>
      <trkpt lat="45.85415" lon="4.81647">
        <ele>431.2</ele>
        <time>2019-05-24T16:27:38.265Z</time>
      </trkpt>
      <trkpt lat="45.85415" lon="4.81651">
        <ele>430.8</ele>
        <time>2019-05-24T16:27:38.320Z</time>
      </trkpt>
      <trkpt lat="45.85416" lon="4.81648">
        <ele>431.1</ele>
        <time>2019-05-24T16:27:38.360Z</time>
      </trkpt>
      <trkpt lat="45.85417" lon="4.81649">
        <ele>430.9</ele>
        <time>2019-05-24T16:27:38.387Z</time>
      </trkpt>
      <trkpt lat="45.85413" lon="4.81648">
        <ele>431.2</ele>
        <time>2019-05-24T16:27:38.466Z</time>
      </trkpt>
      <trkpt lat="45.85416" lon="4.81645">
        <ele>431.4</ele>
        <time>2019-05-24T16:27:38.540Z</time>
      </trkpt>
      <trkpt lat="45.85418" lon="4.81646">
        <ele>431.2</ele>
        <time>2019-05-24T16:27:38.578Z</time>
      </trkpt>
      <trkpt lat="45.85414" lon="4.81643">
        <ele>431.7</ele>
        <time>2019-05-24T16:27:38.652Z</time>
      </trkpt>
      <trkpt lat="45.85417" lon="4.81644">
        <ele>431.4</ele>
        <time>2019-05-24T16:27:38.716Z</time>
      </trkpt>
      <trkpt lat="45.85416" lon="4.81645">
        <ele>431.3</ele>
        <time>2019-05-24T16:27:38.755Z</time>
      </trkpt>
      <trkpt lat="45.85413" lon="4.81643">
        <ele>431.8</ele>
        <time>2019-05-24T16:27:38.817Z</time>
      </trkpt>
      <trkpt lat="45.85415" lon="4.81644">
        <ele>431.5</ele>
        <time>2019-05-24T16:27:38.855Z</time>
      </trkpt>
      <trkpt lat="45.85415" lon="4.81642">
        <ele>431.7</ele>
        <time>2019-05-24T16:27:38.879Z</time>
      </trkpt>
      <trkpt lat="45.85415" lon="4.81645">
        <ele>431.4</ele>
        <time>2019-05-24T16:27:38.913Z</time>
      </trkpt>
      <trkpt lat="45.85414" lon="4.81644">
        <ele>431.6</ele>
        <time>2019-05-24T16:27:38.933Z</time>
      </trkpt>
      <trkpt lat="45.85416" lon="4.81645">
        <ele>431.4</ele>
        <time>2019-05-24T16:27:38.962Z</time>
      </trkpt>
      <trkpt lat="45.85412" lon="4.81641">
        <ele>432.1</ele>
        <time>2019-05-24T16:27:39.053Z</time>
      </trkpt>
      <trkpt lat="45.85415" lon="4.81645">
        <ele>431.5</ele>
        <time>2019-05-24T16:27:39.125Z</time>
      </trkpt>
      <trkpt lat="45.85422" lon="4.81637">
        <ele>431.8</ele>
        <time>2019-05-24T16:27:39.315Z</time>
      </trkpt>
      <trkpt lat="45.85433" lon="4.81607">
        <ele>434.2</ele>
        <time>2019-05-24T16:27:39.785Z</time>
      </trkpt>
      <trkpt lat="45.85441" lon="4.81597">
        <ele>434.3</ele>
        <time>2019-05-24T16:27:39.992Z</time>
      </trkpt>
      <trkpt lat="45.85444" lon="4.8159">
        <ele>434.5</ele>
        <time>2019-05-24T16:27:40.113Z</time>
      </trkpt>
      <trkpt lat="45.85464" lon="4.81535">
        <ele>433.6</ele>
        <time>2019-05-24T16:27:40.982Z</time>
      </trkpt>
      <trkpt lat="45.85469" lon="4.81457">
        <ele>433.3</ele>
        <time>2019-05-24T16:27:42.072Z</time>
      </trkpt>
      <trkpt lat="45.85461" lon="4.81383">
        <ele>434.9</ele>
        <time>2019-05-24T16:27:43.118Z</time>
      </trkpt>
      <trkpt lat="45.85463" lon="4.81359">
        <ele>435.4</ele>
        <time>2019-05-24T16:27:43.462Z</time>
      </trkpt>
      <trkpt lat="45.85477" lon="4.81323">
        <ele>437.1</ele>
        <time>2019-05-24T16:27:44.041Z</time>
      </trkpt>
      <trkpt lat="45.8549" lon="4.81303">
        <ele>438.5</ele>
        <time>2019-05-24T16:27:44.416Z</time>
      </trkpt>
      <trkpt lat="45.85494" lon="4.81285">
        <ele>437.6</ele>
        <time>2019-05-24T16:27:44.682Z</time>
      </trkpt>
      <trkpt lat="45.85481" lon="4.81267">
        <ele>437</ele>
        <time>2019-05-24T16:27:45.050Z</time>
      </trkpt>
      <trkpt lat="45.85454" lon="4.8125">
        <ele>440</ele>
        <time>2019-05-24T16:27:45.645Z</time>
      </trkpt>
      <trkpt lat="45.85415" lon="4.81222">
        <ele>442.6</ele>
        <time>2019-05-24T16:27:46.507Z</time>
      </trkpt>
      <trkpt lat="45.85374" lon="4.81202">
        <ele>449.3</ele>
        <time>2019-05-24T16:27:47.387Z</time>
      </trkpt>
      <trkpt lat="45.85356" lon="4.81188">
        <ele>450.5</ele>
        <time>2019-05-24T16:27:47.780Z</time>
      </trkpt>
      <trkpt lat="45.85345" lon="4.81176">
        <ele>451</ele>
        <time>2019-05-24T16:27:48.067Z</time>
      </trkpt>
      <trkpt lat="45.85324" lon="4.81162">
        <ele>453.9</ele>
        <time>2019-05-24T16:27:48.524Z</time>
      </trkpt>
      <trkpt lat="45.85303" lon="4.81141">
        <ele>456.7</ele>
        <time>2019-05-24T16:27:49.039Z</time>
      </trkpt>
      <trkpt lat="45.85271" lon="4.81105">
        <ele>459.9</ele>
        <time>2019-05-24T16:27:49.861Z</time>
      </trkpt>
      <trkpt lat="45.85239" lon="4.81058">
        <ele>461.6</ele>
        <time>2019-05-24T16:27:50.762Z</time>
      </trkpt>
      <trkpt lat="45.85217" lon="4.81029">
        <ele>464.2</ele>
        <time>2019-05-24T16:27:51.360Z</time>
      </trkpt>
      <trkpt lat="45.85211" lon="4.81024">
        <ele>464.6</ele>
        <time>2019-05-24T16:27:51.501Z</time>
      </trkpt>
      <trkpt lat="45.85203" lon="4.8102">
        <ele>466.5</ele>
        <time>2019-05-24T16:27:51.680Z</time>
      </trkpt>
      <trkpt lat="45.85163" lon="4.80988">
        <ele>471.5</ele>
        <time>2019-05-24T16:27:52.602Z</time>
      </trkpt>
      <trkpt lat="45.85102" lon="4.80928">
        <ele>477.7</ele>
        <time>2019-05-24T16:27:54.069Z</time>
      </trkpt>
      <trkpt lat="45.85093" lon="4.80916">
        <ele>479.2</ele>
        <time>2019-05-24T16:27:54.324Z</time>
      </trkpt>
      <trkpt lat="45.85078" lon="4.80888">
        <ele>480.7</ele>
        <time>2019-05-24T16:27:54.812Z</time>
      </trkpt>
      <trkpt lat="45.85052" lon="4.80853">
        <ele>484.1</ele>
        <time>2019-05-24T16:27:55.529Z</time>
      </trkpt>
      <trkpt lat="45.85044" lon="4.80836">
        <ele>484.2</ele>
        <time>2019-05-24T16:27:55.817Z</time>
      </trkpt>
      <trkpt lat="45.85029" lon="4.8082">
        <ele>487.5</ele>
        <time>2019-05-24T16:27:56.184Z</time>
      </trkpt>
      <trkpt lat="45.85023" lon="4.8081">
        <ele>487.5</ele>
        <time>2019-05-24T16:27:56.364Z</time>
      </trkpt>
      <trkpt lat="45.84989" lon="4.80764">
        <ele>489.3</ele>
        <time>2019-05-24T16:27:57.297Z</time>
      </trkpt>
      <trkpt lat="45.84976" lon="4.80737">
        <ele>490</ele>
        <time>2019-05-24T16:27:57.765Z</time>
      </trkpt>
      <trkpt lat="45.84954" lon="4.8068">
        <ele>490.3</ele>
        <time>2019-05-24T16:27:58.670Z</time>
      </trkpt>
      <trkpt lat="45.84948" lon="4.80672">
        <ele>492.3</ele>
        <time>2019-05-24T16:27:58.830Z</time>
      </trkpt>
      <trkpt lat="45.8494" lon="4.80668">
        <ele>493.9</ele>
        <time>2019-05-24T16:27:58.999Z</time>
      </trkpt>
      <trkpt lat="45.84839" lon="4.80639">
        <ele>495</ele>
        <time>2019-05-24T16:28:01.069Z</time>
      </trkpt>
      <trkpt lat="45.848" lon="4.8063">
        <ele>495</ele>
        <time>2019-05-24T16:28:01.858Z</time>
      </trkpt>
      <trkpt lat="45.84758" lon="4.80627">
        <ele>494.8</ele>
        <time>2019-05-24T16:28:02.704Z</time>
      </trkpt>
      <trkpt lat="45.84711" lon="4.80637">
        <ele>495.2</ele>
        <time>2019-05-24T16:28:03.657Z</time>
      </trkpt>
      <trkpt lat="45.84657" lon="4.8064">
        <ele>494.1</ele>
        <time>2019-05-24T16:28:04.745Z</time>
      </trkpt>
      <trkpt lat="45.84599" lon="4.80631">
        <ele>490.6</ele>
        <time>2019-05-24T16:28:05.901Z</time>
      </trkpt>
      <trkpt lat="45.84592" lon="4.80624">
        <ele>489.8</ele>
        <time>2019-05-24T16:28:06.070Z</time>
      </trkpt>
      <trkpt lat="45.84583" lon="4.8061">
        <ele>488.9</ele>
        <time>2019-05-24T16:28:06.334Z</time>
      </trkpt>
      <trkpt lat="45.84569" lon="4.80567">
        <ele>487.3</ele>
        <time>2019-05-24T16:28:07.001Z</time>
      </trkpt>
      <trkpt lat="45.84562" lon="4.80558">
        <ele>486.9</ele>
        <time>2019-05-24T16:28:07.191Z</time>
      </trkpt>
      <trkpt lat="45.84558" lon="4.80556">
        <ele>486.3</ele>
        <time>2019-05-24T16:28:07.284Z</time>
      </trkpt>
      <trkpt lat="45.84546" lon="4.80555">
        <ele>487.3</ele>
        <time>2019-05-24T16:28:07.524Z</time>
      </trkpt>
      <trkpt lat="45.84488" lon="4.8058">
        <ele>490.8</ele>
        <time>2019-05-24T16:28:08.736Z</time>
      </trkpt>
      <trkpt lat="45.84474" lon="4.80584">
        <ele>492.6</ele>
        <time>2019-05-24T16:28:09.022Z</time>
      </trkpt>
      <trkpt lat="45.84459" lon="4.80585">
        <ele>493.2</ele>
        <time>2019-05-24T16:28:09.311Z</time>
      </trkpt>
      <trkpt lat="45.84445" lon="4.80584">
        <ele>493.8</ele>
        <time>2019-05-24T16:28:09.593Z</time>
      </trkpt>
      <trkpt lat="45.84436" lon="4.80586">
        <ele>493.6</ele>
        <time>2019-05-24T16:28:09.770Z</time>
      </trkpt>
      <trkpt lat="45.84428" lon="4.80586">
        <ele>493.6</ele>
        <time>2019-05-24T16:28:09.934Z</time>
      </trkpt>
      <trkpt lat="45.84414" lon="4.80579">
        <ele>494.7</ele>
        <time>2019-05-24T16:28:10.246Z</time>
      </trkpt>
      <trkpt lat="45.84406" lon="4.80577">
        <ele>494.9</ele>
        <time>2019-05-24T16:28:10.407Z</time>
      </trkpt>
      <trkpt lat="45.84388" lon="4.80569">
        <ele>496.1</ele>
        <time>2019-05-24T16:28:10.770Z</time>
      </trkpt>
      <trkpt lat="45.84356" lon="4.80555">
        <ele>496.7</ele>
        <time>2019-05-24T16:28:11.444Z</time>
      </trkpt>
      <trkpt lat="45.84301" lon="4.80573">
        <ele>493.5</ele>
        <time>2019-05-24T16:28:12.572Z</time>
      </trkpt>
      <trkpt lat="45.84291" lon="4.80578">
        <ele>492.7</ele>
        <time>2019-05-24T16:28:12.793Z</time>
      </trkpt>
      <trkpt lat="45.84271" lon="4.80584">
        <ele>491.6</ele>
        <time>2019-05-24T16:28:13.209Z</time>
      </trkpt>
      <trkpt lat="45.84266" lon="4.80588">
        <ele>491.1</ele>
        <time>2019-05-24T16:28:13.319Z</time>
      </trkpt>
      <trkpt lat="45.84254" lon="4.80579">
        <ele>491.6</ele>
        <time>2019-05-24T16:28:13.577Z</time>
      </trkpt>
      <trkpt lat="45.84216" lon="4.80532">
        <ele>493.8</ele>
        <time>2019-05-24T16:28:14.582Z</time>
      </trkpt>
      <trkpt lat="45.84204" lon="4.80515">
        <ele>494.3</ele>
        <time>2019-05-24T16:28:14.929Z</time>
      </trkpt>
      <trkpt lat="45.84198" lon="4.80502">
        <ele>494.6</ele>
        <time>2019-05-24T16:28:15.132Z</time>
      </trkpt>
      <trkpt lat="45.84196" lon="4.8049">
        <ele>495</ele>
        <time>2019-05-24T16:28:15.307Z</time>
      </trkpt>
      <trkpt lat="45.84199" lon="4.80464">
        <ele>497.4</ele>
        <time>2019-05-24T16:28:15.679Z</time>
      </trkpt>
      <trkpt lat="45.84198" lon="4.80458">
        <ele>497.3</ele>
        <time>2019-05-24T16:28:15.768Z</time>
      </trkpt>
      <trkpt lat="45.84189" lon="4.80447">
        <ele>496.1</ele>
        <time>2019-05-24T16:28:15.988Z</time>
      </trkpt>
      <trkpt lat="45.84174" lon="4.80437">
        <ele>495.1</ele>
        <time>2019-05-24T16:28:16.326Z</time>
      </trkpt>
      <trkpt lat="45.84158" lon="4.80434">
        <ele>495.7</ele>
        <time>2019-05-24T16:28:16.649Z</time>
      </trkpt>
      <trkpt lat="45.84148" lon="4.80445">
        <ele>495.6</ele>
        <time>2019-05-24T16:28:16.898Z</time>
      </trkpt>
      <trkpt lat="45.8412" lon="4.80458">
        <ele>496.5</ele>
        <time>2019-05-24T16:28:17.502Z</time>
      </trkpt>
      <trkpt lat="45.84107" lon="4.8046">
        <ele>497.5</ele>
        <time>2019-05-24T16:28:17.753Z</time>
      </trkpt>
      <trkpt lat="45.84084" lon="4.80461">
        <ele>499.5</ele>
        <time>2019-05-24T16:28:18.214Z</time>
      </trkpt>
      <trkpt lat="45.84059" lon="4.80466">
        <ele>498.9</ele>
        <time>2019-05-24T16:28:18.712Z</time>
      </trkpt>
      <trkpt lat="45.84011" lon="4.80468">
        <ele>498.1</ele>
        <time>2019-05-24T16:28:19.683Z</time>
      </trkpt>
      <trkpt lat="45.83972" lon="4.80467">
        <ele>496.7</ele>
        <time>2019-05-24T16:28:20.459Z</time>
      </trkpt>
      <trkpt lat="45.83917" lon="4.80464">
        <ele>493.9</ele>
        <time>2019-05-24T16:28:21.571Z</time>
      </trkpt>
      <trkpt lat="45.83891" lon="4.80458">
        <ele>490.3</ele>
        <time>2019-05-24T16:28:22.099Z</time>
      </trkpt>
      <trkpt lat="45.83862" lon="4.80433">
        <ele>484.7</ele>
        <time>2019-05-24T16:28:22.773Z</time>
      </trkpt>
      <trkpt lat="45.83854" lon="4.80427">
        <ele>482.1</ele>
        <time>2019-05-24T16:28:22.962Z</time>
      </trkpt>
      <trkpt lat="45.83851" lon="4.80428">
        <ele>481</ele>
        <time>2019-05-24T16:28:23.021Z</time>
      </trkpt>
      <trkpt lat="45.83848" lon="4.80432">
        <ele>479.5</ele>
        <time>2019-05-24T16:28:23.095Z</time>
      </trkpt>
      <trkpt lat="45.83838" lon="4.80484">
        <ele>469.5</ele>
        <time>2019-05-24T16:28:23.852Z</time>
      </trkpt>
      <trkpt lat="45.83828" lon="4.80565">
        <ele>457.8</ele>
        <time>2019-05-24T16:28:25.010Z</time>
      </trkpt>
      <trkpt lat="45.8383" lon="4.80578">
        <ele>456.5</ele>
        <time>2019-05-24T16:28:25.191Z</time>
      </trkpt>
      <trkpt lat="45.83825" lon="4.80578">
        <ele>455</ele>
        <time>2019-05-24T16:28:25.284Z</time>
      </trkpt>
      <trkpt lat="45.83802" lon="4.80546">
        <ele>450.9</ele>
        <time>2019-05-24T16:28:25.933Z</time>
      </trkpt>
      <trkpt lat="45.8379" lon="4.80536">
        <ele>449</ele>
        <time>2019-05-24T16:28:26.210Z</time>
      </trkpt>
      <trkpt lat="45.83773" lon="4.80526">
        <ele>447</ele>
        <time>2019-05-24T16:28:26.582Z</time>
      </trkpt>
      <trkpt lat="45.83762" lon="4.80526">
        <ele>446.6</ele>
        <time>2019-05-24T16:28:26.787Z</time>
      </trkpt>
      <trkpt lat="45.83738" lon="4.80535">
        <ele>444.2</ele>
        <time>2019-05-24T16:28:27.290Z</time>
      </trkpt>
      <trkpt lat="45.83728" lon="4.80536">
        <ele>443.2</ele>
        <time>2019-05-24T16:28:27.492Z</time>
      </trkpt>
      <trkpt lat="45.83692" lon="4.80536">
        <ele>440.5</ele>
        <time>2019-05-24T16:28:28.212Z</time>
      </trkpt>
      <trkpt lat="45.83675" lon="4.80544">
        <ele>442.3</ele>
        <time>2019-05-24T16:28:28.565Z</time>
      </trkpt>
      <trkpt lat="45.83632" lon="4.80585">
        <ele>442.4</ele>
        <time>2019-05-24T16:28:29.600Z</time>
      </trkpt>
      <trkpt lat="45.83588" lon="4.80608">
        <ele>441.5</ele>
        <time>2019-05-24T16:28:30.546Z</time>
      </trkpt>
      <trkpt lat="45.83568" lon="4.8062">
        <ele>440.5</ele>
        <time>2019-05-24T16:28:30.989Z</time>
      </trkpt>
      <trkpt lat="45.83538" lon="4.80645">
        <ele>437.2</ele>
        <time>2019-05-24T16:28:31.673Z</time>
      </trkpt>
      <trkpt lat="45.8351" lon="4.80664">
        <ele>435.8</ele>
        <time>2019-05-24T16:28:32.296Z</time>
      </trkpt>
      <trkpt lat="45.83428" lon="4.80714">
        <ele>432.6</ele>
        <time>2019-05-24T16:28:34.081Z</time>
      </trkpt>
      <trkpt lat="45.83419" lon="4.80717">
        <ele>432.7</ele>
        <time>2019-05-24T16:28:34.265Z</time>
      </trkpt>
      <trkpt lat="45.83406" lon="4.80714">
        <ele>432.5</ele>
        <time>2019-05-24T16:28:34.529Z</time>
      </trkpt>
      <trkpt lat="45.83401" lon="4.8073">
        <ele>430.9</ele>
        <time>2019-05-24T16:28:34.764Z</time>
      </trkpt>
      <trkpt lat="45.83399" lon="4.80734">
        <ele>430.6</ele>
        <time>2019-05-24T16:28:34.839Z</time>
      </trkpt>
      <trkpt lat="45.83294" lon="4.80839">
        <ele>413.4</ele>
        <time>2019-05-24T16:28:37.412Z</time>
      </trkpt>
      <trkpt lat="45.8329" lon="4.80841">
        <ele>412.6</ele>
        <time>2019-05-24T16:28:37.490Z</time>
      </trkpt>
      <trkpt lat="45.83286" lon="4.80835">
        <ele>411.7</ele>
        <time>2019-05-24T16:28:37.599Z</time>
      </trkpt>
      <trkpt lat="45.83278" lon="4.80796">
        <ele>414.4</ele>
        <time>2019-05-24T16:28:38.167Z</time>
      </trkpt>
      <trkpt lat="45.83274" lon="4.80787">
        <ele>415.6</ele>
        <time>2019-05-24T16:28:38.315Z</time>
      </trkpt>
      <trkpt lat="45.83274" lon="4.80782">
        <ele>416.3</ele>
        <time>2019-05-24T16:28:38.386Z</time>
      </trkpt>
      <trkpt lat="45.83265" lon="4.80783">
        <ele>416</ele>
        <time>2019-05-24T16:28:38.561Z</time>
      </trkpt>
      <trkpt lat="45.8326" lon="4.80788">
        <ele>415.4</ele>
        <time>2019-05-24T16:28:38.694Z</time>
      </trkpt>
      <trkpt lat="45.83223" lon="4.80805">
        <ele>412.1</ele>
        <time>2019-05-24T16:28:39.466Z</time>
      </trkpt>
      <trkpt lat="45.83215" lon="4.80816">
        <ele>410.1</ele>
        <time>2019-05-24T16:28:39.692Z</time>
      </trkpt>
      <trkpt lat="45.83202" lon="4.80823">
        <ele>408.6</ele>
        <time>2019-05-24T16:28:39.959Z</time>
      </trkpt>
      <trkpt lat="45.83196" lon="4.8083">
        <ele>408.1</ele>
        <time>2019-05-24T16:28:40.114Z</time>
      </trkpt>
      <trkpt lat="45.83192" lon="4.80844">
        <ele>406.3</ele>
        <time>2019-05-24T16:28:40.326Z</time>
      </trkpt>
      <trkpt lat="45.83173" lon="4.8086">
        <ele>403.3</ele>
        <time>2019-05-24T16:28:40.776Z</time>
      </trkpt>
      <trkpt lat="45.83165" lon="4.8087">
        <ele>401.9</ele>
        <time>2019-05-24T16:28:40.975Z</time>
      </trkpt>
      <trkpt lat="45.83166" lon="4.80891">
        <ele>398.7</ele>
        <time>2019-05-24T16:28:41.275Z</time>
      </trkpt>
      <trkpt lat="45.83162" lon="4.80905">
        <ele>397.1</ele>
        <time>2019-05-24T16:28:41.486Z</time>
      </trkpt>
      <trkpt lat="45.8316" lon="4.80924">
        <ele>394.9</ele>
        <time>2019-05-24T16:28:41.748Z</time>
      </trkpt>
      <trkpt lat="45.8315" lon="4.80945">
        <ele>392.3</ele>
        <time>2019-05-24T16:28:42.105Z</time>
      </trkpt>
      <trkpt lat="45.83133" lon="4.80958">
        <ele>389.8</ele>
        <time>2019-05-24T16:28:42.477Z</time>
      </trkpt>
      <trkpt lat="45.83118" lon="4.80965">
        <ele>390.9</ele>
        <time>2019-05-24T16:28:42.810Z</time>
      </trkpt>
      <trkpt lat="45.83095" lon="4.80982">
        <ele>395.5</ele>
        <time>2019-05-24T16:28:43.326Z</time>
      </trkpt>
      <trkpt lat="45.83074" lon="4.81016">
        <ele>394.6</ele>
        <time>2019-05-24T16:28:43.957Z</time>
      </trkpt>
      <trkpt lat="45.83058" lon="4.81036">
        <ele>397</ele>
        <time>2019-05-24T16:28:44.391Z</time>
      </trkpt>
      <trkpt lat="45.83011" lon="4.81054">
        <ele>400.8</ele>
        <time>2019-05-24T16:28:45.352Z</time>
      </trkpt>
      <trkpt lat="45.82979" lon="4.81072">
        <ele>403.3</ele>
        <time>2019-05-24T16:28:46.039Z</time>
      </trkpt>
      <trkpt lat="45.82952" lon="4.81091">
        <ele>404.2</ele>
        <time>2019-05-24T16:28:46.645Z</time>
      </trkpt>
      <trkpt lat="45.82919" lon="4.81102">
        <ele>407.4</ele>
        <time>2019-05-24T16:28:47.336Z</time>
      </trkpt>
      <trkpt lat="45.82909" lon="4.81103">
        <ele>408</ele>
        <time>2019-05-24T16:28:47.524Z</time>
      </trkpt>
      <trkpt lat="45.82878" lon="4.81112">
        <ele>409</ele>
        <time>2019-05-24T16:28:48.161Z</time>
      </trkpt>
      <trkpt lat="45.82874" lon="4.81115">
        <ele>408.9</ele>
        <time>2019-05-24T16:28:48.256Z</time>
      </trkpt>
      <trkpt lat="45.8287" lon="4.81115">
        <ele>409</ele>
        <time>2019-05-24T16:28:48.336Z</time>
      </trkpt>
      <trkpt lat="45.82865" lon="4.81101">
        <ele>409</ele>
        <time>2019-05-24T16:28:48.547Z</time>
      </trkpt>
      <trkpt lat="45.82861" lon="4.811">
        <ele>409</ele>
        <time>2019-05-24T16:28:48.622Z</time>
      </trkpt>
      <trkpt lat="45.82857" lon="4.81101">
        <ele>408.8</ele>
        <time>2019-05-24T16:28:48.710Z</time>
      </trkpt>
      <trkpt lat="45.82827" lon="4.81127">
        <ele>407.9</ele>
        <time>2019-05-24T16:28:49.410Z</time>
      </trkpt>
      <trkpt lat="45.82817" lon="4.81128">
        <ele>406.8</ele>
        <time>2019-05-24T16:28:49.615Z</time>
      </trkpt>
      <trkpt lat="45.82795" lon="4.81118">
        <ele>403.9</ele>
        <time>2019-05-24T16:28:50.081Z</time>
      </trkpt>
      <trkpt lat="45.82748" lon="4.81087">
        <ele>398.4</ele>
        <time>2019-05-24T16:28:51.124Z</time>
      </trkpt>
      <trkpt lat="45.82748" lon="4.81087">
        <ele>398.4</ele>
        <time>2019-05-24T16:28:51.127Z</time>
      </trkpt>
      <trkpt lat="45.82748" lon="4.81087">
        <ele>398.4</ele>
        <time>2019-05-24T16:28:51.127Z</time>
      </trkpt>
      <trkpt lat="45.8274" lon="4.8108">
        <ele>397.2</ele>
        <time>2019-05-24T16:28:51.294Z</time>
      </trkpt>
      <trkpt lat="45.82716" lon="4.81046">
        <ele>391.5</ele>
        <time>2019-05-24T16:28:51.986Z</time>
      </trkpt>
      <trkpt lat="45.82694" lon="4.81025">
        <ele>386.6</ele>
        <time>2019-05-24T16:28:52.505Z</time>
      </trkpt>
      <trkpt lat="45.82676" lon="4.81014">
        <ele>383.4</ele>
        <time>2019-05-24T16:28:52.902Z</time>
      </trkpt>
      <trkpt lat="45.82664" lon="4.81013">
        <ele>381.9</ele>
        <time>2019-05-24T16:28:53.133Z</time>
      </trkpt>
      <trkpt lat="45.82654" lon="4.81014">
        <ele>380.4</ele>
        <time>2019-05-24T16:28:53.350Z</time>
      </trkpt>
      <trkpt lat="45.82647" lon="4.81011">
        <ele>379</ele>
        <time>2019-05-24T16:28:53.489Z</time>
      </trkpt>
      <trkpt lat="45.82644" lon="4.81013">
        <ele>378.8</ele>
        <time>2019-05-24T16:28:53.546Z</time>
      </trkpt>
      <trkpt lat="45.8264" lon="4.81013">
        <ele>378.1</ele>
        <time>2019-05-24T16:28:53.634Z</time>
      </trkpt>
      <trkpt lat="45.82634" lon="4.81006">
        <ele>376.9</ele>
        <time>2019-05-24T16:28:53.781Z</time>
      </trkpt>
      <trkpt lat="45.82625" lon="4.8099">
        <ele>375.5</ele>
        <time>2019-05-24T16:28:54.082Z</time>
      </trkpt>
      <trkpt lat="45.82621" lon="4.80985">
        <ele>375.2</ele>
        <time>2019-05-24T16:28:54.185Z</time>
      </trkpt>
      <trkpt lat="45.82606" lon="4.80977">
        <ele>374.7</ele>
        <time>2019-05-24T16:28:54.500Z</time>
      </trkpt>
      <trkpt lat="45.82504" lon="4.80951">
        <ele>372.5</ele>
        <time>2019-05-24T16:28:56.570Z</time>
      </trkpt>
      <trkpt lat="45.82464" lon="4.80938">
        <ele>369.1</ele>
        <time>2019-05-24T16:28:57.392Z</time>
      </trkpt>
      <trkpt lat="45.82453" lon="4.8093">
        <ele>368.1</ele>
        <time>2019-05-24T16:28:57.642Z</time>
      </trkpt>
      <trkpt lat="45.82359" lon="4.80843">
        <ele>367.8</ele>
        <time>2019-05-24T16:28:59.881Z</time>
      </trkpt>
      <trkpt lat="45.82324" lon="4.80824">
        <ele>366.3</ele>
        <time>2019-05-24T16:29:00.628Z</time>
      </trkpt>
      <trkpt lat="45.823" lon="4.80807">
        <ele>366.4</ele>
        <time>2019-05-24T16:29:01.179Z</time>
      </trkpt>
      <trkpt lat="45.82283" lon="4.80782">
        <ele>368.1</ele>
        <time>2019-05-24T16:29:01.666Z</time>
      </trkpt>
      <trkpt lat="45.8228" lon="4.80754">
        <ele>370.8</ele>
        <time>2019-05-24T16:29:02.056Z</time>
      </trkpt>
      <trkpt lat="45.82261" lon="4.80699">
        <ele>374.8</ele>
        <time>2019-05-24T16:29:02.912Z</time>
      </trkpt>
      <trkpt lat="45.8224" lon="4.80649">
        <ele>376.7</ele>
        <time>2019-05-24T16:29:03.725Z</time>
      </trkpt>
      <trkpt lat="45.82224" lon="4.80621">
        <ele>377.5</ele>
        <time>2019-05-24T16:29:04.237Z</time>
      </trkpt>
      <trkpt lat="45.82204" lon="4.80596">
        <ele>377.5</ele>
        <time>2019-05-24T16:29:04.756Z</time>
      </trkpt>
      <trkpt lat="45.82178" lon="4.80574">
        <ele>377.1</ele>
        <time>2019-05-24T16:29:05.356Z</time>
      </trkpt>
      <trkpt lat="45.82166" lon="4.80561">
        <ele>377.3</ele>
        <time>2019-05-24T16:29:05.656Z</time>
      </trkpt>
      <trkpt lat="45.8213" lon="4.8051">
        <ele>380.1</ele>
        <time>2019-05-24T16:29:06.687Z</time>
      </trkpt>
      <trkpt lat="45.82115" lon="4.80487">
        <ele>379.4</ele>
        <time>2019-05-24T16:29:07.122Z</time>
      </trkpt>
      <trkpt lat="45.82106" lon="4.80469">
        <ele>378.1</ele>
        <time>2019-05-24T16:29:07.423Z</time>
      </trkpt>
      <trkpt lat="45.82109" lon="4.80451">
        <ele>375.7</ele>
        <time>2019-05-24T16:29:07.684Z</time>
      </trkpt>
      <trkpt lat="45.82122" lon="4.80453">
        <ele>377.7</ele>
        <time>2019-05-24T16:29:07.961Z</time>
      </trkpt>
      <trkpt lat="45.82119" lon="4.80453">
        <ele>377.2</ele>
        <time>2019-05-24T16:29:08.040Z</time>
      </trkpt>
      <trkpt lat="45.82115" lon="4.80449">
        <ele>376.2</ele>
        <time>2019-05-24T16:29:08.130Z</time>
      </trkpt>
      <trkpt lat="45.82115" lon="4.80448">
        <ele>376</ele>
        <time>2019-05-24T16:29:08.155Z</time>
      </trkpt>
      <trkpt lat="45.82119" lon="4.80439">
        <ele>375.1</ele>
        <time>2019-05-24T16:29:08.299Z</time>
      </trkpt>
      <trkpt lat="45.82127" lon="4.80427">
        <ele>373.6</ele>
        <time>2019-05-24T16:29:08.532Z</time>
      </trkpt>
      <trkpt lat="45.82144" lon="4.8041">
        <ele>371.4</ele>
        <time>2019-05-24T16:29:08.937Z</time>
      </trkpt>
      <trkpt lat="45.82178" lon="4.80382">
        <ele>368.8</ele>
        <time>2019-05-24T16:29:09.737Z</time>
      </trkpt>
      <trkpt lat="45.82195" lon="4.80366">
        <ele>367.7</ele>
        <time>2019-05-24T16:29:10.131Z</time>
      </trkpt>
      <trkpt lat="45.82288" lon="4.80317">
        <ele>374.9</ele>
        <time>2019-05-24T16:29:12.118Z</time>
      </trkpt>
      <trkpt lat="45.82304" lon="4.80306">
        <ele>376.7</ele>
        <time>2019-05-24T16:29:12.483Z</time>
      </trkpt>
      <trkpt lat="45.82309" lon="4.80299">
        <ele>376.8</ele>
        <time>2019-05-24T16:29:12.620Z</time>
      </trkpt>
      <trkpt lat="45.82328" lon="4.80257">
        <ele>374.7</ele>
        <time>2019-05-24T16:29:13.317Z</time>
      </trkpt>
      <trkpt lat="45.82398" lon="4.80074">
        <ele>377.1</ele>
        <time>2019-05-24T16:29:16.235Z</time>
      </trkpt>
      <trkpt lat="45.82438" lon="4.79991">
        <ele>384.5</ele>
        <time>2019-05-24T16:29:17.652Z</time>
      </trkpt>
      <trkpt lat="45.82444" lon="4.7997">
        <ele>386</ele>
        <time>2019-05-24T16:29:17.965Z</time>
      </trkpt>
      <trkpt lat="45.8245" lon="4.79956">
        <ele>387.3</ele>
        <time>2019-05-24T16:29:18.189Z</time>
      </trkpt>
      <trkpt lat="45.82493" lon="4.79889">
        <ele>394</ele>
        <time>2019-05-24T16:29:19.464Z</time>
      </trkpt>
      <trkpt lat="45.82496" lon="4.79889">
        <ele>394.4</ele>
        <time>2019-05-24T16:29:19.526Z</time>
      </trkpt>
      <trkpt lat="45.82501" lon="4.79898">
        <ele>395.1</ele>
        <time>2019-05-24T16:29:19.690Z</time>
      </trkpt>
      <trkpt lat="45.82505" lon="4.79918">
        <ele>395.5</ele>
        <time>2019-05-24T16:29:19.974Z</time>
      </trkpt>
      <trkpt lat="45.8251" lon="4.79934">
        <ele>396.3</ele>
        <time>2019-05-24T16:29:20.220Z</time>
      </trkpt>
      <trkpt lat="45.82559" lon="4.80002">
        <ele>404.9</ele>
        <time>2019-05-24T16:29:21.598Z</time>
      </trkpt>
      <trkpt lat="45.82563" lon="4.80004">
        <ele>405.8</ele>
        <time>2019-05-24T16:29:21.681Z</time>
      </trkpt>
      <trkpt lat="45.8258" lon="4.79966">
        <ele>407.2</ele>
        <time>2019-05-24T16:29:22.307Z</time>
      </trkpt>
      <trkpt lat="45.82587" lon="4.79913">
        <ele>406.3</ele>
        <time>2019-05-24T16:29:23.069Z</time>
      </trkpt>
      <trkpt lat="45.82613" lon="4.798">
        <ele>408.1</ele>
        <time>2019-05-24T16:29:24.734Z</time>
      </trkpt>
      <trkpt lat="45.82621" lon="4.79747">
        <ele>407.2</ele>
        <time>2019-05-24T16:29:25.493Z</time>
      </trkpt>
      <trkpt lat="45.8263" lon="4.79717">
        <ele>408.1</ele>
        <time>2019-05-24T16:29:25.952Z</time>
      </trkpt>
      <trkpt lat="45.82632" lon="4.79704">
        <ele>408.5</ele>
        <time>2019-05-24T16:29:26.128Z</time>
      </trkpt>
      <trkpt lat="45.82648" lon="4.79685">
        <ele>412.2</ele>
        <time>2019-05-24T16:29:26.537Z</time>
      </trkpt>
      <trkpt lat="45.82701" lon="4.79659">
        <ele>417.6</ele>
        <time>2019-05-24T16:29:27.673Z</time>
      </trkpt>
      <trkpt lat="45.82709" lon="4.79658">
        <ele>418.7</ele>
        <time>2019-05-24T16:29:27.830Z</time>
      </trkpt>
      <trkpt lat="45.82732" lon="4.79648">
        <ele>421.6</ele>
        <time>2019-05-24T16:29:28.304Z</time>
      </trkpt>
      <trkpt lat="45.82752" lon="4.79633">
        <ele>423.5</ele>
        <time>2019-05-24T16:29:28.757Z</time>
      </trkpt>
      <trkpt lat="45.82754" lon="4.7963">
        <ele>424.5</ele>
        <time>2019-05-24T16:29:28.820Z</time>
      </trkpt>
      <trkpt lat="45.82753" lon="4.79627">
        <ele>425.1</ele>
        <time>2019-05-24T16:29:28.861Z</time>
      </trkpt>
      <trkpt lat="45.82744" lon="4.79626">
        <ele>425</ele>
        <time>2019-05-24T16:29:29.048Z</time>
      </trkpt>
      <trkpt lat="45.82725" lon="4.79635">
        <ele>422.6</ele>
        <time>2019-05-24T16:29:29.450Z</time>
      </trkpt>
      <trkpt lat="45.82727" lon="4.79636">
        <ele>422.4</ele>
        <time>2019-05-24T16:29:29.489Z</time>
      </trkpt>
      <trkpt lat="45.82726" lon="4.79638">
        <ele>422.2</ele>
        <time>2019-05-24T16:29:29.517Z</time>
      </trkpt>
      <trkpt lat="45.82723" lon="4.79629">
        <ele>423.4</ele>
        <time>2019-05-24T16:29:29.651Z</time>
      </trkpt>
      <trkpt lat="45.82713" lon="4.79537">
        <ele>432.5</ele>
        <time>2019-05-24T16:29:30.963Z</time>
      </trkpt>
      <trkpt lat="45.82705" lon="4.79509">
        <ele>434.7</ele>
        <time>2019-05-24T16:29:31.382Z</time>
      </trkpt>
      <trkpt lat="45.82711" lon="4.79494">
        <ele>436</ele>
        <time>2019-05-24T16:29:31.614Z</time>
      </trkpt>
      <trkpt lat="45.82707" lon="4.79474">
        <ele>433.1</ele>
        <time>2019-05-24T16:29:31.900Z</time>
      </trkpt>
      <trkpt lat="45.82708" lon="4.7947">
        <ele>432.9</ele>
        <time>2019-05-24T16:29:31.962Z</time>
      </trkpt>
      <trkpt lat="45.82707" lon="4.79429">
        <ele>433.2</ele>
        <time>2019-05-24T16:29:32.543Z</time>
      </trkpt>
      <trkpt lat="45.82706" lon="4.79422">
        <ele>434</ele>
        <time>2019-05-24T16:29:32.642Z</time>
      </trkpt>
      <trkpt lat="45.82693" lon="4.79383">
        <ele>438.1</ele>
        <time>2019-05-24T16:29:33.232Z</time>
      </trkpt>
      <trkpt lat="45.82693" lon="4.79366">
        <ele>439.9</ele>
        <time>2019-05-24T16:29:33.477Z</time>
      </trkpt>
      <trkpt lat="45.82703" lon="4.79358">
        <ele>442</ele>
        <time>2019-05-24T16:29:33.711Z</time>
      </trkpt>
      <trkpt lat="45.82702" lon="4.7936">
        <ele>441.9</ele>
        <time>2019-05-24T16:29:33.746Z</time>
      </trkpt>
      <trkpt lat="45.82704" lon="4.79361">
        <ele>442</ele>
        <time>2019-05-24T16:29:33.781Z</time>
      </trkpt>
      <trkpt lat="45.82705" lon="4.79365">
        <ele>441.7</ele>
        <time>2019-05-24T16:29:33.840Z</time>
      </trkpt>
      <trkpt lat="45.82709" lon="4.79365">
        <ele>442.1</ele>
        <time>2019-05-24T16:29:33.913Z</time>
      </trkpt>
      <trkpt lat="45.82707" lon="4.79363">
        <ele>442.1</ele>
        <time>2019-05-24T16:29:33.967Z</time>
      </trkpt>
      <trkpt lat="45.82706" lon="4.79365">
        <ele>441.8</ele>
        <time>2019-05-24T16:29:34.000Z</time>
      </trkpt>
      <trkpt lat="45.82709" lon="4.79367">
        <ele>442</ele>
        <time>2019-05-24T16:29:34.063Z</time>
      </trkpt>
      <trkpt lat="45.8271" lon="4.79365">
        <ele>442.3</ele>
        <time>2019-05-24T16:29:34.099Z</time>
      </trkpt>
      <trkpt lat="45.82704" lon="4.7936">
        <ele>442</ele>
        <time>2019-05-24T16:29:34.247Z</time>
      </trkpt>
      <trkpt lat="45.82704" lon="4.79361">
        <ele>442</ele>
        <time>2019-05-24T16:29:34.268Z</time>
      </trkpt>
      <trkpt lat="45.82697" lon="4.79359">
        <ele>441.3</ele>
        <time>2019-05-24T16:29:34.417Z</time>
      </trkpt>
      <trkpt lat="45.82703" lon="4.79361">
        <ele>441.9</ele>
        <time>2019-05-24T16:29:34.538Z</time>
      </trkpt>
      <trkpt lat="45.82702" lon="4.79357">
        <ele>441.8</ele>
        <time>2019-05-24T16:29:34.597Z</time>
      </trkpt>
      <trkpt lat="45.82703" lon="4.79357">
        <ele>442</ele>
        <time>2019-05-24T16:29:34.624Z</time>
      </trkpt>
      <trkpt lat="45.82702" lon="4.79356">
        <ele>442</ele>
        <time>2019-05-24T16:29:34.644Z</time>
      </trkpt>
      <trkpt lat="45.82709" lon="4.79348">
        <ele>443.1</ele>
        <time>2019-05-24T16:29:34.819Z</time>
      </trkpt>
      <trkpt lat="45.82712" lon="4.79347">
        <ele>443.5</ele>
        <time>2019-05-24T16:29:34.876Z</time>
      </trkpt>
      <trkpt lat="45.82725" lon="4.79347">
        <ele>445.3</ele>
        <time>2019-05-24T16:29:35.130Z</time>
      </trkpt>
      <trkpt lat="45.82738" lon="4.79352">
        <ele>446.6</ele>
        <time>2019-05-24T16:29:35.415Z</time>
      </trkpt>
      <trkpt lat="45.8275" lon="4.79358">
        <ele>447.3</ele>
        <time>2019-05-24T16:29:35.664Z</time>
      </trkpt>
      <trkpt lat="45.82793" lon="4.79368">
        <ele>452.4</ele>
        <time>2019-05-24T16:29:36.534Z</time>
      </trkpt>
      <trkpt lat="45.82802" lon="4.79368">
        <ele>453.5</ele>
        <time>2019-05-24T16:29:36.722Z</time>
      </trkpt>
      <trkpt lat="45.82838" lon="4.79372">
        <ele>455.3</ele>
        <time>2019-05-24T16:29:37.447Z</time>
      </trkpt>
      <trkpt lat="45.82863" lon="4.7937">
        <ele>456.9</ele>
        <time>2019-05-24T16:29:37.953Z</time>
      </trkpt>
      <trkpt lat="45.82875" lon="4.79362">
        <ele>458.4</ele>
        <time>2019-05-24T16:29:38.216Z</time>
      </trkpt>
      <trkpt lat="45.82884" lon="4.79343">
        <ele>460.8</ele>
        <time>2019-05-24T16:29:38.537Z</time>
      </trkpt>
      <trkpt lat="45.82895" lon="4.79327">
        <ele>463</ele>
        <time>2019-05-24T16:29:38.843Z</time>
      </trkpt>
      <trkpt lat="45.82891" lon="4.7931">
        <ele>464.7</ele>
        <time>2019-05-24T16:29:39.082Z</time>
      </trkpt>
      <trkpt lat="45.8288" lon="4.7929">
        <ele>464.7</ele>
        <time>2019-05-24T16:29:39.442Z</time>
      </trkpt>
      <trkpt lat="45.82876" lon="4.79278">
        <ele>464.6</ele>
        <time>2019-05-24T16:29:39.632Z</time>
      </trkpt>
      <trkpt lat="45.82875" lon="4.79267">
        <ele>464.9</ele>
        <time>2019-05-24T16:29:39.777Z</time>
      </trkpt>
      <trkpt lat="45.82854" lon="4.79192">
        <ele>462.8</ele>
        <time>2019-05-24T16:29:40.911Z</time>
      </trkpt>
      <trkpt lat="45.82841" lon="4.79152">
        <ele>462</ele>
        <time>2019-05-24T16:29:41.528Z</time>
      </trkpt>
      <trkpt lat="45.8283" lon="4.79124">
        <ele>462.6</ele>
        <time>2019-05-24T16:29:41.976Z</time>
      </trkpt>
      <trkpt lat="45.82818" lon="4.79079">
        <ele>464.6</ele>
        <time>2019-05-24T16:29:42.657Z</time>
      </trkpt>
      <trkpt lat="45.82811" lon="4.79044">
        <ele>465.5</ele>
        <time>2019-05-24T16:29:43.156Z</time>
      </trkpt>
      <trkpt lat="45.82813" lon="4.7903">
        <ele>465.8</ele>
        <time>2019-05-24T16:29:43.370Z</time>
      </trkpt>
      <trkpt lat="45.82816" lon="4.79027">
        <ele>466.1</ele>
        <time>2019-05-24T16:29:43.432Z</time>
      </trkpt>
      <trkpt lat="45.82842" lon="4.79015">
        <ele>469.2</ele>
        <time>2019-05-24T16:29:43.975Z</time>
      </trkpt>
      <trkpt lat="45.82871" lon="4.78998">
        <ele>473.3</ele>
        <time>2019-05-24T16:29:44.610Z</time>
      </trkpt>
      <trkpt lat="45.82895" lon="4.78982">
        <ele>475</ele>
        <time>2019-05-24T16:29:45.145Z</time>
      </trkpt>
      <trkpt lat="45.82905" lon="4.78979">
        <ele>476.1</ele>
        <time>2019-05-24T16:29:45.341Z</time>
      </trkpt>
      <trkpt lat="45.82938" lon="4.78963">
        <ele>480.4</ele>
        <time>2019-05-24T16:29:46.045Z</time>
      </trkpt>
      <trkpt lat="45.82986" lon="4.78944">
        <ele>488.5</ele>
        <time>2019-05-24T16:29:47.048Z</time>
      </trkpt>
      <trkpt lat="45.82991" lon="4.78941">
        <ele>489</ele>
        <time>2019-05-24T16:29:47.158Z</time>
      </trkpt>
      <trkpt lat="45.83003" lon="4.78941">
        <ele>491.2</ele>
        <time>2019-05-24T16:29:47.387Z</time>
      </trkpt>
      <trkpt lat="45.83005" lon="4.78945">
        <ele>491.9</ele>
        <time>2019-05-24T16:29:47.460Z</time>
      </trkpt>
      <trkpt lat="45.83008" lon="4.78967">
        <ele>492.4</ele>
        <time>2019-05-24T16:29:47.774Z</time>
      </trkpt>
      <trkpt lat="45.83016" lon="4.78985">
        <ele>494.1</ele>
        <time>2019-05-24T16:29:48.080Z</time>
      </trkpt>
      <trkpt lat="45.83019" lon="4.78999">
        <ele>494.7</ele>
        <time>2019-05-24T16:29:48.279Z</time>
      </trkpt>
      <trkpt lat="45.83024" lon="4.79001">
        <ele>495.5</ele>
        <time>2019-05-24T16:29:48.388Z</time>
      </trkpt>
      <trkpt lat="45.83033" lon="4.79">
        <ele>496.9</ele>
        <time>2019-05-24T16:29:48.557Z</time>
      </trkpt>
      <trkpt lat="45.83041" lon="4.78994">
        <ele>498.2</ele>
        <time>2019-05-24T16:29:48.748Z</time>
      </trkpt>
      <trkpt lat="45.83069" lon="4.78981">
        <ele>502.6</ele>
        <time>2019-05-24T16:29:49.331Z</time>
      </trkpt>
      <trkpt lat="45.83093" lon="4.78962">
        <ele>506.7</ele>
        <time>2019-05-24T16:29:49.886Z</time>
      </trkpt>
      <trkpt lat="45.83101" lon="4.78958">
        <ele>507.8</ele>
        <time>2019-05-24T16:29:50.046Z</time>
      </trkpt>
      <trkpt lat="45.83107" lon="4.78952">
        <ele>509</ele>
        <time>2019-05-24T16:29:50.202Z</time>
      </trkpt>
      <trkpt lat="45.83131" lon="4.78938">
        <ele>512.2</ele>
        <time>2019-05-24T16:29:50.720Z</time>
      </trkpt>
      <trkpt lat="45.83137" lon="4.78933">
        <ele>513.1</ele>
        <time>2019-05-24T16:29:50.858Z</time>
      </trkpt>
      <trkpt lat="45.83152" lon="4.78913">
        <ele>515.2</ele>
        <time>2019-05-24T16:29:51.275Z</time>
      </trkpt>
      <trkpt lat="45.83177" lon="4.7889">
        <ele>518.8</ele>
        <time>2019-05-24T16:29:51.860Z</time>
      </trkpt>
      <trkpt lat="45.83175" lon="4.78889">
        <ele>518.4</ele>
        <time>2019-05-24T16:29:51.912Z</time>
      </trkpt>
      <trkpt lat="45.83174" lon="4.78885">
        <ele>518</ele>
        <time>2019-05-24T16:29:51.977Z</time>
      </trkpt>
      <trkpt lat="45.83186" lon="4.78869">
        <ele>519</ele>
        <time>2019-05-24T16:29:52.302Z</time>
      </trkpt>
      <trkpt lat="45.83211" lon="4.78818">
        <ele>520.1</ele>
        <time>2019-05-24T16:29:53.168Z</time>
      </trkpt>
      <trkpt lat="45.83233" lon="4.78791">
        <ele>521.6</ele>
        <time>2019-05-24T16:29:53.752Z</time>
      </trkpt>
      <trkpt lat="45.83255" lon="4.78766">
        <ele>522.7</ele>
        <time>2019-05-24T16:29:54.311Z</time>
      </trkpt>
      <trkpt lat="45.83289" lon="4.78744">
        <ele>526.3</ele>
        <time>2019-05-24T16:29:55.063Z</time>
      </trkpt>
      <trkpt lat="45.83296" lon="4.78736">
        <ele>526.8</ele>
        <time>2019-05-24T16:29:55.239Z</time>
      </trkpt>
      <trkpt lat="45.83316" lon="4.78726">
        <ele>528.9</ele>
        <time>2019-05-24T16:29:55.660Z</time>
      </trkpt>
      <trkpt lat="45.83335" lon="4.78723">
        <ele>531.5</ele>
        <time>2019-05-24T16:29:56.059Z</time>
      </trkpt>
      <trkpt lat="45.8337" lon="4.78707">
        <ele>536</ele>
        <time>2019-05-24T16:29:56.780Z</time>
      </trkpt>
      <trkpt lat="45.83382" lon="4.78706">
        <ele>538</ele>
        <time>2019-05-24T16:29:57.030Z</time>
      </trkpt>
      <trkpt lat="45.83393" lon="4.78699">
        <ele>539.1</ele>
        <time>2019-05-24T16:29:57.258Z</time>
      </trkpt>
      <trkpt lat="45.83401" lon="4.78689">
        <ele>539.8</ele>
        <time>2019-05-24T16:29:57.479Z</time>
      </trkpt>
      <trkpt lat="45.83411" lon="4.78683">
        <ele>541.1</ele>
        <time>2019-05-24T16:29:57.686Z</time>
      </trkpt>
      <trkpt lat="45.8342" lon="4.7868">
        <ele>542.5</ele>
        <time>2019-05-24T16:29:57.869Z</time>
      </trkpt>
      <trkpt lat="45.83423" lon="4.78677">
        <ele>542.9</ele>
        <time>2019-05-24T16:29:57.949Z</time>
      </trkpt>
      <trkpt lat="45.83435" lon="4.78665">
        <ele>544</ele>
        <time>2019-05-24T16:29:58.244Z</time>
      </trkpt>
      <trkpt lat="45.83444" lon="4.78652">
        <ele>544.3</ele>
        <time>2019-05-24T16:29:58.488Z</time>
      </trkpt>
      <trkpt lat="45.83453" lon="4.78644">
        <ele>545.4</ele>
        <time>2019-05-24T16:29:58.720Z</time>
      </trkpt>
      <trkpt lat="45.83467" lon="4.78626">
        <ele>546.6</ele>
        <time>2019-05-24T16:29:59.088Z</time>
      </trkpt>
      <trkpt lat="45.83478" lon="4.78617">
        <ele>547.7</ele>
        <time>2019-05-24T16:29:59.336Z</time>
      </trkpt>
      <trkpt lat="45.83522" lon="4.78567">
        <ele>551.2</ele>
        <time>2019-05-24T16:30:00.460Z</time>
      </trkpt>
      <trkpt lat="45.83544" lon="4.78546">
        <ele>554.5</ele>
        <time>2019-05-24T16:30:00.990Z</time>
      </trkpt>
      <trkpt lat="45.83591" lon="4.78465">
        <ele>554.2</ele>
        <time>2019-05-24T16:30:02.465Z</time>
      </trkpt>
      <trkpt lat="45.8361" lon="4.7844">
        <ele>553.3</ele>
        <time>2019-05-24T16:30:02.981Z</time>
      </trkpt>
      <trkpt lat="45.83648" lon="4.78407">
        <ele>549.8</ele>
        <time>2019-05-24T16:30:03.874Z</time>
      </trkpt>
      <trkpt lat="45.8367" lon="4.78391">
        <ele>546.8</ele>
        <time>2019-05-24T16:30:04.375Z</time>
      </trkpt>
      <trkpt lat="45.8368" lon="4.78386">
        <ele>544.4</ele>
        <time>2019-05-24T16:30:04.573Z</time>
      </trkpt>
      <trkpt lat="45.83714" lon="4.78391">
        <ele>540</ele>
        <time>2019-05-24T16:30:05.265Z</time>
      </trkpt>
      <trkpt lat="45.83741" lon="4.7839">
        <ele>539.7</ele>
        <time>2019-05-24T16:30:05.807Z</time>
      </trkpt>
      <trkpt lat="45.83797" lon="4.78384">
        <ele>540.8</ele>
        <time>2019-05-24T16:30:06.926Z</time>
      </trkpt>
      <trkpt lat="45.83805" lon="4.78381">
        <ele>540.9</ele>
        <time>2019-05-24T16:30:07.084Z</time>
      </trkpt>
      <trkpt lat="45.83819" lon="4.78374">
        <ele>541.8</ele>
        <time>2019-05-24T16:30:07.397Z</time>
      </trkpt>
      <trkpt lat="45.83843" lon="4.78365">
        <ele>543.8</ele>
        <time>2019-05-24T16:30:07.891Z</time>
      </trkpt>
      <trkpt lat="45.83853" lon="4.78364">
        <ele>544.3</ele>
        <time>2019-05-24T16:30:08.086Z</time>
      </trkpt>
      <trkpt lat="45.83885" lon="4.78371">
        <ele>544.1</ele>
        <time>2019-05-24T16:30:08.732Z</time>
      </trkpt>
      <trkpt lat="45.83895" lon="4.7837">
        <ele>543.3</ele>
        <time>2019-05-24T16:30:08.931Z</time>
      </trkpt>
      <trkpt lat="45.83902" lon="4.78371">
        <ele>544</ele>
        <time>2019-05-24T16:30:09.072Z</time>
      </trkpt>
      <trkpt lat="45.83921" lon="4.78371">
        <ele>545.1</ele>
        <time>2019-05-24T16:30:09.455Z</time>
      </trkpt>
      <trkpt lat="45.83942" lon="4.78368">
        <ele>547.6</ele>
        <time>2019-05-24T16:30:09.888Z</time>
      </trkpt>
      <trkpt lat="45.8395" lon="4.78365">
        <ele>547.3</ele>
        <time>2019-05-24T16:30:10.052Z</time>
      </trkpt>
      <trkpt lat="45.84006" lon="4.7836">
        <ele>544.1</ele>
        <time>2019-05-24T16:30:11.181Z</time>
      </trkpt>
      <trkpt lat="45.84037" lon="4.78361">
        <ele>542.2</ele>
        <time>2019-05-24T16:30:11.789Z</time>
      </trkpt>
      <trkpt lat="45.84066" lon="4.78368">
        <ele>542.7</ele>
        <time>2019-05-24T16:30:12.385Z</time>
      </trkpt>
      <trkpt lat="45.84107" lon="4.78372">
        <ele>544.5</ele>
        <time>2019-05-24T16:30:13.199Z</time>
      </trkpt>
      <trkpt lat="45.84117" lon="4.78369">
        <ele>544.4</ele>
        <time>2019-05-24T16:30:13.411Z</time>
      </trkpt>
      <trkpt lat="45.84142" lon="4.78366">
        <ele>545.9</ele>
        <time>2019-05-24T16:30:13.904Z</time>
      </trkpt>
      <trkpt lat="45.8415" lon="4.78357">
        <ele>544.9</ele>
        <time>2019-05-24T16:30:14.121Z</time>
      </trkpt>
      <trkpt lat="45.84159" lon="4.78355">
        <ele>545</ele>
        <time>2019-05-24T16:30:14.297Z</time>
      </trkpt>
      <trkpt lat="45.84171" lon="4.7835">
        <ele>545.1</ele>
        <time>2019-05-24T16:30:14.549Z</time>
      </trkpt>
      <trkpt lat="45.84212" lon="4.7828">
        <ele>546.1</ele>
        <time>2019-05-24T16:30:15.819Z</time>
      </trkpt>
      <trkpt lat="45.84212" lon="4.7828">
        <ele>546.1</ele>
        <time>2019-05-24T16:30:15.822Z</time>
      </trkpt>
      <trkpt lat="45.84212" lon="4.7828">
        <ele>546.1</ele>
        <time>2019-05-24T16:30:15.822Z</time>
      </trkpt>
      <trkpt lat="45.84215" lon="4.78276">
        <ele>546.7</ele>
        <time>2019-05-24T16:30:15.905Z</time>
      </trkpt>
      <trkpt lat="45.84217" lon="4.78276">
        <ele>546.8</ele>
        <time>2019-05-24T16:30:15.959Z</time>
      </trkpt>
      <trkpt lat="45.84225" lon="4.78281">
        <ele>546.5</ele>
        <time>2019-05-24T16:30:16.126Z</time>
      </trkpt>
      <trkpt lat="45.84237" lon="4.78322">
        <ele>542</ele>
        <time>2019-05-24T16:30:16.748Z</time>
      </trkpt>
      <trkpt lat="45.84251" lon="4.78341">
        <ele>539.6</ele>
        <time>2019-05-24T16:30:17.136Z</time>
      </trkpt>
      <trkpt lat="45.84254" lon="4.78342">
        <ele>539.3</ele>
        <time>2019-05-24T16:30:17.203Z</time>
      </trkpt>
      <trkpt lat="45.84262" lon="4.78338">
        <ele>538.7</ele>
        <time>2019-05-24T16:30:17.370Z</time>
      </trkpt>
      <trkpt lat="45.8428" lon="4.78325">
        <ele>538.1</ele>
        <time>2019-05-24T16:30:17.764Z</time>
      </trkpt>
      <trkpt lat="45.84293" lon="4.78323">
        <ele>537.6</ele>
        <time>2019-05-24T16:30:18.033Z</time>
      </trkpt>
      <trkpt lat="45.84341" lon="4.78332">
        <ele>533.4</ele>
        <time>2019-05-24T16:30:19.011Z</time>
      </trkpt>
      <trkpt lat="45.84364" lon="4.78343">
        <ele>531.5</ele>
        <time>2019-05-24T16:30:19.484Z</time>
      </trkpt>
      <trkpt lat="45.84379" lon="4.78358">
        <ele>530.5</ele>
        <time>2019-05-24T16:30:19.856Z</time>
      </trkpt>
      <trkpt lat="45.84383" lon="4.78356">
        <ele>531.4</ele>
        <time>2019-05-24T16:30:19.945Z</time>
      </trkpt>
      <trkpt lat="45.84384" lon="4.78363">
        <ele>530.1</ele>
        <time>2019-05-24T16:30:20.039Z</time>
      </trkpt>
      <trkpt lat="45.84378" lon="4.78368">
        <ele>528.3</ele>
        <time>2019-05-24T16:30:20.174Z</time>
      </trkpt>
      <trkpt lat="45.84376" lon="4.78371">
        <ele>527.2</ele>
        <time>2019-05-24T16:30:20.237Z</time>
      </trkpt>
      <trkpt lat="45.84377" lon="4.78376">
        <ele>526.3</ele>
        <time>2019-05-24T16:30:20.301Z</time>
      </trkpt>
      <trkpt lat="45.84374" lon="4.78379">
        <ele>525.2</ele>
        <time>2019-05-24T16:30:20.371Z</time>
      </trkpt>
      <trkpt lat="45.84369" lon="4.78378">
        <ele>524.7</ele>
        <time>2019-05-24T16:30:20.462Z</time>
      </trkpt>
      <trkpt lat="45.84361" lon="4.78391">
        <ele>520.8</ele>
        <time>2019-05-24T16:30:20.705Z</time>
      </trkpt>
      <trkpt lat="45.84362" lon="4.78406">
        <ele>518.1</ele>
        <time>2019-05-24T16:30:20.923Z</time>
      </trkpt>
      <trkpt lat="45.84377" lon="4.78426">
        <ele>515.5</ele>
        <time>2019-05-24T16:30:21.323Z</time>
      </trkpt>
      <trkpt lat="45.84422" lon="4.78463">
        <ele>510</ele>
        <time>2019-05-24T16:30:22.367Z</time>
      </trkpt>
      <trkpt lat="45.84433" lon="4.78477">
        <ele>508.5</ele>
        <time>2019-05-24T16:30:22.666Z</time>
      </trkpt>
      <trkpt lat="45.84445" lon="4.78495">
        <ele>506.1</ele>
        <time>2019-05-24T16:30:23.015Z</time>
      </trkpt>
      <trkpt lat="45.84463" lon="4.78552">
        <ele>498.3</ele>
        <time>2019-05-24T16:30:23.882Z</time>
      </trkpt>
      <trkpt lat="45.84479" lon="4.78584">
        <ele>494.3</ele>
        <time>2019-05-24T16:30:24.424Z</time>
      </trkpt>
      <trkpt lat="45.8455" lon="4.78683">
        <ele>485</ele>
        <time>2019-05-24T16:30:26.414Z</time>
      </trkpt>
      <trkpt lat="45.84562" lon="4.78696">
        <ele>483.1</ele>
        <time>2019-05-24T16:30:26.720Z</time>
      </trkpt>
      <trkpt lat="45.8457" lon="4.78702">
        <ele>482.6</ele>
        <time>2019-05-24T16:30:26.896Z</time>
      </trkpt>
      <trkpt lat="45.84586" lon="4.78709">
        <ele>482.2</ele>
        <time>2019-05-24T16:30:27.228Z</time>
      </trkpt>
      <trkpt lat="45.84591" lon="4.78717">
        <ele>480.3</ele>
        <time>2019-05-24T16:30:27.382Z</time>
      </trkpt>
      <trkpt lat="45.84594" lon="4.78728">
        <ele>478.2</ele>
        <time>2019-05-24T16:30:27.551Z</time>
      </trkpt>
      <trkpt lat="45.84595" lon="4.7874">
        <ele>476.2</ele>
        <time>2019-05-24T16:30:27.718Z</time>
      </trkpt>
      <trkpt lat="45.84594" lon="4.78747">
        <ele>475.1</ele>
        <time>2019-05-24T16:30:27.812Z</time>
      </trkpt>
      <trkpt lat="45.84599" lon="4.78754">
        <ele>473.8</ele>
        <time>2019-05-24T16:30:27.957Z</time>
      </trkpt>
      <trkpt lat="45.84601" lon="4.78777">
        <ele>470.1</ele>
        <time>2019-05-24T16:30:28.281Z</time>
      </trkpt>
      <trkpt lat="45.84606" lon="4.78793">
        <ele>468.3</ele>
        <time>2019-05-24T16:30:28.535Z</time>
      </trkpt>
      <trkpt lat="45.84626" lon="4.78818">
        <ele>466.8</ele>
        <time>2019-05-24T16:30:29.062Z</time>
      </trkpt>
      <trkpt lat="45.84636" lon="4.78834">
        <ele>464</ele>
        <time>2019-05-24T16:30:29.351Z</time>
      </trkpt>
      <trkpt lat="45.84648" lon="4.78843">
        <ele>463.6</ele>
        <time>2019-05-24T16:30:29.621Z</time>
      </trkpt>
      <trkpt lat="45.84663" lon="4.78852">
        <ele>462.5</ele>
        <time>2019-05-24T16:30:29.953Z</time>
      </trkpt>
      <trkpt lat="45.84706" lon="4.78871">
        <ele>460.4</ele>
        <time>2019-05-24T16:30:30.850Z</time>
      </trkpt>
      <trkpt lat="45.84723" lon="4.78881">
        <ele>458.8</ele>
        <time>2019-05-24T16:30:31.231Z</time>
      </trkpt>
      <trkpt lat="45.84738" lon="4.78892">
        <ele>457.7</ele>
        <time>2019-05-24T16:30:31.572Z</time>
      </trkpt>
      <trkpt lat="45.8476" lon="4.78912">
        <ele>455.8</ele>
        <time>2019-05-24T16:30:32.087Z</time>
      </trkpt>
      <trkpt lat="45.8478" lon="4.78933">
        <ele>453.3</ele>
        <time>2019-05-24T16:30:32.585Z</time>
      </trkpt>
      <trkpt lat="45.84803" lon="4.78965">
        <ele>449.9</ele>
        <time>2019-05-24T16:30:33.217Z</time>
      </trkpt>
      <trkpt lat="45.84834" lon="4.79024">
        <ele>445.2</ele>
        <time>2019-05-24T16:30:34.248Z</time>
      </trkpt>
      <trkpt lat="45.8484" lon="4.79042">
        <ele>445.1</ele>
        <time>2019-05-24T16:30:34.531Z</time>
      </trkpt>
      <trkpt lat="45.84854" lon="4.79047">
        <ele>445.7</ele>
        <time>2019-05-24T16:30:34.814Z</time>
      </trkpt>
      <trkpt lat="45.84853" lon="4.79048">
        <ele>445.5</ele>
        <time>2019-05-24T16:30:34.842Z</time>
      </trkpt>
      <trkpt lat="45.84854" lon="4.79048">
        <ele>445.6</ele>
        <time>2019-05-24T16:30:34.865Z</time>
      </trkpt>
      <trkpt lat="45.84874" lon="4.79104">
        <ele>442.8</ele>
        <time>2019-05-24T16:30:35.750Z</time>
      </trkpt>
      <trkpt lat="45.84873" lon="4.79118">
        <ele>441.7</ele>
        <time>2019-05-24T16:30:35.949Z</time>
      </trkpt>
      <trkpt lat="45.84874" lon="4.7912">
        <ele>442.1</ele>
        <time>2019-05-24T16:30:35.987Z</time>
      </trkpt>
      <trkpt lat="45.84879" lon="4.79152">
        <ele>442.6</ele>
        <time>2019-05-24T16:30:36.444Z</time>
      </trkpt>
      <trkpt lat="45.84884" lon="4.79222">
        <ele>444.7</ele>
        <time>2019-05-24T16:30:37.424Z</time>
      </trkpt>
      <trkpt lat="45.84903" lon="4.79271">
        <ele>446.6</ele>
        <time>2019-05-24T16:30:38.206Z</time>
      </trkpt>
      <trkpt lat="45.84908" lon="4.79279">
        <ele>447.4</ele>
        <time>2019-05-24T16:30:38.357Z</time>
      </trkpt>
      <trkpt lat="45.8493" lon="4.79298">
        <ele>450.1</ele>
        <time>2019-05-24T16:30:38.877Z</time>
      </trkpt>
      <trkpt lat="45.84946" lon="4.793">
        <ele>453.5</ele>
        <time>2019-05-24T16:30:39.186Z</time>
      </trkpt>
      <trkpt lat="45.84949" lon="4.79302">
        <ele>453.7</ele>
        <time>2019-05-24T16:30:39.266Z</time>
      </trkpt>
      <trkpt lat="45.84962" lon="4.79301">
        <ele>456.5</ele>
        <time>2019-05-24T16:30:39.523Z</time>
      </trkpt>
      <trkpt lat="45.84948" lon="4.79278">
        <ele>459.1</ele>
        <time>2019-05-24T16:30:39.959Z</time>
      </trkpt>
      <trkpt lat="45.84938" lon="4.79256">
        <ele>458.7</ele>
        <time>2019-05-24T16:30:40.321Z</time>
      </trkpt>
      <trkpt lat="45.84939" lon="4.79247">
        <ele>459</ele>
        <time>2019-05-24T16:30:40.451Z</time>
      </trkpt>
      <trkpt lat="45.84943" lon="4.79244">
        <ele>459.2</ele>
        <time>2019-05-24T16:30:40.534Z</time>
      </trkpt>
      <trkpt lat="45.84969" lon="4.79245">
        <ele>463</ele>
        <time>2019-05-24T16:30:41.051Z</time>
      </trkpt>
      <trkpt lat="45.84981" lon="4.79243">
        <ele>463.6</ele>
        <time>2019-05-24T16:30:41.289Z</time>
      </trkpt>
      <trkpt lat="45.85037" lon="4.79251">
        <ele>468.7</ele>
        <time>2019-05-24T16:30:42.433Z</time>
      </trkpt>
      <trkpt lat="45.85053" lon="4.7925">
        <ele>469.8</ele>
        <time>2019-05-24T16:30:42.737Z</time>
      </trkpt>
      <trkpt lat="45.85066" lon="4.79246">
        <ele>471.4</ele>
        <time>2019-05-24T16:30:43.006Z</time>
      </trkpt>
      <trkpt lat="45.85093" lon="4.79244">
        <ele>475.5</ele>
        <time>2019-05-24T16:30:43.552Z</time>
      </trkpt>
      <trkpt lat="45.85131" lon="4.79224">
        <ele>480.3</ele>
        <time>2019-05-24T16:30:44.356Z</time>
      </trkpt>
      <trkpt lat="45.85155" lon="4.79269">
        <ele>478.3</ele>
        <time>2019-05-24T16:30:45.157Z</time>
      </trkpt>
      <trkpt lat="45.85167" lon="4.79269">
        <ele>478.5</ele>
        <time>2019-05-24T16:30:45.388Z</time>
      </trkpt>
      <trkpt lat="45.85172" lon="4.79274">
        <ele>477.8</ele>
        <time>2019-05-24T16:30:45.521Z</time>
      </trkpt>
      <trkpt lat="45.85195" lon="4.79308">
        <ele>469.2</ele>
        <time>2019-05-24T16:30:46.178Z</time>
      </trkpt>
      <trkpt lat="45.85201" lon="4.79315">
        <ele>467.6</ele>
        <time>2019-05-24T16:30:46.334Z</time>
      </trkpt>
      <trkpt lat="45.85217" lon="4.79326">
        <ele>465</ele>
        <time>2019-05-24T16:30:46.683Z</time>
      </trkpt>
      <trkpt lat="45.85231" lon="4.79332">
        <ele>462.6</ele>
        <time>2019-05-24T16:30:46.982Z</time>
      </trkpt>
      <trkpt lat="45.8524" lon="4.79333">
        <ele>461.2</ele>
        <time>2019-05-24T16:30:47.164Z</time>
      </trkpt>
      <trkpt lat="45.85291" lon="4.79332">
        <ele>454.6</ele>
        <time>2019-05-24T16:30:48.186Z</time>
      </trkpt>
      <trkpt lat="45.85328" lon="4.79348">
        <ele>447.2</ele>
        <time>2019-05-24T16:30:48.962Z</time>
      </trkpt>
      <trkpt lat="45.85368" lon="4.79368">
        <ele>445.8</ele>
        <time>2019-05-24T16:30:49.813Z</time>
      </trkpt>
      <trkpt lat="45.85383" lon="4.79359">
        <ele>447</ele>
        <time>2019-05-24T16:30:50.147Z</time>
      </trkpt>
      <trkpt lat="45.85387" lon="4.79344">
        <ele>448.1</ele>
        <time>2019-05-24T16:30:50.362Z</time>
      </trkpt>
      <trkpt lat="45.85387" lon="4.79345">
        <ele>448.1</ele>
        <time>2019-05-24T16:30:50.383Z</time>
      </trkpt>
      <trkpt lat="45.85391" lon="4.79312">
        <ele>449.8</ele>
        <time>2019-05-24T16:30:50.853Z</time>
      </trkpt>
      <trkpt lat="45.85395" lon="4.793">
        <ele>450.6</ele>
        <time>2019-05-24T16:30:51.044Z</time>
      </trkpt>
      <trkpt lat="45.85399" lon="4.79296">
        <ele>451</ele>
        <time>2019-05-24T16:30:51.124Z</time>
      </trkpt>
      <trkpt lat="45.85427" lon="4.79303">
        <ele>452.2</ele>
        <time>2019-05-24T16:30:51.700Z</time>
      </trkpt>
      <trkpt lat="45.85454" lon="4.79312">
        <ele>454.4</ele>
        <time>2019-05-24T16:30:52.250Z</time>
      </trkpt>
      <trkpt lat="45.85461" lon="4.79313">
        <ele>454.9</ele>
        <time>2019-05-24T16:30:52.401Z</time>
      </trkpt>
      <trkpt lat="45.85466" lon="4.79309">
        <ele>455.4</ele>
        <time>2019-05-24T16:30:52.521Z</time>
      </trkpt>
      <trkpt lat="45.85469" lon="4.79286">
        <ele>456.4</ele>
        <time>2019-05-24T16:30:52.848Z</time>
      </trkpt>
      <trkpt lat="45.85471" lon="4.79282">
        <ele>456.7</ele>
        <time>2019-05-24T16:30:52.923Z</time>
      </trkpt>
      <trkpt lat="45.85476" lon="4.79275">
        <ele>457.1</ele>
        <time>2019-05-24T16:30:53.052Z</time>
      </trkpt>
      <trkpt lat="45.85541" lon="4.79264">
        <ele>462.2</ele>
        <time>2019-05-24T16:30:54.360Z</time>
      </trkpt>
      <trkpt lat="45.85552" lon="4.79265">
        <ele>463.1</ele>
        <time>2019-05-24T16:30:54.580Z</time>
      </trkpt>
      <trkpt lat="45.85562" lon="4.79271">
        <ele>464.6</ele>
        <time>2019-05-24T16:30:54.804Z</time>
      </trkpt>
      <trkpt lat="45.85611" lon="4.79342">
        <ele>470</ele>
        <time>2019-05-24T16:30:56.194Z</time>
      </trkpt>
      <trkpt lat="45.85621" lon="4.79353">
        <ele>470.4</ele>
        <time>2019-05-24T16:30:56.450Z</time>
      </trkpt>
      <trkpt lat="45.85622" lon="4.7935">
        <ele>470.9</ele>
        <time>2019-05-24T16:30:56.506Z</time>
      </trkpt>
      <trkpt lat="45.85609" lon="4.79298">
        <ele>472</ele>
        <time>2019-05-24T16:30:57.274Z</time>
      </trkpt>
      <trkpt lat="45.856" lon="4.79252">
        <ele>472.4</ele>
        <time>2019-05-24T16:30:57.942Z</time>
      </trkpt>
      <trkpt lat="45.85598" lon="4.79148">
        <ele>476.7</ele>
        <time>2019-05-24T16:30:59.384Z</time>
      </trkpt>
      <trkpt lat="45.85594" lon="4.79111">
        <ele>480.2</ele>
        <time>2019-05-24T16:30:59.915Z</time>
      </trkpt>
      <trkpt lat="45.85589" lon="4.79095">
        <ele>481.3</ele>
        <time>2019-05-24T16:31:00.149Z</time>
      </trkpt>
      <trkpt lat="45.85583" lon="4.79085">
        <ele>481.8</ele>
        <time>2019-05-24T16:31:00.336Z</time>
      </trkpt>
      <trkpt lat="45.8556" lon="4.79063">
        <ele>485.6</ele>
        <time>2019-05-24T16:31:00.889Z</time>
      </trkpt>
      <trkpt lat="45.85516" lon="4.79034">
        <ele>487.4</ele>
        <time>2019-05-24T16:31:01.869Z</time>
      </trkpt>
      <trkpt lat="45.85498" lon="4.79021">
        <ele>488</ele>
        <time>2019-05-24T16:31:02.270Z</time>
      </trkpt>
      <trkpt lat="45.85496" lon="4.79017">
        <ele>488.5</ele>
        <time>2019-05-24T16:31:02.333Z</time>
      </trkpt>
      <trkpt lat="45.85504" lon="4.79017">
        <ele>489.4</ele>
        <time>2019-05-24T16:31:02.496Z</time>
      </trkpt>
      <trkpt lat="45.85534" lon="4.79035">
        <ele>489</ele>
        <time>2019-05-24T16:31:03.134Z</time>
      </trkpt>
      <trkpt lat="45.85548" lon="4.79049">
        <ele>487.4</ele>
        <time>2019-05-24T16:31:03.480Z</time>
      </trkpt>
      <trkpt lat="45.85557" lon="4.79051">
        <ele>487.8</ele>
        <time>2019-05-24T16:31:03.673Z</time>
      </trkpt>
      <trkpt lat="45.85569" lon="4.79052">
        <ele>488.2</ele>
        <time>2019-05-24T16:31:03.917Z</time>
      </trkpt>
      <trkpt lat="45.85587" lon="4.79056">
        <ele>488.2</ele>
        <time>2019-05-24T16:31:04.285Z</time>
      </trkpt>
      <trkpt lat="45.85634" lon="4.7907">
        <ele>490.3</ele>
        <time>2019-05-24T16:31:05.231Z</time>
      </trkpt>
      <trkpt lat="45.85648" lon="4.79078">
        <ele>491.5</ele>
        <time>2019-05-24T16:31:05.538Z</time>
      </trkpt>
      <trkpt lat="45.85677" lon="4.79104">
        <ele>494.6</ele>
        <time>2019-05-24T16:31:06.218Z</time>
      </trkpt>
      <trkpt lat="45.85709" lon="4.79122">
        <ele>497.7</ele>
        <time>2019-05-24T16:31:06.910Z</time>
      </trkpt>
      <trkpt lat="45.85718" lon="4.79126">
        <ele>498.7</ele>
        <time>2019-05-24T16:31:07.100Z</time>
      </trkpt>
      <trkpt lat="45.85731" lon="4.79128">
        <ele>500.1</ele>
        <time>2019-05-24T16:31:07.372Z</time>
      </trkpt>
      <trkpt lat="45.85753" lon="4.79137">
        <ele>501.5</ele>
        <time>2019-05-24T16:31:07.826Z</time>
      </trkpt>
      <trkpt lat="45.85774" lon="4.79149">
        <ele>502.1</ele>
        <time>2019-05-24T16:31:08.277Z</time>
      </trkpt>
      <trkpt lat="45.85814" lon="4.79166">
        <ele>503.9</ele>
        <time>2019-05-24T16:31:09.101Z</time>
      </trkpt>
      <trkpt lat="45.85859" lon="4.7919">
        <ele>505.2</ele>
        <time>2019-05-24T16:31:10.067Z</time>
      </trkpt>
      <trkpt lat="45.85864" lon="4.79182">
        <ele>506.7</ele>
        <time>2019-05-24T16:31:10.216Z</time>
      </trkpt>
      <trkpt lat="45.85862" lon="4.79167">
        <ele>508.1</ele>
        <time>2019-05-24T16:31:10.429Z</time>
      </trkpt>
      <trkpt lat="45.85846" lon="4.79112">
        <ele>510.8</ele>
        <time>2019-05-24T16:31:11.263Z</time>
      </trkpt>
      <trkpt lat="45.8582" lon="4.79035">
        <ele>516.9</ele>
        <time>2019-05-24T16:31:12.456Z</time>
      </trkpt>
      <trkpt lat="45.85805" lon="4.78965">
        <ele>521.5</ele>
        <time>2019-05-24T16:31:13.477Z</time>
      </trkpt>
      <trkpt lat="45.85785" lon="4.78899">
        <ele>524.3</ele>
        <time>2019-05-24T16:31:14.484Z</time>
      </trkpt>
      <trkpt lat="45.85807" lon="4.7883">
        <ele>531.3</ele>
        <time>2019-05-24T16:31:15.544Z</time>
      </trkpt>
      <trkpt lat="45.85813" lon="4.7882">
        <ele>531.9</ele>
        <time>2019-05-24T16:31:15.721Z</time>
      </trkpt>
      <trkpt lat="45.85821" lon="4.78816">
        <ele>532.1</ele>
        <time>2019-05-24T16:31:15.885Z</time>
      </trkpt>
      <trkpt lat="45.85827" lon="4.78823">
        <ele>532.9</ele>
        <time>2019-05-24T16:31:16.032Z</time>
      </trkpt>
      <trkpt lat="45.85834" lon="4.78844">
        <ele>535.5</ele>
        <time>2019-05-24T16:31:16.371Z</time>
      </trkpt>
      <trkpt lat="45.85839" lon="4.78876">
        <ele>536.1</ele>
        <time>2019-05-24T16:31:16.827Z</time>
      </trkpt>
      <trkpt lat="45.85846" lon="4.78894">
        <ele>536.2</ele>
        <time>2019-05-24T16:31:17.104Z</time>
      </trkpt>
      <trkpt lat="45.85873" lon="4.78936">
        <ele>538.8</ele>
        <time>2019-05-24T16:31:17.913Z</time>
      </trkpt>
      <trkpt lat="45.85892" lon="4.78957">
        <ele>540.7</ele>
        <time>2019-05-24T16:31:18.403Z</time>
      </trkpt>
      <trkpt lat="45.85905" lon="4.78967">
        <ele>541</ele>
        <time>2019-05-24T16:31:18.682Z</time>
      </trkpt>
      <trkpt lat="45.85914" lon="4.78971">
        <ele>542.4</ele>
        <time>2019-05-24T16:31:18.872Z</time>
      </trkpt>
      <trkpt lat="45.85928" lon="4.78982">
        <ele>545.3</ele>
        <time>2019-05-24T16:31:19.194Z</time>
      </trkpt>
      <trkpt lat="45.85937" lon="4.78987">
        <ele>547.7</ele>
        <time>2019-05-24T16:31:19.393Z</time>
      </trkpt>
      <trkpt lat="45.85944" lon="4.78993">
        <ele>548.6</ele>
        <time>2019-05-24T16:31:19.556Z</time>
      </trkpt>
      <trkpt lat="45.85951" lon="4.79008">
        <ele>549.1</ele>
        <time>2019-05-24T16:31:19.810Z</time>
      </trkpt>
      <trkpt lat="45.85956" lon="4.79022">
        <ele>549.3</ele>
        <time>2019-05-24T16:31:20.019Z</time>
      </trkpt>
      <trkpt lat="45.85969" lon="4.79089">
        <ele>549.5</ele>
        <time>2019-05-24T16:31:20.998Z</time>
      </trkpt>
      <trkpt lat="45.85979" lon="4.7911">
        <ele>552.9</ele>
        <time>2019-05-24T16:31:21.356Z</time>
      </trkpt>
      <trkpt lat="45.85984" lon="4.79123">
        <ele>552.3</ele>
        <time>2019-05-24T16:31:21.556Z</time>
      </trkpt>
      <trkpt lat="45.8599" lon="4.7913">
        <ele>553.8</ele>
        <time>2019-05-24T16:31:21.716Z</time>
      </trkpt>
      <trkpt lat="45.86" lon="4.7915">
        <ele>556.1</ele>
        <time>2019-05-24T16:31:22.059Z</time>
      </trkpt>
      <trkpt lat="45.86012" lon="4.79166">
        <ele>556.5</ele>
        <time>2019-05-24T16:31:22.376Z</time>
      </trkpt>
      <trkpt lat="45.86032" lon="4.79201">
        <ele>556.4</ele>
        <time>2019-05-24T16:31:23.007Z</time>
      </trkpt>
      <trkpt lat="45.86049" lon="4.79208">
        <ele>557.3</ele>
        <time>2019-05-24T16:31:23.373Z</time>
      </trkpt>
      <trkpt lat="45.86082" lon="4.79204">
        <ele>557.3</ele>
        <time>2019-05-24T16:31:24.029Z</time>
      </trkpt>
      <trkpt lat="45.86098" lon="4.79227">
        <ele>554.7</ele>
        <time>2019-05-24T16:31:24.483Z</time>
      </trkpt>
      <trkpt lat="45.86143" lon="4.79302">
        <ele>548.8</ele>
        <time>2019-05-24T16:31:25.874Z</time>
      </trkpt>
      <trkpt lat="45.86162" lon="4.79316">
        <ele>546.5</ele>
        <time>2019-05-24T16:31:26.298Z</time>
      </trkpt>
      <trkpt lat="45.86174" lon="4.79323">
        <ele>545.5</ele>
        <time>2019-05-24T16:31:26.550Z</time>
      </trkpt>
      <trkpt lat="45.86186" lon="4.79323">
        <ele>545</ele>
        <time>2019-05-24T16:31:26.801Z</time>
      </trkpt>
      <trkpt lat="45.86205" lon="4.7932">
        <ele>544.2</ele>
        <time>2019-05-24T16:31:27.185Z</time>
      </trkpt>
      <trkpt lat="45.86233" lon="4.79356">
        <ele>539.7</ele>
        <time>2019-05-24T16:31:27.930Z</time>
      </trkpt>
      <trkpt lat="45.8625" lon="4.79371">
        <ele>536.6</ele>
        <time>2019-05-24T16:31:28.331Z</time>
      </trkpt>
      <trkpt lat="45.86258" lon="4.79375">
        <ele>535.5</ele>
        <time>2019-05-24T16:31:28.492Z</time>
      </trkpt>
      <trkpt lat="45.86294" lon="4.79404">
        <ele>529.5</ele>
        <time>2019-05-24T16:31:29.337Z</time>
      </trkpt>
      <trkpt lat="45.86311" lon="4.79424">
        <ele>525.7</ele>
        <time>2019-05-24T16:31:29.769Z</time>
      </trkpt>
      <trkpt lat="45.86318" lon="4.79435">
        <ele>523.9</ele>
        <time>2019-05-24T16:31:29.983Z</time>
      </trkpt>
      <trkpt lat="45.86353" lon="4.79504">
        <ele>514.5</ele>
        <time>2019-05-24T16:31:31.177Z</time>
      </trkpt>
      <trkpt lat="45.86371" lon="4.79534">
        <ele>510.9</ele>
        <time>2019-05-24T16:31:31.722Z</time>
      </trkpt>
      <trkpt lat="45.86389" lon="4.79561">
        <ele>507.2</ele>
        <time>2019-05-24T16:31:32.241Z</time>
      </trkpt>
      <trkpt lat="45.86389" lon="4.79576">
        <ele>505</ele>
        <time>2019-05-24T16:31:32.455Z</time>
      </trkpt>
      <trkpt lat="45.86384" lon="4.79593">
        <ele>502.5</ele>
        <time>2019-05-24T16:31:32.704Z</time>
      </trkpt>
      <trkpt lat="45.86379" lon="4.79605">
        <ele>500.4</ele>
        <time>2019-05-24T16:31:32.906Z</time>
      </trkpt>
      <trkpt lat="45.8638" lon="4.79622">
        <ele>497.5</ele>
        <time>2019-05-24T16:31:33.143Z</time>
      </trkpt>
      <trkpt lat="45.86377" lon="4.79631">
        <ele>495.9</ele>
        <time>2019-05-24T16:31:33.290Z</time>
      </trkpt>
      <trkpt lat="45.86378" lon="4.79638">
        <ele>494.8</ele>
        <time>2019-05-24T16:31:33.383Z</time>
      </trkpt>
      <trkpt lat="45.86402" lon="4.79647">
        <ele>493.3</ele>
        <time>2019-05-24T16:31:33.896Z</time>
      </trkpt>
      <trkpt lat="45.86449" lon="4.79657">
        <ele>491.8</ele>
        <time>2019-05-24T16:31:34.839Z</time>
      </trkpt>
      <trkpt lat="45.86465" lon="4.79658">
        <ele>491.8</ele>
        <time>2019-05-24T16:31:35.167Z</time>
      </trkpt>
      <trkpt lat="45.86515" lon="4.79668">
        <ele>491.2</ele>
        <time>2019-05-24T16:31:36.165Z</time>
      </trkpt>
      <trkpt lat="45.86519" lon="4.79668">
        <ele>491.5</ele>
        <time>2019-05-24T16:31:36.255Z</time>
      </trkpt>
      <trkpt lat="45.86537" lon="4.79648">
        <ele>493.8</ele>
        <time>2019-05-24T16:31:36.712Z</time>
      </trkpt>
      <trkpt lat="45.86554" lon="4.7962">
        <ele>495.4</ele>
        <time>2019-05-24T16:31:37.222Z</time>
      </trkpt>
      <trkpt lat="45.86559" lon="4.79608">
        <ele>495.1</ele>
        <time>2019-05-24T16:31:37.421Z</time>
      </trkpt>
      <trkpt lat="45.86566" lon="4.79599">
        <ele>493</ele>
        <time>2019-05-24T16:31:37.611Z</time>
      </trkpt>
      <trkpt lat="45.86569" lon="4.79575">
        <ele>489.9</ele>
        <time>2019-05-24T16:31:37.950Z</time>
      </trkpt>
      <trkpt lat="45.86553" lon="4.79545">
        <ele>491.6</ele>
        <time>2019-05-24T16:31:38.480Z</time>
      </trkpt>
      <trkpt lat="45.86538" lon="4.79525">
        <ele>492.8</ele>
        <time>2019-05-24T16:31:38.885Z</time>
      </trkpt>
      <trkpt lat="45.86505" lon="4.7949">
        <ele>496.9</ele>
        <time>2019-05-24T16:31:39.712Z</time>
      </trkpt>
      <trkpt lat="45.86487" lon="4.79477">
        <ele>500</ele>
        <time>2019-05-24T16:31:40.113Z</time>
      </trkpt>
      <trkpt lat="45.86475" lon="4.79465">
        <ele>500.7</ele>
        <time>2019-05-24T16:31:40.405Z</time>
      </trkpt>
      <trkpt lat="45.86475" lon="4.79464">
        <ele>500.7</ele>
        <time>2019-05-24T16:31:40.410Z</time>
      </trkpt>
      <trkpt lat="45.86475" lon="4.79464">
        <ele>500.7</ele>
        <time>2019-05-24T16:31:40.410Z</time>
      </trkpt>
      <trkpt lat="45.86449" lon="4.79445">
        <ele>505.9</ele>
        <time>2019-05-24T16:31:40.990Z</time>
      </trkpt>
      <trkpt lat="45.86455" lon="4.79447">
        <ele>503.9</ele>
        <time>2019-05-24T16:31:41.105Z</time>
      </trkpt>
      <trkpt lat="45.86472" lon="4.79463">
        <ele>501.4</ele>
        <time>2019-05-24T16:31:41.502Z</time>
      </trkpt>
      <trkpt lat="45.86501" lon="4.79493">
        <ele>499.2</ele>
        <time>2019-05-24T16:31:42.216Z</time>
      </trkpt>
      <trkpt lat="45.86504" lon="4.79491">
        <ele>497.5</ele>
        <time>2019-05-24T16:31:42.283Z</time>
      </trkpt>
      <trkpt lat="45.86504" lon="4.79486">
        <ele>495.8</ele>
        <time>2019-05-24T16:31:42.361Z</time>
      </trkpt>
      <trkpt lat="45.865" lon="4.79469">
        <ele>493.3</ele>
        <time>2019-05-24T16:31:42.608Z</time>
      </trkpt>
      <trkpt lat="45.86493" lon="4.79456">
        <ele>490.9</ele>
        <time>2019-05-24T16:31:42.831Z</time>
      </trkpt>
      <trkpt lat="45.86486" lon="4.79433">
        <ele>485.8</ele>
        <time>2019-05-24T16:31:43.189Z</time>
      </trkpt>
      <trkpt lat="45.86473" lon="4.79404">
        <ele>482.3</ele>
        <time>2019-05-24T16:31:43.668Z</time>
      </trkpt>
      <trkpt lat="45.86471" lon="4.79393">
        <ele>479.7</ele>
        <time>2019-05-24T16:31:43.835Z</time>
      </trkpt>
      <trkpt lat="45.86465" lon="4.79377">
        <ele>479.3</ele>
        <time>2019-05-24T16:31:44.090Z</time>
      </trkpt>
      <trkpt lat="45.86457" lon="4.79376">
        <ele>481.7</ele>
        <time>2019-05-24T16:31:44.248Z</time>
      </trkpt>
      <trkpt lat="45.86447" lon="4.79368">
        <ele>483.1</ele>
        <time>2019-05-24T16:31:44.464Z</time>
      </trkpt>
      <trkpt lat="45.86442" lon="4.7936">
        <ele>482.9</ele>
        <time>2019-05-24T16:31:44.632Z</time>
      </trkpt>
      <trkpt lat="45.8644" lon="4.79352">
        <ele>482.5</ele>
        <time>2019-05-24T16:31:44.734Z</time>
      </trkpt>
      <trkpt lat="45.86436" lon="4.79343">
        <ele>482.7</ele>
        <time>2019-05-24T16:31:44.895Z</time>
      </trkpt>
      <trkpt lat="45.86426" lon="4.79331">
        <ele>483.5</ele>
        <time>2019-05-24T16:31:45.151Z</time>
      </trkpt>
      <trkpt lat="45.86416" lon="4.79314">
        <ele>484.1</ele>
        <time>2019-05-24T16:31:45.459Z</time>
      </trkpt>
      <trkpt lat="45.86402" lon="4.793">
        <ele>486.3</ele>
        <time>2019-05-24T16:31:45.812Z</time>
      </trkpt>
      <trkpt lat="45.864" lon="4.79296">
        <ele>486.4</ele>
        <time>2019-05-24T16:31:45.877Z</time>
      </trkpt>
      <trkpt lat="45.86383" lon="4.79286">
        <ele>489.5</ele>
        <time>2019-05-24T16:31:46.245Z</time>
      </trkpt>
      <trkpt lat="45.86375" lon="4.79277">
        <ele>490.5</ele>
        <time>2019-05-24T16:31:46.450Z</time>
      </trkpt>
      <trkpt lat="45.8636" lon="4.79254">
        <ele>491.6</ele>
        <time>2019-05-24T16:31:46.883Z</time>
      </trkpt>
      <trkpt lat="45.86351" lon="4.79246">
        <ele>493</ele>
        <time>2019-05-24T16:31:47.094Z</time>
      </trkpt>
      <trkpt lat="45.86339" lon="4.79229">
        <ele>494.8</ele>
        <time>2019-05-24T16:31:47.437Z</time>
      </trkpt>
      <trkpt lat="45.86323" lon="4.79212">
        <ele>496.6</ele>
        <time>2019-05-24T16:31:47.833Z</time>
      </trkpt>
      <trkpt lat="45.86313" lon="4.79197">
        <ele>497.6</ele>
        <time>2019-05-24T16:31:48.127Z</time>
      </trkpt>
      <trkpt lat="45.86288" lon="4.79173">
        <ele>498.5</ele>
        <time>2019-05-24T16:31:48.718Z</time>
      </trkpt>
      <trkpt lat="45.86268" lon="4.79148">
        <ele>499.1</ele>
        <time>2019-05-24T16:31:49.261Z</time>
      </trkpt>
      <trkpt lat="45.86255" lon="4.79128">
        <ele>500.2</ele>
        <time>2019-05-24T16:31:49.636Z</time>
      </trkpt>
      <trkpt lat="45.86256" lon="4.79122">
        <ele>499.4</ele>
        <time>2019-05-24T16:31:49.719Z</time>
      </trkpt>
      <trkpt lat="45.8623" lon="4.7909">
        <ele>503.4</ele>
        <time>2019-05-24T16:31:50.406Z</time>
      </trkpt>
      <trkpt lat="45.86215" lon="4.79079">
        <ele>506.1</ele>
        <time>2019-05-24T16:31:50.740Z</time>
      </trkpt>
      <trkpt lat="45.86201" lon="4.79065">
        <ele>509.2</ele>
        <time>2019-05-24T16:31:51.077Z</time>
      </trkpt>
      <trkpt lat="45.86186" lon="4.79039">
        <ele>510.5</ele>
        <time>2019-05-24T16:31:51.554Z</time>
      </trkpt>
      <trkpt lat="45.86175" lon="4.79027">
        <ele>511.8</ele>
        <time>2019-05-24T16:31:51.830Z</time>
      </trkpt>
      <trkpt lat="45.86164" lon="4.79007">
        <ele>511</ele>
        <time>2019-05-24T16:31:52.178Z</time>
      </trkpt>
      <trkpt lat="45.86139" lon="4.78975">
        <ele>513.3</ele>
        <time>2019-05-24T16:31:52.855Z</time>
      </trkpt>
      <trkpt lat="45.86132" lon="4.78958">
        <ele>513</ele>
        <time>2019-05-24T16:31:53.133Z</time>
      </trkpt>
      <trkpt lat="45.86124" lon="4.78944">
        <ele>512.8</ele>
        <time>2019-05-24T16:31:53.379Z</time>
      </trkpt>
      <trkpt lat="45.86096" lon="4.78908">
        <ele>512.7</ele>
        <time>2019-05-24T16:31:54.135Z</time>
      </trkpt>
      <trkpt lat="45.86082" lon="4.78897">
        <ele>513.8</ele>
        <time>2019-05-24T16:31:54.466Z</time>
      </trkpt>
      <trkpt lat="45.8606" lon="4.78888">
        <ele>516.7</ele>
        <time>2019-05-24T16:31:54.909Z</time>
      </trkpt>
      <trkpt lat="45.86054" lon="4.78887">
        <ele>517.7</ele>
        <time>2019-05-24T16:31:55.043Z</time>
      </trkpt>
      <trkpt lat="45.86038" lon="4.78877">
        <ele>517.8</ele>
        <time>2019-05-24T16:31:55.382Z</time>
      </trkpt>
      <trkpt lat="45.86022" lon="4.78863">
        <ele>517.3</ele>
        <time>2019-05-24T16:31:55.772Z</time>
      </trkpt>
      <trkpt lat="45.8601" lon="4.78855">
        <ele>517.4</ele>
        <time>2019-05-24T16:31:56.031Z</time>
      </trkpt>
      <trkpt lat="45.85993" lon="4.78847">
        <ele>518.3</ele>
        <time>2019-05-24T16:31:56.392Z</time>
      </trkpt>
      <trkpt lat="45.85971" lon="4.7884">
        <ele>520.9</ele>
        <time>2019-05-24T16:31:56.840Z</time>
      </trkpt>
      <trkpt lat="45.85955" lon="4.78832">
        <ele>522.3</ele>
        <time>2019-05-24T16:31:57.175Z</time>
      </trkpt>
      <trkpt lat="45.85944" lon="4.78829">
        <ele>523.7</ele>
        <time>2019-05-24T16:31:57.394Z</time>
      </trkpt>
      <trkpt lat="45.85939" lon="4.7883">
        <ele>525</ele>
        <time>2019-05-24T16:31:57.513Z</time>
      </trkpt>
      <trkpt lat="45.85933" lon="4.78832">
        <ele>526.7</ele>
        <time>2019-05-24T16:31:57.622Z</time>
      </trkpt>
      <trkpt lat="45.85923" lon="4.7883">
        <ele>527.8</ele>
        <time>2019-05-24T16:31:57.834Z</time>
      </trkpt>
      <trkpt lat="45.85906" lon="4.7883">
        <ele>531.3</ele>
        <time>2019-05-24T16:31:58.168Z</time>
      </trkpt>
      <trkpt lat="45.85893" lon="4.78827">
        <ele>532.9</ele>
        <time>2019-05-24T16:31:58.440Z</time>
      </trkpt>
      <trkpt lat="45.85876" lon="4.78825">
        <ele>534.2</ele>
        <time>2019-05-24T16:31:58.777Z</time>
      </trkpt>
      <trkpt lat="45.85854" lon="4.78829">
        <ele>535.9</ele>
        <time>2019-05-24T16:31:59.229Z</time>
      </trkpt>
      <trkpt lat="45.85845" lon="4.78826">
        <ele>534.8</ele>
        <time>2019-05-24T16:31:59.400Z</time>
      </trkpt>
      <trkpt lat="45.85839" lon="4.78817">
        <ele>532.6</ele>
        <time>2019-05-24T16:31:59.584Z</time>
      </trkpt>
      <trkpt lat="45.85817" lon="4.78798">
        <ele>530.8</ele>
        <time>2019-05-24T16:32:00.104Z</time>
      </trkpt>
      <trkpt lat="45.85817" lon="4.78803">
        <ele>531.3</ele>
        <time>2019-05-24T16:32:00.175Z</time>
      </trkpt>
      <trkpt lat="45.85815" lon="4.78802">
        <ele>531.3</ele>
        <time>2019-05-24T16:32:00.216Z</time>
      </trkpt>
      <trkpt lat="45.85813" lon="4.78806">
        <ele>531.7</ele>
        <time>2019-05-24T16:32:00.281Z</time>
      </trkpt>
      <trkpt lat="45.85815" lon="4.78803">
        <ele>531.4</ele>
        <time>2019-05-24T16:32:00.335Z</time>
      </trkpt>
      <trkpt lat="45.85814" lon="4.78804">
        <ele>531.6</ele>
        <time>2019-05-24T16:32:00.364Z</time>
      </trkpt>
      <trkpt lat="45.85816" lon="4.78803">
        <ele>531.4</ele>
        <time>2019-05-24T16:32:00.402Z</time>
      </trkpt>
      <trkpt lat="45.85817" lon="4.78805">
        <ele>531.6</ele>
        <time>2019-05-24T16:32:00.437Z</time>
      </trkpt>
      <trkpt lat="45.85816" lon="4.78803">
        <ele>531.4</ele>
        <time>2019-05-24T16:32:00.475Z</time>
      </trkpt>
      <trkpt lat="45.85818" lon="4.78805">
        <ele>531.5</ele>
        <time>2019-05-24T16:32:00.522Z</time>
      </trkpt>
      <trkpt lat="45.85817" lon="4.78802">
        <ele>531.2</ele>
        <time>2019-05-24T16:32:00.569Z</time>
      </trkpt>
      <trkpt lat="45.85815" lon="4.78804">
        <ele>531.6</ele>
        <time>2019-05-24T16:32:00.614Z</time>
      </trkpt>
      <trkpt lat="45.85816" lon="4.78803">
        <ele>531.4</ele>
        <time>2019-05-24T16:32:00.640Z</time>
      </trkpt>
      <trkpt lat="45.85817" lon="4.78805">
        <ele>531.5</ele>
        <time>2019-05-24T16:32:00.673Z</time>
      </trkpt>
      <trkpt lat="45.85815" lon="4.78804">
        <ele>531.5</ele>
        <time>2019-05-24T16:32:00.726Z</time>
      </trkpt>
      <trkpt lat="45.85813" lon="4.78798">
        <ele>531.2</ele>
        <time>2019-05-24T16:32:00.807Z</time>
      </trkpt>
      <trkpt lat="45.85817" lon="4.78802">
        <ele>531.2</ele>
        <time>2019-05-24T16:32:00.895Z</time>
      </trkpt>
      <trkpt lat="45.85822" lon="4.78801">
        <ele>530.7</ele>
        <time>2019-05-24T16:32:01.007Z</time>
      </trkpt>
      <trkpt lat="45.85819" lon="4.788">
        <ele>530.9</ele>
        <time>2019-05-24T16:32:01.085Z</time>
      </trkpt>
      <trkpt lat="45.85816" lon="4.78803">
        <ele>531.4</ele>
        <time>2019-05-24T16:32:01.151Z</time>
      </trkpt>
      <trkpt lat="45.85819" lon="4.78801">
        <ele>531</ele>
        <time>2019-05-24T16:32:01.212Z</time>
      </trkpt>
      <trkpt lat="45.85821" lon="4.78802">
        <ele>531</ele>
        <time>2019-05-24T16:32:01.251Z</time>
      </trkpt>
      <trkpt lat="45.8582" lon="4.78808">
        <ele>531.6</ele>
        <time>2019-05-24T16:32:01.324Z</time>
      </trkpt>
      <trkpt lat="45.85818" lon="4.78809">
        <ele>531.7</ele>
        <time>2019-05-24T16:32:01.373Z</time>
      </trkpt>
      <trkpt lat="45.85817" lon="4.78808">
        <ele>531.7</ele>
        <time>2019-05-24T16:32:01.394Z</time>
      </trkpt>
      <trkpt lat="45.85818" lon="4.78809">
        <ele>531.7</ele>
        <time>2019-05-24T16:32:01.422Z</time>
      </trkpt>
      <trkpt lat="45.85817" lon="4.7881">
        <ele>531.8</ele>
        <time>2019-05-24T16:32:01.450Z</time>
      </trkpt>
      <trkpt lat="45.85816" lon="4.78801">
        <ele>531.2</ele>
        <time>2019-05-24T16:32:01.573Z</time>
      </trkpt>
      <trkpt lat="45.85817" lon="4.78801">
        <ele>531.1</ele>
        <time>2019-05-24T16:32:01.601Z</time>
      </trkpt>
      <trkpt lat="45.85818" lon="4.78803">
        <ele>531.3</ele>
        <time>2019-05-24T16:32:01.641Z</time>
      </trkpt>
      <trkpt lat="45.85817" lon="4.788">
        <ele>531</ele>
        <time>2019-05-24T16:32:01.697Z</time>
      </trkpt>
      <trkpt lat="45.85819" lon="4.78793">
        <ele>529.9</ele>
        <time>2019-05-24T16:32:01.805Z</time>
      </trkpt>
      <trkpt lat="45.85816" lon="4.78768">
        <ele>527.7</ele>
        <time>2019-05-24T16:32:02.157Z</time>
      </trkpt>
      <trkpt lat="45.85827" lon="4.78697">
        <ele>514.7</ele>
        <time>2019-05-24T16:32:03.174Z</time>
      </trkpt>
      <trkpt lat="45.85826" lon="4.7867">
        <ele>511.8</ele>
        <time>2019-05-24T16:32:03.556Z</time>
      </trkpt>
      <trkpt lat="45.85819" lon="4.78628">
        <ele>508.1</ele>
        <time>2019-05-24T16:32:04.150Z</time>
      </trkpt>
      <trkpt lat="45.85815" lon="4.78622">
        <ele>508.1</ele>
        <time>2019-05-24T16:32:04.263Z</time>
      </trkpt>
      <trkpt lat="45.85804" lon="4.78609">
        <ele>508.1</ele>
        <time>2019-05-24T16:32:04.551Z</time>
      </trkpt>
      <trkpt lat="45.85796" lon="4.78594">
        <ele>506.6</ele>
        <time>2019-05-24T16:32:04.817Z</time>
      </trkpt>
      <trkpt lat="45.85782" lon="4.78575">
        <ele>504.7</ele>
        <time>2019-05-24T16:32:05.210Z</time>
      </trkpt>
      <trkpt lat="45.85747" lon="4.78539">
        <ele>503.6</ele>
        <time>2019-05-24T16:32:06.073Z</time>
      </trkpt>
      <trkpt lat="45.85732" lon="4.7852">
        <ele>501.6</ele>
        <time>2019-05-24T16:32:06.470Z</time>
      </trkpt>
      <trkpt lat="45.85724" lon="4.78505">
        <ele>499.6</ele>
        <time>2019-05-24T16:32:06.729Z</time>
      </trkpt>
      <trkpt lat="45.85716" lon="4.78494">
        <ele>499.2</ele>
        <time>2019-05-24T16:32:06.957Z</time>
      </trkpt>
      <trkpt lat="45.85705" lon="4.78468">
        <ele>496.3</ele>
        <time>2019-05-24T16:32:07.380Z</time>
      </trkpt>
      <trkpt lat="45.85693" lon="4.78406">
        <ele>491.9</ele>
        <time>2019-05-24T16:32:08.272Z</time>
      </trkpt>
      <trkpt lat="45.85691" lon="4.78385">
        <ele>491.3</ele>
        <time>2019-05-24T16:32:08.573Z</time>
      </trkpt>
      <trkpt lat="45.85689" lon="4.7833">
        <ele>491.6</ele>
        <time>2019-05-24T16:32:09.336Z</time>
      </trkpt>
      <trkpt lat="45.85691" lon="4.78323">
        <ele>491.9</ele>
        <time>2019-05-24T16:32:09.457Z</time>
      </trkpt>
      <trkpt lat="45.85687" lon="4.7831">
        <ele>492.8</ele>
        <time>2019-05-24T16:32:09.649Z</time>
      </trkpt>
      <trkpt lat="45.85688" lon="4.78285">
        <ele>491.3</ele>
        <time>2019-05-24T16:32:09.995Z</time>
      </trkpt>
      <trkpt lat="45.85689" lon="4.78265">
        <ele>487.6</ele>
        <time>2019-05-24T16:32:10.285Z</time>
      </trkpt>
      <trkpt lat="45.85694" lon="4.78258">
        <ele>484.5</ele>
        <time>2019-05-24T16:32:10.416Z</time>
      </trkpt>
      <trkpt lat="45.85694" lon="4.78251">
        <ele>482.6</ele>
        <time>2019-05-24T16:32:10.512Z</time>
      </trkpt>
      <trkpt lat="45.85701" lon="4.7825">
        <ele>480.6</ele>
        <time>2019-05-24T16:32:10.664Z</time>
      </trkpt>
      <trkpt lat="45.85717" lon="4.78244">
        <ele>475.3</ele>
        <time>2019-05-24T16:32:10.997Z</time>
      </trkpt>
      <trkpt lat="45.85724" lon="4.78243">
        <ele>473.5</ele>
        <time>2019-05-24T16:32:11.129Z</time>
      </trkpt>
      <trkpt lat="45.85735" lon="4.78238">
        <ele>470.7</ele>
        <time>2019-05-24T16:32:11.359Z</time>
      </trkpt>
      <trkpt lat="45.85748" lon="4.78235">
        <ele>468.4</ele>
        <time>2019-05-24T16:32:11.626Z</time>
      </trkpt>
      <trkpt lat="45.85756" lon="4.78227">
        <ele>465.7</ele>
        <time>2019-05-24T16:32:11.829Z</time>
      </trkpt>
      <trkpt lat="45.85769" lon="4.78225">
        <ele>464.8</ele>
        <time>2019-05-24T16:32:12.090Z</time>
      </trkpt>
      <trkpt lat="45.85776" lon="4.78217">
        <ele>461.9</ele>
        <time>2019-05-24T16:32:12.258Z</time>
      </trkpt>
      <trkpt lat="45.85786" lon="4.78214">
        <ele>461.1</ele>
        <time>2019-05-24T16:32:12.469Z</time>
      </trkpt>
      <trkpt lat="45.85818" lon="4.78221">
        <ele>465.5</ele>
        <time>2019-05-24T16:32:13.122Z</time>
      </trkpt>
      <trkpt lat="45.85845" lon="4.78224">
        <ele>467.8</ele>
        <time>2019-05-24T16:32:13.663Z</time>
      </trkpt>
      <trkpt lat="45.85885" lon="4.78226">
        <ele>470.5</ele>
        <time>2019-05-24T16:32:14.458Z</time>
      </trkpt>
      <trkpt lat="45.85945" lon="4.78223">
        <ele>474.3</ele>
        <time>2019-05-24T16:32:15.669Z</time>
      </trkpt>
      <trkpt lat="45.85974" lon="4.78226">
        <ele>476.1</ele>
        <time>2019-05-24T16:32:16.247Z</time>
      </trkpt>
      <trkpt lat="45.85997" lon="4.78232">
        <ele>478.6</ele>
        <time>2019-05-24T16:32:16.716Z</time>
      </trkpt>
      <trkpt lat="45.86015" lon="4.78233">
        <ele>478.7</ele>
        <time>2019-05-24T16:32:17.070Z</time>
      </trkpt>
      <trkpt lat="45.86031" lon="4.7824">
        <ele>479.5</ele>
        <time>2019-05-24T16:32:17.402Z</time>
      </trkpt>
      <trkpt lat="45.86053" lon="4.7826">
        <ele>482</ele>
        <time>2019-05-24T16:32:17.925Z</time>
      </trkpt>
      <trkpt lat="45.86074" lon="4.78274">
        <ele>482</ele>
        <time>2019-05-24T16:32:18.388Z</time>
      </trkpt>
      <trkpt lat="45.86101" lon="4.78289">
        <ele>479.3</ele>
        <time>2019-05-24T16:32:18.977Z</time>
      </trkpt>
      <trkpt lat="45.86113" lon="4.783">
        <ele>477.5</ele>
        <time>2019-05-24T16:32:19.259Z</time>
      </trkpt>
      <trkpt lat="45.86117" lon="4.78311">
        <ele>476.9</ele>
        <time>2019-05-24T16:32:19.440Z</time>
      </trkpt>
      <trkpt lat="45.86119" lon="4.78329">
        <ele>477.3</ele>
        <time>2019-05-24T16:32:19.684Z</time>
      </trkpt>
      <trkpt lat="45.86118" lon="4.78376">
        <ele>476.4</ele>
        <time>2019-05-24T16:32:20.348Z</time>
      </trkpt>
      <trkpt lat="45.86122" lon="4.78448">
        <ele>471.3</ele>
        <time>2019-05-24T16:32:21.359Z</time>
      </trkpt>
      <trkpt lat="45.86118" lon="4.78466">
        <ele>470.7</ele>
        <time>2019-05-24T16:32:21.617Z</time>
      </trkpt>
      <trkpt lat="45.86113" lon="4.78473">
        <ele>470.5</ele>
        <time>2019-05-24T16:32:21.764Z</time>
      </trkpt>
      <trkpt lat="45.86099" lon="4.78487">
        <ele>467.9</ele>
        <time>2019-05-24T16:32:22.098Z</time>
      </trkpt>
      <trkpt lat="45.8609" lon="4.785">
        <ele>465</ele>
        <time>2019-05-24T16:32:22.356Z</time>
      </trkpt>
      <trkpt lat="45.8609" lon="4.78501">
        <ele>464.7</ele>
        <time>2019-05-24T16:32:22.380Z</time>
      </trkpt>
      <trkpt lat="45.86098" lon="4.78506">
        <ele>463.6</ele>
        <time>2019-05-24T16:32:22.537Z</time>
      </trkpt>
      <trkpt lat="45.86125" lon="4.78517">
        <ele>459.3</ele>
        <time>2019-05-24T16:32:23.101Z</time>
      </trkpt>
      <trkpt lat="45.86144" lon="4.78517">
        <ele>456.5</ele>
        <time>2019-05-24T16:32:23.486Z</time>
      </trkpt>
      <trkpt lat="45.86151" lon="4.78507">
        <ele>455.2</ele>
        <time>2019-05-24T16:32:23.676Z</time>
      </trkpt>
      <trkpt lat="45.86159" lon="4.78489">
        <ele>453</ele>
        <time>2019-05-24T16:32:23.986Z</time>
      </trkpt>
      <trkpt lat="45.86168" lon="4.7845">
        <ele>451.3</ele>
        <time>2019-05-24T16:32:24.550Z</time>
      </trkpt>
      <trkpt lat="45.8617" lon="4.78448">
        <ele>450.6</ele>
        <time>2019-05-24T16:32:24.612Z</time>
      </trkpt>
      <trkpt lat="45.86175" lon="4.78454">
        <ele>448.6</ele>
        <time>2019-05-24T16:32:24.735Z</time>
      </trkpt>
      <trkpt lat="45.86185" lon="4.7849">
        <ele>440.1</ele>
        <time>2019-05-24T16:32:25.277Z</time>
      </trkpt>
      <trkpt lat="45.86184" lon="4.78503">
        <ele>438.6</ele>
        <time>2019-05-24T16:32:25.453Z</time>
      </trkpt>
      <trkpt lat="45.86186" lon="4.78513">
        <ele>436.2</ele>
        <time>2019-05-24T16:32:25.607Z</time>
      </trkpt>
      <trkpt lat="45.86194" lon="4.7853">
        <ele>431.6</ele>
        <time>2019-05-24T16:32:25.887Z</time>
      </trkpt>
      <trkpt lat="45.86219" lon="4.78568">
        <ele>429</ele>
        <time>2019-05-24T16:32:26.614Z</time>
      </trkpt>
      <trkpt lat="45.86226" lon="4.78576">
        <ele>429.2</ele>
        <time>2019-05-24T16:32:26.797Z</time>
      </trkpt>
      <trkpt lat="45.86249" lon="4.78591">
        <ele>429.1</ele>
        <time>2019-05-24T16:32:27.311Z</time>
      </trkpt>
      <trkpt lat="45.86276" lon="4.78598">
        <ele>428.8</ele>
        <time>2019-05-24T16:32:27.861Z</time>
      </trkpt>
      <trkpt lat="45.86299" lon="4.7861">
        <ele>430.4</ele>
        <time>2019-05-24T16:32:28.343Z</time>
      </trkpt>
      <trkpt lat="45.86327" lon="4.78631">
        <ele>432.6</ele>
        <time>2019-05-24T16:32:28.974Z</time>
      </trkpt>
      <trkpt lat="45.86345" lon="4.7864">
        <ele>434</ele>
        <time>2019-05-24T16:32:29.353Z</time>
      </trkpt>
      <trkpt lat="45.86356" lon="4.78642">
        <ele>434</ele>
        <time>2019-05-24T16:32:29.591Z</time>
      </trkpt>
      <trkpt lat="45.86418" lon="4.78642">
        <ele>430.4</ele>
        <time>2019-05-24T16:32:30.824Z</time>
      </trkpt>
      <trkpt lat="45.86435" lon="4.78645">
        <ele>429.5</ele>
        <time>2019-05-24T16:32:31.178Z</time>
      </trkpt>
      <trkpt lat="45.86473" lon="4.78647">
        <ele>426.1</ele>
        <time>2019-05-24T16:32:31.928Z</time>
      </trkpt>
      <trkpt lat="45.8648" lon="4.7865">
        <ele>425.3</ele>
        <time>2019-05-24T16:32:32.070Z</time>
      </trkpt>
      <trkpt lat="45.86493" lon="4.78661">
        <ele>424.4</ele>
        <time>2019-05-24T16:32:32.380Z</time>
      </trkpt>
      <trkpt lat="45.86507" lon="4.78675">
        <ele>422.2</ele>
        <time>2019-05-24T16:32:32.725Z</time>
      </trkpt>
      <trkpt lat="45.86539" lon="4.7872">
        <ele>414.6</ele>
        <time>2019-05-24T16:32:33.615Z</time>
      </trkpt>
      <trkpt lat="45.8656" lon="4.78764">
        <ele>411</ele>
        <time>2019-05-24T16:32:34.367Z</time>
      </trkpt>
      <trkpt lat="45.86588" lon="4.78797">
        <ele>408.7</ele>
        <time>2019-05-24T16:32:35.086Z</time>
      </trkpt>
      <trkpt lat="45.86637" lon="4.78827">
        <ele>409.8</ele>
        <time>2019-05-24T16:32:36.148Z</time>
      </trkpt>
      <trkpt lat="45.86684" lon="4.78843">
        <ele>411.4</ele>
        <time>2019-05-24T16:32:37.124Z</time>
      </trkpt>
      <trkpt lat="45.867" lon="4.78846">
        <ele>411</ele>
        <time>2019-05-24T16:32:37.451Z</time>
      </trkpt>
      <trkpt lat="45.86733" lon="4.78862">
        <ele>411.2</ele>
        <time>2019-05-24T16:32:38.145Z</time>
      </trkpt>
      <trkpt lat="45.86764" lon="4.78921">
        <ele>411.2</ele>
        <time>2019-05-24T16:32:39.170Z</time>
      </trkpt>
      <trkpt lat="45.86747" lon="4.78958">
        <ele>415.8</ele>
        <time>2019-05-24T16:32:39.788Z</time>
      </trkpt>
      <trkpt lat="45.86742" lon="4.78976">
        <ele>417.4</ele>
        <time>2019-05-24T16:32:40.059Z</time>
      </trkpt>
      <trkpt lat="45.86734" lon="4.79031">
        <ele>421.1</ele>
        <time>2019-05-24T16:32:40.847Z</time>
      </trkpt>
      <trkpt lat="45.86731" lon="4.79038">
        <ele>421.8</ele>
        <time>2019-05-24T16:32:40.959Z</time>
      </trkpt>
      <trkpt lat="45.86718" lon="4.79058">
        <ele>424.7</ele>
        <time>2019-05-24T16:32:41.341Z</time>
      </trkpt>
      <trkpt lat="45.86689" lon="4.79106">
        <ele>427.1</ele>
        <time>2019-05-24T16:32:42.218Z</time>
      </trkpt>
      <trkpt lat="45.86684" lon="4.79118">
        <ele>427.1</ele>
        <time>2019-05-24T16:32:42.417Z</time>
      </trkpt>
      <trkpt lat="45.86662" lon="4.79186">
        <ele>428.6</ele>
        <time>2019-05-24T16:32:43.472Z</time>
      </trkpt>
      <trkpt lat="45.86655" lon="4.79226">
        <ele>429.5</ele>
        <time>2019-05-24T16:32:44.040Z</time>
      </trkpt>
      <trkpt lat="45.8665" lon="4.79284">
        <ele>431.2</ele>
        <time>2019-05-24T16:32:44.857Z</time>
      </trkpt>
      <trkpt lat="45.86651" lon="4.79367">
        <ele>434.7</ele>
        <time>2019-05-24T16:32:46.014Z</time>
      </trkpt>
      <trkpt lat="45.8665" lon="4.79398">
        <ele>437.4</ele>
        <time>2019-05-24T16:32:46.448Z</time>
      </trkpt>
      <trkpt lat="45.86651" lon="4.79403">
        <ele>437.5</ele>
        <time>2019-05-24T16:32:46.529Z</time>
      </trkpt>
      <trkpt lat="45.86649" lon="4.7947">
        <ele>442.1</ele>
        <time>2019-05-24T16:32:47.456Z</time>
      </trkpt>
      <trkpt lat="45.86648" lon="4.79492">
        <ele>443.1</ele>
        <time>2019-05-24T16:32:47.770Z</time>
      </trkpt>
      <trkpt lat="45.86649" lon="4.79515">
        <ele>443</ele>
        <time>2019-05-24T16:32:48.096Z</time>
      </trkpt>
      <trkpt lat="45.86645" lon="4.79534">
        <ele>444.7</ele>
        <time>2019-05-24T16:32:48.376Z</time>
      </trkpt>
      <trkpt lat="45.86645" lon="4.79548">
        <ele>445</ele>
        <time>2019-05-24T16:32:48.566Z</time>
      </trkpt>
      <trkpt lat="45.86646" lon="4.796">
        <ele>445.9</ele>
        <time>2019-05-24T16:32:49.294Z</time>
      </trkpt>
      <trkpt lat="45.86651" lon="4.79635">
        <ele>446.7</ele>
        <time>2019-05-24T16:32:49.784Z</time>
      </trkpt>
      <trkpt lat="45.8667" lon="4.79711">
        <ele>442.4</ele>
        <time>2019-05-24T16:32:50.912Z</time>
      </trkpt>
      <trkpt lat="45.86665" lon="4.79737">
        <ele>441.9</ele>
        <time>2019-05-24T16:32:51.291Z</time>
      </trkpt>
      <trkpt lat="45.86636" lon="4.79802">
        <ele>446</ele>
        <time>2019-05-24T16:32:52.370Z</time>
      </trkpt>
      <trkpt lat="45.8663" lon="4.79819">
        <ele>446.2</ele>
        <time>2019-05-24T16:32:52.636Z</time>
      </trkpt>
      <trkpt lat="45.86614" lon="4.79861">
        <ele>449.1</ele>
        <time>2019-05-24T16:32:53.299Z</time>
      </trkpt>
      <trkpt lat="45.866" lon="4.7988">
        <ele>451</ele>
        <time>2019-05-24T16:32:53.688Z</time>
      </trkpt>
      <trkpt lat="45.86582" lon="4.79896">
        <ele>451.8</ele>
        <time>2019-05-24T16:32:54.110Z</time>
      </trkpt>
      <trkpt lat="45.86581" lon="4.79909">
        <ele>451.3</ele>
        <time>2019-05-24T16:32:54.292Z</time>
      </trkpt>
      <trkpt lat="45.86585" lon="4.79915">
        <ele>451</ele>
        <time>2019-05-24T16:32:54.417Z</time>
      </trkpt>
      <trkpt lat="45.86639" lon="4.79947">
        <ele>447.8</ele>
        <time>2019-05-24T16:32:55.594Z</time>
      </trkpt>
      <trkpt lat="45.86667" lon="4.79971">
        <ele>446.8</ele>
        <time>2019-05-24T16:32:56.230Z</time>
      </trkpt>
      <trkpt lat="45.86692" lon="4.80009">
        <ele>447.9</ele>
        <time>2019-05-24T16:32:56.963Z</time>
      </trkpt>
      <trkpt lat="45.86708" lon="4.80021">
        <ele>448.2</ele>
        <time>2019-05-24T16:32:57.331Z</time>
      </trkpt>
      <trkpt lat="45.86713" lon="4.80028">
        <ele>449.3</ele>
        <time>2019-05-24T16:32:57.463Z</time>
      </trkpt>
      <trkpt lat="45.86717" lon="4.80042">
        <ele>451.2</ele>
        <time>2019-05-24T16:32:57.678Z</time>
      </trkpt>
      <trkpt lat="45.86717" lon="4.80055">
        <ele>452.5</ele>
        <time>2019-05-24T16:32:57.857Z</time>
      </trkpt>
      <trkpt lat="45.86727" lon="4.80107">
        <ele>457.1</ele>
        <time>2019-05-24T16:32:58.613Z</time>
      </trkpt>
      <trkpt lat="45.86735" lon="4.80125">
        <ele>458.9</ele>
        <time>2019-05-24T16:32:58.910Z</time>
      </trkpt>
      <trkpt lat="45.86745" lon="4.8014">
        <ele>461.5</ele>
        <time>2019-05-24T16:32:59.202Z</time>
      </trkpt>
      <trkpt lat="45.86759" lon="4.80166">
        <ele>462</ele>
        <time>2019-05-24T16:32:59.651Z</time>
      </trkpt>
      <trkpt lat="45.86765" lon="4.80168">
        <ele>461.9</ele>
        <time>2019-05-24T16:32:59.775Z</time>
      </trkpt>
      <trkpt lat="45.86771" lon="4.80156">
        <ele>461.8</ele>
        <time>2019-05-24T16:32:59.984Z</time>
      </trkpt>
      <trkpt lat="45.86768" lon="4.8015">
        <ele>461.8</ele>
        <time>2019-05-24T16:33:00.086Z</time>
      </trkpt>
      <trkpt lat="45.86767" lon="4.80154">
        <ele>461.9</ele>
        <time>2019-05-24T16:33:00.144Z</time>
      </trkpt>
      <trkpt lat="45.86766" lon="4.80152">
        <ele>461.9</ele>
        <time>2019-05-24T16:33:00.171Z</time>
      </trkpt>
      <trkpt lat="45.86768" lon="4.80151">
        <ele>461.8</ele>
        <time>2019-05-24T16:33:00.228Z</time>
      </trkpt>
      <trkpt lat="45.86769" lon="4.80146">
        <ele>461.7</ele>
        <time>2019-05-24T16:33:00.292Z</time>
      </trkpt>
      <trkpt lat="45.86767" lon="4.80148">
        <ele>461.8</ele>
        <time>2019-05-24T16:33:00.338Z</time>
      </trkpt>
      <trkpt lat="45.86771" lon="4.80149">
        <ele>461.7</ele>
        <time>2019-05-24T16:33:00.408Z</time>
      </trkpt>
      <trkpt lat="45.86775" lon="4.80166">
        <ele>462</ele>
        <time>2019-05-24T16:33:00.665Z</time>
      </trkpt>
      <trkpt lat="45.8679" lon="4.80194">
        <ele>458.3</ele>
        <time>2019-05-24T16:33:01.155Z</time>
      </trkpt>
      <trkpt lat="45.8682" lon="4.8027">
        <ele>449.2</ele>
        <time>2019-05-24T16:33:02.376Z</time>
      </trkpt>
      <trkpt lat="45.86807" lon="4.80292">
        <ele>447</ele>
        <time>2019-05-24T16:33:02.782Z</time>
      </trkpt>
      <trkpt lat="45.86801" lon="4.80294">
        <ele>446.5</ele>
        <time>2019-05-24T16:33:02.894Z</time>
      </trkpt>
      <trkpt lat="45.86799" lon="4.80297">
        <ele>445.9</ele>
        <time>2019-05-24T16:33:02.955Z</time>
      </trkpt>
      <trkpt lat="45.86792" lon="4.80314">
        <ele>442.6</ele>
        <time>2019-05-24T16:33:03.225Z</time>
      </trkpt>
      <trkpt lat="45.86788" lon="4.80318">
        <ele>441.6</ele>
        <time>2019-05-24T16:33:03.324Z</time>
      </trkpt>
      <trkpt lat="45.86786" lon="4.80325">
        <ele>440</ele>
        <time>2019-05-24T16:33:03.445Z</time>
      </trkpt>
      <trkpt lat="45.8679" lon="4.80344">
        <ele>437.3</ele>
        <time>2019-05-24T16:33:03.721Z</time>
      </trkpt>
      <trkpt lat="45.86795" lon="4.80354">
        <ele>436.2</ele>
        <time>2019-05-24T16:33:03.890Z</time>
      </trkpt>
      <trkpt lat="45.86794" lon="4.80365">
        <ele>434.4</ele>
        <time>2019-05-24T16:33:04.043Z</time>
      </trkpt>
      <trkpt lat="45.86791" lon="4.80371">
        <ele>433.2</ele>
        <time>2019-05-24T16:33:04.139Z</time>
      </trkpt>
      <trkpt lat="45.86794" lon="4.80386">
        <ele>430.6</ele>
        <time>2019-05-24T16:33:04.357Z</time>
      </trkpt>
      <trkpt lat="45.86801" lon="4.80397">
        <ele>429.5</ele>
        <time>2019-05-24T16:33:04.557Z</time>
      </trkpt>
      <trkpt lat="45.86809" lon="4.80404">
        <ele>429</ele>
        <time>2019-05-24T16:33:04.748Z</time>
      </trkpt>
      <trkpt lat="45.8681" lon="4.80408">
        <ele>428.4</ele>
        <time>2019-05-24T16:33:04.810Z</time>
      </trkpt>
      <trkpt lat="45.86797" lon="4.80426">
        <ele>424.4</ele>
        <time>2019-05-24T16:33:05.178Z</time>
      </trkpt>
      <trkpt lat="45.86797" lon="4.80427">
        <ele>424.3</ele>
        <time>2019-05-24T16:33:05.184Z</time>
      </trkpt>
      <trkpt lat="45.86797" lon="4.80427">
        <ele>424.3</ele>
        <time>2019-05-24T16:33:05.184Z</time>
      </trkpt>
      <trkpt lat="45.86789" lon="4.80443">
        <ele>421.1</ele>
        <time>2019-05-24T16:33:05.459Z</time>
      </trkpt>
      <trkpt lat="45.86784" lon="4.80446">
        <ele>420.3</ele>
        <time>2019-05-24T16:33:05.567Z</time>
      </trkpt>
      <trkpt lat="45.8678" lon="4.80445">
        <ele>420.1</ele>
        <time>2019-05-24T16:33:05.648Z</time>
      </trkpt>
      <trkpt lat="45.86772" lon="4.80441">
        <ele>419.7</ele>
        <time>2019-05-24T16:33:05.804Z</time>
      </trkpt>
      <trkpt lat="45.86761" lon="4.8043">
        <ele>420.1</ele>
        <time>2019-05-24T16:33:06.079Z</time>
      </trkpt>
      <trkpt lat="45.86759" lon="4.80432">
        <ele>419.4</ele>
        <time>2019-05-24T16:33:06.136Z</time>
      </trkpt>
      <trkpt lat="45.86758" lon="4.80438">
        <ele>418.2</ele>
        <time>2019-05-24T16:33:06.222Z</time>
      </trkpt>
      <trkpt lat="45.86752" lon="4.80439">
        <ele>417.4</ele>
        <time>2019-05-24T16:33:06.335Z</time>
      </trkpt>
      <trkpt lat="45.86738" lon="4.8043">
        <ele>416.7</ele>
        <time>2019-05-24T16:33:06.647Z</time>
      </trkpt>
      <trkpt lat="45.86736" lon="4.80431">
        <ele>416.1</ele>
        <time>2019-05-24T16:33:06.697Z</time>
      </trkpt>
      <trkpt lat="45.86732" lon="4.80429">
        <ele>415.8</ele>
        <time>2019-05-24T16:33:06.783Z</time>
      </trkpt>
      <trkpt lat="45.86714" lon="4.8041">
        <ele>414.5</ele>
        <time>2019-05-24T16:33:07.227Z</time>
      </trkpt>
      <trkpt lat="45.86713" lon="4.80411">
        <ele>413.7</ele>
        <time>2019-05-24T16:33:07.265Z</time>
      </trkpt>
      <trkpt lat="45.86756" lon="4.8052">
        <ele>405.9</ele>
        <time>2019-05-24T16:33:09.010Z</time>
      </trkpt>
      <trkpt lat="45.86805" lon="4.80609">
        <ele>403.2</ele>
        <time>2019-05-24T16:33:10.596Z</time>
      </trkpt>
      <trkpt lat="45.86803" lon="4.80669">
        <ele>400</ele>
        <time>2019-05-24T16:33:11.437Z</time>
      </trkpt>
      <trkpt lat="45.86805" lon="4.80687">
        <ele>398.6</ele>
        <time>2019-05-24T16:33:11.695Z</time>
      </trkpt>
      <trkpt lat="45.8681" lon="4.80729">
        <ele>396.5</ele>
        <time>2019-05-24T16:33:12.290Z</time>
      </trkpt>
      <trkpt lat="45.86813" lon="4.80737">
        <ele>396.5</ele>
        <time>2019-05-24T16:33:12.406Z</time>
      </trkpt>
      <trkpt lat="45.86816" lon="4.80739">
        <ele>396.9</ele>
        <time>2019-05-24T16:33:12.476Z</time>
      </trkpt>
      <trkpt lat="45.86818" lon="4.80747">
        <ele>396.8</ele>
        <time>2019-05-24T16:33:12.587Z</time>
      </trkpt>
      <trkpt lat="45.86826" lon="4.80844">
        <ele>390.8</ele>
        <time>2019-05-24T16:33:13.960Z</time>
      </trkpt>
      <trkpt lat="45.86834" lon="4.80897">
        <ele>389.6</ele>
        <time>2019-05-24T16:33:14.712Z</time>
      </trkpt>
      <trkpt lat="45.86867" lon="4.81022">
        <ele>383</ele>
        <time>2019-05-24T16:33:16.576Z</time>
      </trkpt>
      <trkpt lat="45.86875" lon="4.8106">
        <ele>379.8</ele>
        <time>2019-05-24T16:33:17.130Z</time>
      </trkpt>
      <trkpt lat="45.86885" lon="4.81096">
        <ele>377</ele>
        <time>2019-05-24T16:33:17.671Z</time>
      </trkpt>
      <trkpt lat="45.86895" lon="4.81152">
        <ele>371</ele>
        <time>2019-05-24T16:33:18.476Z</time>
      </trkpt>
      <trkpt lat="45.86899" lon="4.81163">
        <ele>370.1</ele>
        <time>2019-05-24T16:33:18.639Z</time>
      </trkpt>
      <trkpt lat="45.86901" lon="4.81164">
        <ele>370.2</ele>
        <time>2019-05-24T16:33:18.685Z</time>
      </trkpt>
      <trkpt lat="45.86925" lon="4.81149">
        <ele>372.9</ele>
        <time>2019-05-24T16:33:19.216Z</time>
      </trkpt>
      <trkpt lat="45.86944" lon="4.81126">
        <ele>375</ele>
        <time>2019-05-24T16:33:19.714Z</time>
      </trkpt>
      <trkpt lat="45.86953" lon="4.81109">
        <ele>375.5</ele>
        <time>2019-05-24T16:33:20.015Z</time>
      </trkpt>
      <trkpt lat="45.86965" lon="4.81084">
        <ele>375.8</ele>
        <time>2019-05-24T16:33:20.427Z</time>
      </trkpt>
      <trkpt lat="45.8698" lon="4.81041">
        <ele>376.8</ele>
        <time>2019-05-24T16:33:21.111Z</time>
      </trkpt>
      <trkpt lat="45.87003" lon="4.80959">
        <ele>378.7</ele>
        <time>2019-05-24T16:33:22.341Z</time>
      </trkpt>
      <trkpt lat="45.87012" lon="4.80969">
        <ele>375.2</ele>
        <time>2019-05-24T16:33:22.575Z</time>
      </trkpt>
      <trkpt lat="45.87031" lon="4.80982">
        <ele>369.4</ele>
        <time>2019-05-24T16:33:22.989Z</time>
      </trkpt>
      <trkpt lat="45.8704" lon="4.80986">
        <ele>366.4</ele>
        <time>2019-05-24T16:33:23.189Z</time>
      </trkpt>
      <trkpt lat="45.87086" lon="4.80999">
        <ele>349.1</ele>
        <time>2019-05-24T16:33:24.117Z</time>
      </trkpt>
      <trkpt lat="45.87119" lon="4.81014">
        <ele>336.7</ele>
        <time>2019-05-24T16:33:24.811Z</time>
      </trkpt>
      <trkpt lat="45.87123" lon="4.81019">
        <ele>335.3</ele>
        <time>2019-05-24T16:33:24.915Z</time>
      </trkpt>
      <trkpt lat="45.87131" lon="4.81022">
        <ele>332</ele>
        <time>2019-05-24T16:33:25.096Z</time>
      </trkpt>
      <trkpt lat="45.87176" lon="4.81034">
        <ele>318.7</ele>
        <time>2019-05-24T16:33:26.012Z</time>
      </trkpt>
      <trkpt lat="45.87207" lon="4.81046">
        <ele>310.9</ele>
        <time>2019-05-24T16:33:26.651Z</time>
      </trkpt>
      <trkpt lat="45.87224" lon="4.81047">
        <ele>307</ele>
        <time>2019-05-24T16:33:26.979Z</time>
      </trkpt>
      <trkpt lat="45.87249" lon="4.81056">
        <ele>300.2</ele>
        <time>2019-05-24T16:33:27.505Z</time>
      </trkpt>
      <trkpt lat="45.87269" lon="4.81059">
        <ele>297.1</ele>
        <time>2019-05-24T16:33:27.907Z</time>
      </trkpt>
      <trkpt lat="45.87284" lon="4.81064">
        <ele>294.5</ele>
        <time>2019-05-24T16:33:28.207Z</time>
      </trkpt>
      <trkpt lat="45.87329" lon="4.81092">
        <ele>285.2</ele>
        <time>2019-05-24T16:33:29.187Z</time>
      </trkpt>
      <trkpt lat="45.87343" lon="4.81109">
        <ele>281.8</ele>
        <time>2019-05-24T16:33:29.562Z</time>
      </trkpt>
      <trkpt lat="45.87381" lon="4.81139">
        <ele>273.5</ele>
        <time>2019-05-24T16:33:30.423Z</time>
      </trkpt>
      <trkpt lat="45.87403" lon="4.81148">
        <ele>270.1</ele>
        <time>2019-05-24T16:33:30.891Z</time>
      </trkpt>
      <trkpt lat="45.87417" lon="4.81151">
        <ele>268</ele>
        <time>2019-05-24T16:33:31.180Z</time>
      </trkpt>
      <trkpt lat="45.87431" lon="4.81156">
        <ele>265.5</ele>
        <time>2019-05-24T16:33:31.464Z</time>
      </trkpt>
      <trkpt lat="45.87438" lon="4.81161">
        <ele>263.8</ele>
        <time>2019-05-24T16:33:31.621Z</time>
      </trkpt>
      <trkpt lat="45.8746" lon="4.81184">
        <ele>259.2</ele>
        <time>2019-05-24T16:33:32.165Z</time>
      </trkpt>
      <trkpt lat="45.87484" lon="4.81205">
        <ele>255.4</ele>
        <time>2019-05-24T16:33:32.732Z</time>
      </trkpt>
      <trkpt lat="45.87499" lon="4.81215">
        <ele>253.7</ele>
        <time>2019-05-24T16:33:33.051Z</time>
      </trkpt>
      <trkpt lat="45.87503" lon="4.81221">
        <ele>252.9</ele>
        <time>2019-05-24T16:33:33.165Z</time>
      </trkpt>
      <trkpt lat="45.87509" lon="4.81224">
        <ele>252.2</ele>
        <time>2019-05-24T16:33:33.295Z</time>
      </trkpt>
      <trkpt lat="45.87514" lon="4.8122">
        <ele>252.2</ele>
        <time>2019-05-24T16:33:33.416Z</time>
      </trkpt>
      <trkpt lat="45.87511" lon="4.81221">
        <ele>252.3</ele>
        <time>2019-05-24T16:33:33.487Z</time>
      </trkpt>
      <trkpt lat="45.87513" lon="4.81215">
        <ele>252.6</ele>
        <time>2019-05-24T16:33:33.571Z</time>
      </trkpt>
      <trkpt lat="45.87511" lon="4.81218">
        <ele>252.5</ele>
        <time>2019-05-24T16:33:33.619Z</time>
      </trkpt>
      <trkpt lat="45.87513" lon="4.81222">
        <ele>252.1</ele>
        <time>2019-05-24T16:33:33.684Z</time>
      </trkpt>
      <trkpt lat="45.87518" lon="4.81216">
        <ele>252.2</ele>
        <time>2019-05-24T16:33:33.811Z</time>
      </trkpt>
      <trkpt lat="45.87531" lon="4.8118">
        <ele>254.5</ele>
        <time>2019-05-24T16:33:34.388Z</time>
      </trkpt>
      <trkpt lat="45.87549" lon="4.81119">
        <ele>260.4</ele>
        <time>2019-05-24T16:33:35.303Z</time>
      </trkpt>
      <trkpt lat="45.87561" lon="4.81089">
        <ele>261.7</ele>
        <time>2019-05-24T16:33:35.790Z</time>
      </trkpt>
      <trkpt lat="45.87579" lon="4.81005">
        <ele>263.3</ele>
        <time>2019-05-24T16:33:37.019Z</time>
      </trkpt>
      <trkpt lat="45.87589" lon="4.8098">
        <ele>263.9</ele>
        <time>2019-05-24T16:33:37.418Z</time>
      </trkpt>
      <trkpt lat="45.87609" lon="4.80944">
        <ele>264.2</ele>
        <time>2019-05-24T16:33:38.059Z</time>
      </trkpt>
      <trkpt lat="45.87623" lon="4.80896">
        <ele>262.6</ele>
        <time>2019-05-24T16:33:38.788Z</time>
      </trkpt>
      <trkpt lat="45.87639" lon="4.80847">
        <ele>260</ele>
        <time>2019-05-24T16:33:39.546Z</time>
      </trkpt>
      <trkpt lat="45.87647" lon="4.80842">
        <ele>259.3</ele>
        <time>2019-05-24T16:33:39.727Z</time>
      </trkpt>
      <trkpt lat="45.87653" lon="4.80841">
        <ele>258.9</ele>
        <time>2019-05-24T16:33:39.837Z</time>
      </trkpt>
      <trkpt lat="45.87672" lon="4.80848">
        <ele>257.3</ele>
        <time>2019-05-24T16:33:40.241Z</time>
      </trkpt>
      <trkpt lat="45.87729" lon="4.80884">
        <ele>253.9</ele>
        <time>2019-05-24T16:33:41.477Z</time>
      </trkpt>
      <trkpt lat="45.87736" lon="4.80887">
        <ele>253.6</ele>
        <time>2019-05-24T16:33:41.621Z</time>
      </trkpt>
      <trkpt lat="45.87748" lon="4.80887">
        <ele>253.1</ele>
        <time>2019-05-24T16:33:41.878Z</time>
      </trkpt>
      <trkpt lat="45.87761" lon="4.80881">
        <ele>252.2</ele>
        <time>2019-05-24T16:33:42.142Z</time>
      </trkpt>
      <trkpt lat="45.87771" lon="4.80873">
        <ele>251.8</ele>
        <time>2019-05-24T16:33:42.375Z</time>
      </trkpt>
      <trkpt lat="45.87779" lon="4.80868">
        <ele>251.5</ele>
        <time>2019-05-24T16:33:42.555Z</time>
      </trkpt>
      <trkpt lat="45.87783" lon="4.8087">
        <ele>251.5</ele>
        <time>2019-05-24T16:33:42.623Z</time>
      </trkpt>
      <trkpt lat="45.87786" lon="4.80875">
        <ele>251.3</ele>
        <time>2019-05-24T16:33:42.728Z</time>
      </trkpt>
      <trkpt lat="45.87787" lon="4.80892">
        <ele>250.4</ele>
        <time>2019-05-24T16:33:42.964Z</time>
      </trkpt>
      <trkpt lat="45.87769" lon="4.80936">
        <ele>246.7</ele>
        <time>2019-05-24T16:33:43.670Z</time>
      </trkpt>
      <trkpt lat="45.87764" lon="4.80951">
        <ele>245.8</ele>
        <time>2019-05-24T16:33:43.904Z</time>
      </trkpt>
      <trkpt lat="45.87763" lon="4.80968">
        <ele>244.5</ele>
        <time>2019-05-24T16:33:44.137Z</time>
      </trkpt>
      <trkpt lat="45.87767" lon="4.80983">
        <ele>243.2</ele>
        <time>2019-05-24T16:33:44.356Z</time>
      </trkpt>
      <trkpt lat="45.87782" lon="4.81004">
        <ele>240.6</ele>
        <time>2019-05-24T16:33:44.780Z</time>
      </trkpt>
      <trkpt lat="45.87805" lon="4.81026">
        <ele>236.2</ele>
        <time>2019-05-24T16:33:45.333Z</time>
      </trkpt>
      <trkpt lat="45.87837" lon="4.81053">
        <ele>233.5</ele>
        <time>2019-05-24T16:33:46.075Z</time>
      </trkpt>
      <trkpt lat="45.87844" lon="4.81062">
        <ele>232.7</ele>
        <time>2019-05-24T16:33:46.268Z</time>
      </trkpt>
      <trkpt lat="45.87861" lon="4.81084">
        <ele>233</ele>
        <time>2019-05-24T16:33:46.726Z</time>
      </trkpt>
      <trkpt lat="45.87874" lon="4.81108">
        <ele>233.5</ele>
        <time>2019-05-24T16:33:47.145Z</time>
      </trkpt>
      <trkpt lat="45.87875" lon="4.81113">
        <ele>234.1</ele>
        <time>2019-05-24T16:33:47.230Z</time>
      </trkpt>
      <trkpt lat="45.87871" lon="4.81146">
        <ele>236.7</ele>
        <time>2019-05-24T16:33:47.690Z</time>
      </trkpt>
      <trkpt lat="45.8786" lon="4.81183">
        <ele>235.9</ele>
        <time>2019-05-24T16:33:48.255Z</time>
      </trkpt>
      <trkpt lat="45.87844" lon="4.81211">
        <ele>235.9</ele>
        <time>2019-05-24T16:33:48.759Z</time>
      </trkpt>
      <trkpt lat="45.87827" lon="4.81234">
        <ele>235.7</ele>
        <time>2019-05-24T16:33:49.233Z</time>
      </trkpt>
      <trkpt lat="45.87805" lon="4.81257">
        <ele>235.8</ele>
        <time>2019-05-24T16:33:49.774Z</time>
      </trkpt>
      <trkpt lat="45.87774" lon="4.81237">
        <ele>237.4</ele>
        <time>2019-05-24T16:33:50.466Z</time>
      </trkpt>
      <trkpt lat="45.87738" lon="4.81217">
        <ele>238.1</ele>
        <time>2019-05-24T16:33:51.237Z</time>
      </trkpt>
      <trkpt lat="45.8773" lon="4.81353">
        <ele>228.6</ele>
        <time>2019-05-24T16:33:53.139Z</time>
      </trkpt>
      <trkpt lat="45.8772" lon="4.81368">
        <ele>224.9</ele>
        <time>2019-05-24T16:33:53.432Z</time>
      </trkpt>
      <trkpt lat="45.87715" lon="4.81374">
        <ele>223.8</ele>
        <time>2019-05-24T16:33:53.562Z</time>
      </trkpt>
      <trkpt lat="45.87704" lon="4.8138">
        <ele>222.1</ele>
        <time>2019-05-24T16:33:53.797Z</time>
      </trkpt>
      <trkpt lat="45.87703" lon="4.81384">
        <ele>221.4</ele>
        <time>2019-05-24T16:33:53.850Z</time>
      </trkpt>
      <trkpt lat="45.87705" lon="4.81388">
        <ele>221</ele>
        <time>2019-05-24T16:33:53.913Z</time>
      </trkpt>
      <trkpt lat="45.87719" lon="4.81392">
        <ele>220.8</ele>
        <time>2019-05-24T16:33:54.191Z</time>
      </trkpt>
      <trkpt lat="45.87723" lon="4.81395">
        <ele>220.1</ele>
        <time>2019-05-24T16:33:54.277Z</time>
      </trkpt>
      <trkpt lat="45.87722" lon="4.81398">
        <ele>219.2</ele>
        <time>2019-05-24T16:33:54.312Z</time>
      </trkpt>
      <trkpt lat="45.87708" lon="4.81412">
        <ele>214.7</ele>
        <time>2019-05-24T16:33:54.657Z</time>
      </trkpt>
      <trkpt lat="45.87704" lon="4.81422">
        <ele>212.6</ele>
        <time>2019-05-24T16:33:54.818Z</time>
      </trkpt>
      <trkpt lat="45.87697" lon="4.81515">
        <ele>209.2</ele>
        <time>2019-05-24T16:33:56.118Z</time>
      </trkpt>
      <trkpt lat="45.87697" lon="4.81499">
        <ele>208.6</ele>
        <time>2019-05-24T16:33:56.339Z</time>
      </trkpt>
      <trkpt lat="45.87701" lon="4.81484">
        <ele>207.5</ele>
        <time>2019-05-24T16:33:56.552Z</time>
      </trkpt>
      <trkpt lat="45.87704" lon="4.81486">
        <ele>207</ele>
        <time>2019-05-24T16:33:56.622Z</time>
      </trkpt>
      <trkpt lat="45.87716" lon="4.81483">
        <ele>205</ele>
        <time>2019-05-24T16:33:56.865Z</time>
      </trkpt>
      <trkpt lat="45.87726" lon="4.81491">
        <ele>204.4</ele>
        <time>2019-05-24T16:33:57.086Z</time>
      </trkpt>
      <trkpt lat="45.87734" lon="4.81506">
        <ele>204.5</ele>
        <time>2019-05-24T16:33:57.362Z</time>
      </trkpt>
      <trkpt lat="45.87754" lon="4.81566">
        <ele>198</ele>
        <time>2019-05-24T16:33:58.279Z</time>
      </trkpt>
      <trkpt lat="45.87764" lon="4.8161">
        <ele>197.4</ele>
        <time>2019-05-24T16:33:58.927Z</time>
      </trkpt>
      <trkpt lat="45.87775" lon="4.81639">
        <ele>194</ele>
        <time>2019-05-24T16:33:59.389Z</time>
      </trkpt>
      <trkpt lat="45.87789" lon="4.81696">
        <ele>190.9</ele>
        <time>2019-05-24T16:34:00.226Z</time>
      </trkpt>
      <trkpt lat="45.87803" lon="4.81765">
        <ele>185.2</ele>
        <time>2019-05-24T16:34:01.229Z</time>
      </trkpt>
      <trkpt lat="45.87808" lon="4.81784">
        <ele>184</ele>
        <time>2019-05-24T16:34:01.518Z</time>
      </trkpt>
      <trkpt lat="45.87819" lon="4.81813">
        <ele>182.7</ele>
        <time>2019-05-24T16:34:01.983Z</time>
      </trkpt>
      <trkpt lat="45.87819" lon="4.81824">
        <ele>182.4</ele>
        <time>2019-05-24T16:34:02.137Z</time>
      </trkpt>
      <trkpt lat="45.87813" lon="4.81823">
        <ele>182.7</ele>
        <time>2019-05-24T16:34:02.262Z</time>
      </trkpt>
      <trkpt lat="45.87773" lon="4.81806">
        <ele>184.2</ele>
        <time>2019-05-24T16:34:03.087Z</time>
      </trkpt>
      <trkpt lat="45.87758" lon="4.81804">
        <ele>184.9</ele>
        <time>2019-05-24T16:34:03.401Z</time>
      </trkpt>
      <trkpt lat="45.87718" lon="4.8181">
        <ele>186.7</ele>
        <time>2019-05-24T16:34:04.207Z</time>
      </trkpt>
      <trkpt lat="45.87712" lon="4.81814">
        <ele>187.4</ele>
        <time>2019-05-24T16:34:04.331Z</time>
      </trkpt>
      <trkpt lat="45.87687" lon="4.81849">
        <ele>189.9</ele>
        <time>2019-05-24T16:34:05.029Z</time>
      </trkpt>
      <trkpt lat="45.87682" lon="4.81852">
        <ele>190.2</ele>
        <time>2019-05-24T16:34:05.135Z</time>
      </trkpt>
      <trkpt lat="45.87671" lon="4.81856">
        <ele>190.2</ele>
        <time>2019-05-24T16:34:05.363Z</time>
      </trkpt>
      <trkpt lat="45.87656" lon="4.81858">
        <ele>190.9</ele>
        <time>2019-05-24T16:34:05.674Z</time>
      </trkpt>
      <trkpt lat="45.87632" lon="4.81857">
        <ele>193.6</ele>
        <time>2019-05-24T16:34:06.151Z</time>
      </trkpt>
      <trkpt lat="45.87609" lon="4.81863">
        <ele>195.4</ele>
        <time>2019-05-24T16:34:06.622Z</time>
      </trkpt>
      <trkpt lat="45.8757" lon="4.81864">
        <ele>199.2</ele>
        <time>2019-05-24T16:34:07.406Z</time>
      </trkpt>
      <trkpt lat="45.8756" lon="4.8187">
        <ele>200.3</ele>
        <time>2019-05-24T16:34:07.616Z</time>
      </trkpt>
      <trkpt lat="45.87537" lon="4.81874">
        <ele>203.3</ele>
        <time>2019-05-24T16:34:08.077Z</time>
      </trkpt>
      <trkpt lat="45.87508" lon="4.81888">
        <ele>206.1</ele>
        <time>2019-05-24T16:34:08.692Z</time>
      </trkpt>
      <trkpt lat="45.87471" lon="4.81913">
        <ele>211.3</ele>
        <time>2019-05-24T16:34:09.514Z</time>
      </trkpt>
      <trkpt lat="45.87465" lon="4.81919">
        <ele>212.3</ele>
        <time>2019-05-24T16:34:09.665Z</time>
      </trkpt>
      <trkpt lat="45.87463" lon="4.81924">
        <ele>213.1</ele>
        <time>2019-05-24T16:34:09.743Z</time>
      </trkpt>
      <trkpt lat="45.87467" lon="4.81931">
        <ele>213.3</ele>
        <time>2019-05-24T16:34:09.873Z</time>
      </trkpt>
      <trkpt lat="45.87475" lon="4.81939">
        <ele>213.3</ele>
        <time>2019-05-24T16:34:10.070Z</time>
      </trkpt>
      <trkpt lat="45.87478" lon="4.81946">
        <ele>213.6</ele>
        <time>2019-05-24T16:34:10.190Z</time>
      </trkpt>
      <trkpt lat="45.8748" lon="4.81951">
        <ele>213.7</ele>
        <time>2019-05-24T16:34:10.274Z</time>
      </trkpt>
      <trkpt lat="45.87481" lon="4.81962">
        <ele>214</ele>
        <time>2019-05-24T16:34:10.424Z</time>
      </trkpt>
      <trkpt lat="45.87458" lon="4.82036">
        <ele>216.5</ele>
        <time>2019-05-24T16:34:11.551Z</time>
      </trkpt>
      <trkpt lat="45.87447" lon="4.82082">
        <ele>216.9</ele>
        <time>2019-05-24T16:34:12.220Z</time>
      </trkpt>
      <trkpt lat="45.87448" lon="4.82173">
        <ele>217.7</ele>
        <time>2019-05-24T16:34:13.490Z</time>
      </trkpt>
      <trkpt lat="45.87475" lon="4.82241">
        <ele>217</ele>
        <time>2019-05-24T16:34:14.581Z</time>
      </trkpt>
      <trkpt lat="45.87456" lon="4.82268">
        <ele>216.6</ele>
        <time>2019-05-24T16:34:15.117Z</time>
      </trkpt>
      <trkpt lat="45.87459" lon="4.8228">
        <ele>216.3</ele>
        <time>2019-05-24T16:34:15.288Z</time>
      </trkpt>
      <trkpt lat="45.87457" lon="4.82286">
        <ele>215.6</ele>
        <time>2019-05-24T16:34:15.384Z</time>
      </trkpt>
      <trkpt lat="45.87454" lon="4.82287">
        <ele>215.3</ele>
        <time>2019-05-24T16:34:15.435Z</time>
      </trkpt>
      <trkpt lat="45.87425" lon="4.82249">
        <ele>215</ele>
        <time>2019-05-24T16:34:16.214Z</time>
      </trkpt>
      <trkpt lat="45.87409" lon="4.82234">
        <ele>214.2</ele>
        <time>2019-05-24T16:34:16.598Z</time>
      </trkpt>
      <trkpt lat="45.87413" lon="4.82248">
        <ele>213.2</ele>
        <time>2019-05-24T16:34:16.806Z</time>
      </trkpt>
      <trkpt lat="45.87428" lon="4.82279">
        <ele>211</ele>
        <time>2019-05-24T16:34:17.334Z</time>
      </trkpt>
      <trkpt lat="45.8744" lon="4.82325">
        <ele>206.2</ele>
        <time>2019-05-24T16:34:18.014Z</time>
      </trkpt>
      <trkpt lat="45.87432" lon="4.8232">
        <ele>204.9</ele>
        <time>2019-05-24T16:34:18.182Z</time>
      </trkpt>
      <trkpt lat="45.87411" lon="4.82296">
        <ele>203.7</ele>
        <time>2019-05-24T16:34:18.725Z</time>
      </trkpt>
      <trkpt lat="45.87403" lon="4.82291">
        <ele>202.9</ele>
        <time>2019-05-24T16:34:18.896Z</time>
      </trkpt>
      <trkpt lat="45.87392" lon="4.82294">
        <ele>200.3</ele>
        <time>2019-05-24T16:34:19.120Z</time>
      </trkpt>
      <trkpt lat="45.8738" lon="4.82302">
        <ele>198</ele>
        <time>2019-05-24T16:34:19.388Z</time>
      </trkpt>
      <trkpt lat="45.87372" lon="4.823">
        <ele>197.8</ele>
        <time>2019-05-24T16:34:19.560Z</time>
      </trkpt>
      <trkpt lat="45.87366" lon="4.823">
        <ele>197.5</ele>
        <time>2019-05-24T16:34:19.672Z</time>
      </trkpt>
      <trkpt lat="45.87338" lon="4.82326">
        <ele>197</ele>
        <time>2019-05-24T16:34:20.347Z</time>
      </trkpt>
      <trkpt lat="45.87326" lon="4.82356">
        <ele>197.2</ele>
        <time>2019-05-24T16:34:20.816Z</time>
      </trkpt>
      <trkpt lat="45.87302" lon="4.82321">
        <ele>197.3</ele>
        <time>2019-05-24T16:34:21.499Z</time>
      </trkpt>
      <trkpt lat="45.87271" lon="4.82272">
        <ele>198.3</ele>
        <time>2019-05-24T16:34:22.416Z</time>
      </trkpt>
      <trkpt lat="45.87255" lon="4.82261">
        <ele>199.3</ele>
        <time>2019-05-24T16:34:22.773Z</time>
      </trkpt>
      <trkpt lat="45.87248" lon="4.82245">
        <ele>199.8</ele>
        <time>2019-05-24T16:34:23.038Z</time>
      </trkpt>
      <trkpt lat="45.87228" lon="4.82186">
        <ele>202.2</ele>
        <time>2019-05-24T16:34:23.949Z</time>
      </trkpt>
      <trkpt lat="45.87192" lon="4.82157">
        <ele>204.1</ele>
        <time>2019-05-24T16:34:24.783Z</time>
      </trkpt>
      <trkpt lat="45.87168" lon="4.82142">
        <ele>204.1</ele>
        <time>2019-05-24T16:34:25.301Z</time>
      </trkpt>
      <trkpt lat="45.8716" lon="4.8214">
        <ele>204.5</ele>
        <time>2019-05-24T16:34:25.469Z</time>
      </trkpt>
      <trkpt lat="45.87156" lon="4.82138">
        <ele>204.8</ele>
        <time>2019-05-24T16:34:25.558Z</time>
      </trkpt>
      <trkpt lat="45.87133" lon="4.82114">
        <ele>205.5</ele>
        <time>2019-05-24T16:34:26.116Z</time>
      </trkpt>
      <trkpt lat="45.87062" lon="4.82065">
        <ele>210.3</ele>
        <time>2019-05-24T16:34:27.707Z</time>
      </trkpt>
      <trkpt lat="45.87061" lon="4.82056">
        <ele>210.6</ele>
        <time>2019-05-24T16:34:27.844Z</time>
      </trkpt>
      <trkpt lat="45.87063" lon="4.8205">
        <ele>210.7</ele>
        <time>2019-05-24T16:34:27.939Z</time>
      </trkpt>
      <trkpt lat="45.8707" lon="4.82042">
        <ele>210.7</ele>
        <time>2019-05-24T16:34:28.108Z</time>
      </trkpt>
      <trkpt lat="45.8707" lon="4.82043">
        <ele>210.6</ele>
        <time>2019-05-24T16:34:28.131Z</time>
      </trkpt>
    </trkseg>
  </trk>
</gpx>